<?xml version="1.0" encoding="UTF-8" ?>
<gpx xmlns="http://www.topografix.com/GPX/1/1" version="1.1" xmlns:xsi="http://www.w3.org/2001/XMLSchema-instance" xsi:schemaLocation="http://www.topografix.com/GPX/1/1 http://www.topografix.com/GPX/1/1/gpx.xsd">
	<trk>
		<name>Pueblos</name>
		<trkseg>
			<trkpt lat="42.26406044" lon="-118.67718672">
				<ele>1292.5</ele>
				<time>2013-05-26T08:48:06Z</time>
				<cmt>speed=2</cmt>
				<hdop>6</hdop>
			</trkpt>
			<trkpt lat="42.26370118" lon="-118.67795216">
				<ele>1299.800048828125</ele>
				<time>2013-05-26T08:49:00Z</time>
				<cmt>speed=2.5</cmt>
				<hdop>15</hdop>
			</trkpt>
			<trkpt lat="42.26333899" lon="-118.67897953">
				<ele>1294.800048828125</ele>
				<time>2013-05-26T08:50:05Z</time>
				<cmt>speed=1.80278</cmt>
				<hdop>9</hdop>
			</trkpt>
			<trkpt lat="42.26325986" lon="-118.6794587">
				<ele>1279.0</ele>
				<time>2013-05-26T08:51:02Z</time>
				<cmt>speed=0</cmt>
				<hdop>14</hdop>
			</trkpt>
			<trkpt lat="42.26307062" lon="-118.67948768">
				<ele>1276.0</ele>
				<time>2013-05-26T08:52:03Z</time>
				<cmt>speed=2.30489</cmt>
				<hdop>11</hdop>
			</trkpt>
			<trkpt lat="42.26329313" lon="-118.67943017">
				<ele>1281.800048828125</ele>
				<time>2013-05-26T08:53:05Z</time>
				<cmt>speed=0.25</cmt>
				<hdop>8</hdop>
			</trkpt>
			<trkpt lat="42.26318433" lon="-118.67959155">
				<ele>1265.5</ele>
				<time>2013-05-26T08:54:03Z</time>
				<cmt>speed=1.11803</cmt>
				<hdop>9</hdop>
			</trkpt>
			<trkpt lat="42.26317371" lon="-118.67948502">
				<ele>1276.300048828125</ele>
				<time>2013-05-26T08:55:02Z</time>
				<cmt>speed=0.707107</cmt>
				<hdop>11</hdop>
			</trkpt>
			<trkpt lat="42.26321918" lon="-118.68003619">
				<ele>1269.5999755859375</ele>
				<time>2013-05-26T08:56:04Z</time>
				<cmt>speed=1.41421</cmt>
				<hdop>10</hdop>
			</trkpt>
			<trkpt lat="42.2630968" lon="-118.6812551">
				<ele>1268.699951171875</ele>
				<time>2013-05-26T08:57:03Z</time>
				<cmt>speed=1.58114</cmt>
				<hdop>8</hdop>
			</trkpt>
			<trkpt lat="42.26254915" lon="-118.68224171">
				<ele>1272.9000244140625</ele>
				<time>2013-05-26T08:58:04Z</time>
				<cmt>speed=2.75</cmt>
				<hdop>5</hdop>
			</trkpt>
			<trkpt lat="42.26205988" lon="-118.68302789">
				<ele>1289.4000244140625</ele>
				<time>2013-05-26T08:59:02Z</time>
				<cmt>speed=1.34629</cmt>
				<hdop>5</hdop>
			</trkpt>
			<trkpt lat="42.26154441" lon="-118.68381561">
				<ele>1283.699951171875</ele>
				<time>2013-05-26T09:00:05Z</time>
				<cmt>speed=1.5</cmt>
				<hdop>4</hdop>
			</trkpt>
			<trkpt lat="42.26117763" lon="-118.68484382">
				<ele>1289.699951171875</ele>
				<time>2013-05-26T09:01:04Z</time>
				<cmt>speed=2.06155</cmt>
				<hdop>12</hdop>
			</trkpt>
			<trkpt lat="42.26134932" lon="-118.68597365">
				<ele>1286.800048828125</ele>
				<time>2013-05-26T09:02:03Z</time>
				<cmt>speed=1.58114</cmt>
				<hdop>8</hdop>
			</trkpt>
			<trkpt lat="42.26103114" lon="-118.68715356">
				<ele>1329.699951171875</ele>
				<time>2013-05-26T09:03:04Z</time>
				<cmt>speed=1.82003</cmt>
				<hdop>12</hdop>
			</trkpt>
			<trkpt lat="42.2606551" lon="-118.6881226">
				<ele>1307.0999755859375</ele>
				<time>2013-05-26T09:04:06Z</time>
				<cmt>speed=1.58114</cmt>
				<hdop>7</hdop>
			</trkpt>
			<trkpt lat="42.2603033" lon="-118.68907969">
				<ele>1288.0999755859375</ele>
				<time>2013-05-26T09:05:05Z</time>
				<cmt>speed=1.25</cmt>
				<hdop>9</hdop>
			</trkpt>
			<trkpt lat="42.26015008" lon="-118.69017788">
				<ele>1300.300048828125</ele>
				<time>2013-05-26T09:06:06Z</time>
				<cmt>speed=1.5</cmt>
				<hdop>6</hdop>
			</trkpt>
			<trkpt lat="42.25987898" lon="-118.69134332">
				<ele>1277.300048828125</ele>
				<time>2013-05-26T09:07:06Z</time>
				<cmt>speed=1.5</cmt>
				<hdop>12</hdop>
			</trkpt>
			<trkpt lat="42.25945858" lon="-118.69229114">
				<ele>1290.5999755859375</ele>
				<time>2013-05-26T09:08:07Z</time>
				<cmt>speed=1.5</cmt>
				<hdop>8</hdop>
			</trkpt>
			<trkpt lat="42.25915484" lon="-118.69331407">
				<ele>1279.5999755859375</ele>
				<time>2013-05-26T09:09:07Z</time>
				<cmt>speed=1.80278</cmt>
				<hdop>8</hdop>
			</trkpt>
			<trkpt lat="42.25895065" lon="-118.69371582">
				<ele>1301.0999755859375</ele>
				<time>2013-05-26T09:10:08Z</time>
				<cmt>speed=0</cmt>
				<hdop>4</hdop>
			</trkpt>
			<trkpt lat="42.2589094" lon="-118.69398103">
				<ele>1307.0</ele>
				<time>2013-05-26T09:11:08Z</time>
				<cmt>speed=1.11803</cmt>
				<hdop>5</hdop>
			</trkpt>
			<trkpt lat="42.25878796" lon="-118.69514276">
				<ele>1303.4000244140625</ele>
				<time>2013-05-26T09:12:09Z</time>
				<cmt>speed=1.58114</cmt>
				<hdop>8</hdop>
			</trkpt>
			<trkpt lat="42.25836347" lon="-118.69610652">
				<ele>1317.300048828125</ele>
				<time>2013-05-26T09:13:06Z</time>
				<cmt>speed=2.06155</cmt>
				<hdop>10</hdop>
			</trkpt>
			<trkpt lat="42.25795257" lon="-118.69715993">
				<ele>1308.300048828125</ele>
				<time>2013-05-26T09:14:10Z</time>
				<cmt>speed=1.5</cmt>
				<hdop>6</hdop>
			</trkpt>
			<trkpt lat="42.25740711" lon="-118.69803957">
				<ele>1313.9000244140625</ele>
				<time>2013-05-26T09:15:10Z</time>
				<cmt>speed=1.5</cmt>
				<hdop>6</hdop>
			</trkpt>
			<trkpt lat="42.25684853" lon="-118.69881256">
				<ele>1313.5999755859375</ele>
				<time>2013-05-26T09:16:09Z</time>
				<cmt>speed=1.5</cmt>
				<hdop>9</hdop>
			</trkpt>
			<trkpt lat="42.25638723" lon="-118.69968879">
				<ele>1317.300048828125</ele>
				<time>2013-05-26T09:17:10Z</time>
				<cmt>speed=1.58114</cmt>
				<hdop>8</hdop>
			</trkpt>
			<trkpt lat="42.25587335" lon="-118.70064418">
				<ele>1303.9000244140625</ele>
				<time>2013-05-26T09:18:11Z</time>
				<cmt>speed=1.58114</cmt>
				<hdop>11</hdop>
			</trkpt>
			<trkpt lat="42.25582202" lon="-118.70159769">
				<ele>1312.4000244140625</ele>
				<time>2013-05-26T09:19:11Z</time>
				<cmt>speed=1.82003</cmt>
				<hdop>5</hdop>
			</trkpt>
			<trkpt lat="42.25551676" lon="-118.70279049">
				<ele>1346.0</ele>
				<time>2013-05-26T09:20:11Z</time>
				<cmt>speed=1.5</cmt>
				<hdop>18</hdop>
			</trkpt>
			<trkpt lat="42.25531438" lon="-118.70369971">
				<ele>1298.199951171875</ele>
				<time>2013-05-26T09:21:13Z</time>
				<cmt>speed=1.75</cmt>
				<hdop>8</hdop>
			</trkpt>
			<trkpt lat="42.2550063" lon="-118.70482296">
				<ele>1309.4000244140625</ele>
				<time>2013-05-26T09:22:10Z</time>
				<cmt>speed=2.92617</cmt>
				<hdop>10</hdop>
			</trkpt>
			<trkpt lat="42.25460248" lon="-118.70520041">
				<ele>1329.9000244140625</ele>
				<time>2013-05-26T09:23:12Z</time>
				<cmt>speed=0</cmt>
				<hdop>10</hdop>
			</trkpt>
			<trkpt lat="42.25422716" lon="-118.70556409">
				<ele>1327.0999755859375</ele>
				<time>2013-05-26T09:24:11Z</time>
				<cmt>speed=2.91548</cmt>
				<hdop>9</hdop>
			</trkpt>
			<trkpt lat="42.25406639" lon="-118.70561116">
				<ele>1329.199951171875</ele>
				<time>2013-05-26T09:25:13Z</time>
				<cmt>speed=0.25</cmt>
				<hdop>8</hdop>
			</trkpt>
			<trkpt lat="42.25356677" lon="-118.70591354">
				<ele>1322.699951171875</ele>
				<time>2013-05-26T09:26:13Z</time>
				<cmt>speed=2.23607</cmt>
				<hdop>8</hdop>
			</trkpt>
			<trkpt lat="42.25294287" lon="-118.70653277">
				<ele>1334.5999755859375</ele>
				<time>2013-05-26T09:27:14Z</time>
				<cmt>speed=1.58114</cmt>
				<hdop>6</hdop>
			</trkpt>
			<trkpt lat="42.25259037" lon="-118.70743748">
				<ele>1312.9000244140625</ele>
				<time>2013-05-26T09:28:14Z</time>
				<cmt>speed=1.60078</cmt>
				<hdop>17</hdop>
			</trkpt>
			<trkpt lat="42.25217749" lon="-118.70837264">
				<ele>1322.199951171875</ele>
				<time>2013-05-26T09:29:16Z</time>
				<cmt>speed=1.80278</cmt>
				<hdop>10</hdop>
			</trkpt>
			<trkpt lat="42.25164051" lon="-118.70923183">
				<ele>1347.5</ele>
				<time>2013-05-26T09:30:16Z</time>
				<cmt>speed=4.36606</cmt>
				<hdop>9</hdop>
			</trkpt>
			<trkpt lat="42.25150221" lon="-118.70940364">
				<ele>1351.0999755859375</ele>
				<time>2013-05-26T09:31:13Z</time>
				<cmt>speed=1.41421</cmt>
				<hdop>7</hdop>
			</trkpt>
			<trkpt lat="42.25142042" lon="-118.70942972">
				<ele>1325.699951171875</ele>
				<time>2013-05-26T09:32:13Z</time>
				<cmt>speed=0</cmt>
				<hdop>3</hdop>
			</trkpt>
			<trkpt lat="42.25143141" lon="-118.70939354">
				<ele>1326.800048828125</ele>
				<time>2013-05-26T09:33:13Z</time>
				<cmt>speed=0.25</cmt>
				<hdop>3</hdop>
			</trkpt>
			<trkpt lat="42.25141014" lon="-118.70935907">
				<ele>1323.199951171875</ele>
				<time>2013-05-26T09:34:03Z</time>
				<cmt>speed=0</cmt>
				<hdop>14</hdop>
			</trkpt>
			<trkpt lat="42.25095799" lon="-118.70934089">
				<ele>1305.699951171875</ele>
				<time>2013-05-26T09:35:03Z</time>
				<cmt>speed=2.65754</cmt>
				<hdop>19</hdop>
			</trkpt>
			<trkpt lat="42.25043522" lon="-118.70933174">
				<ele>1314.9000244140625</ele>
				<time>2013-05-26T09:36:03Z</time>
				<cmt>speed=1.11803</cmt>
				<hdop>8</hdop>
			</trkpt>
			<trkpt lat="42.24988859" lon="-118.70990126">
				<ele>1325.0</ele>
				<time>2013-05-26T09:37:04Z</time>
				<cmt>speed=3.28824</cmt>
				<hdop>11</hdop>
			</trkpt>
			<trkpt lat="42.24912352" lon="-118.71018392">
				<ele>1330.300048828125</ele>
				<time>2013-05-26T09:38:02Z</time>
				<cmt>speed=1.25</cmt>
				<hdop>15</hdop>
			</trkpt>
			<trkpt lat="42.24840331" lon="-118.71038793">
				<ele>1326.0</ele>
				<time>2013-05-26T09:39:04Z</time>
				<cmt>speed=1.58114</cmt>
				<hdop>18</hdop>
			</trkpt>
			<trkpt lat="42.24771489" lon="-118.71076328">
				<ele>1325.4000244140625</ele>
				<time>2013-05-26T09:40:04Z</time>
				<cmt>speed=1</cmt>
				<hdop>12</hdop>
			</trkpt>
			<trkpt lat="42.2475221" lon="-118.71057093">
				<ele>1336.699951171875</ele>
				<time>2013-05-26T09:41:03Z</time>
				<cmt>speed=1.03078</cmt>
				<hdop>7</hdop>
			</trkpt>
			<trkpt lat="42.24679679" lon="-118.71098251">
				<ele>1323.199951171875</ele>
				<time>2013-05-26T09:42:04Z</time>
				<cmt>speed=1.58114</cmt>
				<hdop>10</hdop>
			</trkpt>
			<trkpt lat="42.24630373" lon="-118.71116703">
				<ele>1305.9000244140625</ele>
				<time>2013-05-26T09:43:02Z</time>
				<cmt>speed=2.23607</cmt>
				<hdop>12</hdop>
			</trkpt>
			<trkpt lat="42.24638014" lon="-118.71132349">
				<ele>1319.0999755859375</ele>
				<time>2013-05-26T09:44:05Z</time>
				<cmt>speed=0</cmt>
				<hdop>4</hdop>
			</trkpt>
			<trkpt lat="42.24610053" lon="-118.71140182">
				<ele>1302.699951171875</ele>
				<time>2013-05-26T09:45:04Z</time>
				<cmt>speed=0.559017</cmt>
				<hdop>11</hdop>
			</trkpt>
			<trkpt lat="42.24554762" lon="-118.71151233">
				<ele>1314.199951171875</ele>
				<time>2013-05-26T09:46:05Z</time>
				<cmt>speed=1.82003</cmt>
				<hdop>10</hdop>
			</trkpt>
			<trkpt lat="42.24503674" lon="-118.71163821">
				<ele>1334.5</ele>
				<time>2013-05-26T09:47:05Z</time>
				<cmt>speed=1.25</cmt>
				<hdop>6</hdop>
			</trkpt>
			<trkpt lat="42.24481972" lon="-118.71210853">
				<ele>1348.4000244140625</ele>
				<time>2013-05-26T09:48:05Z</time>
				<cmt>speed=0.901388</cmt>
				<hdop>11</hdop>
			</trkpt>
			<trkpt lat="42.24492977" lon="-118.71209503">
				<ele>1335.0</ele>
				<time>2013-05-26T09:49:04Z</time>
				<cmt>speed=2.12132</cmt>
				<hdop>9</hdop>
			</trkpt>
			<trkpt lat="42.24450221" lon="-118.71244512">
				<ele>1367.300048828125</ele>
				<time>2013-05-26T09:50:06Z</time>
				<cmt>speed=0</cmt>
				<hdop>8</hdop>
			</trkpt>
			<trkpt lat="42.24458798" lon="-118.71233381">
				<ele>1340.4000244140625</ele>
				<time>2013-05-26T09:51:03Z</time>
				<cmt>speed=1.52069</cmt>
				<hdop>14</hdop>
			</trkpt>
			<trkpt lat="42.24447078" lon="-118.71240813">
				<ele>1362.0999755859375</ele>
				<time>2013-05-26T09:52:03Z</time>
				<cmt>speed=0</cmt>
				<hdop>4</hdop>
			</trkpt>
			<trkpt lat="42.2440786" lon="-118.7124957">
				<ele>1352.5999755859375</ele>
				<time>2013-05-26T09:53:05Z</time>
				<cmt>speed=1.5</cmt>
				<hdop>10</hdop>
			</trkpt>
			<trkpt lat="42.24353284" lon="-118.71273153">
				<ele>1355.800048828125</ele>
				<time>2013-05-26T09:54:03Z</time>
				<cmt>speed=1.75</cmt>
				<hdop>4</hdop>
			</trkpt>
			<trkpt lat="42.24284592" lon="-118.71282859">
				<ele>1351.9000244140625</ele>
				<time>2013-05-26T09:55:03Z</time>
				<cmt>speed=0</cmt>
				<hdop>4</hdop>
			</trkpt>
			<trkpt lat="42.24210447" lon="-118.7128792">
				<ele>1349.699951171875</ele>
				<time>2013-05-26T09:56:03Z</time>
				<cmt>speed=1.25</cmt>
				<hdop>4</hdop>
			</trkpt>
			<trkpt lat="42.24150499" lon="-118.71296395">
				<ele>1356.800048828125</ele>
				<time>2013-05-26T09:57:03Z</time>
				<cmt>speed=1.5</cmt>
				<hdop>3</hdop>
			</trkpt>
			<trkpt lat="42.24098038" lon="-118.71322789">
				<ele>1358.4000244140625</ele>
				<time>2013-05-26T09:58:04Z</time>
				<cmt>speed=1.25</cmt>
				<hdop>3</hdop>
			</trkpt>
			<trkpt lat="42.2402821" lon="-118.71341747">
				<ele>1366.699951171875</ele>
				<time>2013-05-26T09:59:05Z</time>
				<cmt>speed=1.5</cmt>
				<hdop>4</hdop>
			</trkpt>
			<trkpt lat="42.23956023" lon="-118.71334184">
				<ele>1364.0</ele>
				<time>2013-05-26T10:00:05Z</time>
				<cmt>speed=1.25</cmt>
				<hdop>3</hdop>
			</trkpt>
			<trkpt lat="42.23908204" lon="-118.71327038">
				<ele>1365.5</ele>
				<time>2013-05-26T10:01:06Z</time>
				<cmt>speed=0</cmt>
				<hdop>4</hdop>
			</trkpt>
			<trkpt lat="42.23859986" lon="-118.71307608">
				<ele>1368.300048828125</ele>
				<time>2013-05-26T10:02:06Z</time>
				<cmt>speed=1.25</cmt>
				<hdop>3</hdop>
			</trkpt>
			<trkpt lat="42.23798592" lon="-118.71289723">
				<ele>1372.0999755859375</ele>
				<time>2013-05-26T10:03:08Z</time>
				<cmt>speed=1.25</cmt>
				<hdop>4</hdop>
			</trkpt>
			<trkpt lat="42.23739254" lon="-118.71291786">
				<ele>1370.800048828125</ele>
				<time>2013-05-26T10:04:07Z</time>
				<cmt>speed=1</cmt>
				<hdop>3</hdop>
			</trkpt>
			<trkpt lat="42.23673371" lon="-118.71263136">
				<ele>1371.699951171875</ele>
				<time>2013-05-26T10:05:09Z</time>
				<cmt>speed=1</cmt>
				<hdop>4</hdop>
			</trkpt>
			<trkpt lat="42.23646925" lon="-118.71223167">
				<ele>1378.699951171875</ele>
				<time>2013-05-26T10:06:10Z</time>
				<cmt>speed=1</cmt>
				<hdop>3</hdop>
			</trkpt>
			<trkpt lat="42.23604232" lon="-118.71211775">
				<ele>1383.199951171875</ele>
				<time>2013-05-26T10:07:11Z</time>
				<cmt>speed=1</cmt>
				<hdop>3</hdop>
			</trkpt>
			<trkpt lat="42.23569436" lon="-118.71212892">
				<ele>1388.5</ele>
				<time>2013-05-26T10:08:12Z</time>
				<cmt>speed=0</cmt>
				<hdop>3</hdop>
			</trkpt>
			<trkpt lat="42.23513219" lon="-118.71186638">
				<ele>1388.199951171875</ele>
				<time>2013-05-26T10:09:12Z</time>
				<cmt>speed=1.5</cmt>
				<hdop>3</hdop>
			</trkpt>
			<trkpt lat="42.23452346" lon="-118.7117117">
				<ele>1383.4000244140625</ele>
				<time>2013-05-26T10:10:11Z</time>
				<cmt>speed=1</cmt>
				<hdop>3</hdop>
			</trkpt>
			<trkpt lat="42.2340141" lon="-118.71222144">
				<ele>1385.300048828125</ele>
				<time>2013-05-26T10:11:13Z</time>
				<cmt>speed=1.25</cmt>
				<hdop>3</hdop>
			</trkpt>
			<trkpt lat="42.2336743" lon="-118.71212495">
				<ele>1386.5999755859375</ele>
				<time>2013-05-26T10:12:13Z</time>
				<cmt>speed=0.75</cmt>
				<hdop>4</hdop>
			</trkpt>
			<trkpt lat="42.23316439" lon="-118.71203144">
				<ele>1390.0</ele>
				<time>2013-05-26T10:13:14Z</time>
				<cmt>speed=1.5</cmt>
				<hdop>3</hdop>
			</trkpt>
			<trkpt lat="42.23260468" lon="-118.71196493">
				<ele>1396.0999755859375</ele>
				<time>2013-05-26T10:14:14Z</time>
				<cmt>speed=0.25</cmt>
				<hdop>3</hdop>
			</trkpt>
			<trkpt lat="42.23199695" lon="-118.71222577">
				<ele>1396.5999755859375</ele>
				<time>2013-05-26T10:15:15Z</time>
				<cmt>speed=1.25</cmt>
				<hdop>3</hdop>
			</trkpt>
			<trkpt lat="42.23162113" lon="-118.71225552">
				<ele>1398.4000244140625</ele>
				<time>2013-05-26T10:16:15Z</time>
				<cmt>speed=0</cmt>
				<hdop>3</hdop>
			</trkpt>
			<trkpt lat="42.23126642" lon="-118.71230203">
				<ele>1399.5</ele>
				<time>2013-05-26T10:17:14Z</time>
				<cmt>speed=1.25</cmt>
				<hdop>3</hdop>
			</trkpt>
			<trkpt lat="42.23074265" lon="-118.71248893">
				<ele>1406.9000244140625</ele>
				<time>2013-05-26T10:18:16Z</time>
				<cmt>speed=1</cmt>
				<hdop>3</hdop>
			</trkpt>
			<trkpt lat="42.2305077" lon="-118.71262646">
				<ele>1415.4000244140625</ele>
				<time>2013-05-26T10:19:16Z</time>
				<cmt>speed=0</cmt>
				<hdop>3</hdop>
			</trkpt>
			<trkpt lat="42.23049101" lon="-118.71262716">
				<ele>1416.5999755859375</ele>
				<time>2013-05-26T10:20:17Z</time>
				<cmt>speed=0</cmt>
				<hdop>3</hdop>
			</trkpt>
			<trkpt lat="42.2304911" lon="-118.71262717">
				<ele>1416.699951171875</ele>
				<time>2013-05-26T10:21:17Z</time>
				<cmt>speed=0</cmt>
				<hdop>3</hdop>
			</trkpt>
			<trkpt lat="42.23048458" lon="-118.7126419">
				<ele>1417.199951171875</ele>
				<time>2013-05-26T10:22:17Z</time>
				<cmt>speed=0.25</cmt>
				<hdop>3</hdop>
			</trkpt>
			<trkpt lat="42.23012442" lon="-118.71291925">
				<ele>1421.800048828125</ele>
				<time>2013-05-26T10:23:16Z</time>
				<cmt>speed=1</cmt>
				<hdop>3</hdop>
			</trkpt>
			<trkpt lat="42.22978247" lon="-118.71324329">
				<ele>1432.800048828125</ele>
				<time>2013-05-26T10:24:17Z</time>
				<cmt>speed=0.75</cmt>
				<hdop>3</hdop>
			</trkpt>
			<trkpt lat="42.22922725" lon="-118.71350733">
				<ele>1438.5</ele>
				<time>2013-05-26T10:25:18Z</time>
				<cmt>speed=1.25</cmt>
				<hdop>3</hdop>
			</trkpt>
			<trkpt lat="42.22858035" lon="-118.71386526">
				<ele>1437.199951171875</ele>
				<time>2013-05-26T10:26:18Z</time>
				<cmt>speed=1.25</cmt>
				<hdop>4</hdop>
			</trkpt>
			<trkpt lat="42.22808285" lon="-118.7145342">
				<ele>1434.699951171875</ele>
				<time>2013-05-26T10:27:19Z</time>
				<cmt>speed=1.25</cmt>
				<hdop>4</hdop>
			</trkpt>
			<trkpt lat="42.22757637" lon="-118.71490565">
				<ele>1437.199951171875</ele>
				<time>2013-05-26T10:28:19Z</time>
				<cmt>speed=0</cmt>
				<hdop>3</hdop>
			</trkpt>
			<trkpt lat="42.22713845" lon="-118.7152147">
				<ele>1444.0999755859375</ele>
				<time>2013-05-26T10:29:19Z</time>
				<cmt>speed=1.5</cmt>
				<hdop>3</hdop>
			</trkpt>
			<trkpt lat="42.2266909" lon="-118.71579414">
				<ele>1447.199951171875</ele>
				<time>2013-05-26T10:30:20Z</time>
				<cmt>speed=1</cmt>
				<hdop>4</hdop>
			</trkpt>
			<trkpt lat="42.22622655" lon="-118.71625329">
				<ele>1449.199951171875</ele>
				<time>2013-05-26T10:31:20Z</time>
				<cmt>speed=1</cmt>
				<hdop>4</hdop>
			</trkpt>
			<trkpt lat="42.22585587" lon="-118.71678761">
				<ele>1452.4000244140625</ele>
				<time>2013-05-26T10:32:20Z</time>
				<cmt>speed=0.75</cmt>
				<hdop>3</hdop>
			</trkpt>
			<trkpt lat="42.22537474" lon="-118.71712033">
				<ele>1452.5</ele>
				<time>2013-05-26T10:33:20Z</time>
				<cmt>speed=1</cmt>
				<hdop>4</hdop>
			</trkpt>
			<trkpt lat="42.2248274" lon="-118.71725417">
				<ele>1456.9000244140625</ele>
				<time>2013-05-26T10:34:20Z</time>
				<cmt>speed=1.25</cmt>
				<hdop>3</hdop>
			</trkpt>
			<trkpt lat="42.22481691" lon="-118.71727156">
				<ele>1457.0</ele>
				<time>2013-05-26T10:35:21Z</time>
				<cmt>speed=0</cmt>
				<hdop>3</hdop>
			</trkpt>
			<trkpt lat="42.22418755" lon="-118.71747282">
				<ele>1461.5999755859375</ele>
				<time>2013-05-26T10:36:22Z</time>
				<cmt>speed=1.5</cmt>
				<hdop>3</hdop>
			</trkpt>
			<trkpt lat="42.22355158" lon="-118.71788148">
				<ele>1462.699951171875</ele>
				<time>2013-05-26T10:37:22Z</time>
				<cmt>speed=1.25</cmt>
				<hdop>4</hdop>
			</trkpt>
			<trkpt lat="42.22313404" lon="-118.71811924">
				<ele>1466.300048828125</ele>
				<time>2013-05-26T10:38:22Z</time>
				<cmt>speed=0</cmt>
				<hdop>4</hdop>
			</trkpt>
			<trkpt lat="42.22312361" lon="-118.71811661">
				<ele>1464.0999755859375</ele>
				<time>2013-05-26T10:39:23Z</time>
				<cmt>speed=0</cmt>
				<hdop>3</hdop>
			</trkpt>
			<trkpt lat="42.2231202" lon="-118.71810863">
				<ele>1463.5</ele>
				<time>2013-05-26T10:40:23Z</time>
				<cmt>speed=0</cmt>
				<hdop>3</hdop>
			</trkpt>
			<trkpt lat="42.22294486" lon="-118.71818934">
				<ele>1462.199951171875</ele>
				<time>2013-05-26T10:41:24Z</time>
				<cmt>speed=0</cmt>
				<hdop>3</hdop>
			</trkpt>
			<trkpt lat="42.22267052" lon="-118.7183722">
				<ele>1465.9000244140625</ele>
				<time>2013-05-26T10:42:25Z</time>
				<cmt>speed=1.25</cmt>
				<hdop>4</hdop>
			</trkpt>
			<trkpt lat="42.22227054" lon="-118.71876055">
				<ele>1471.699951171875</ele>
				<time>2013-05-26T10:43:25Z</time>
				<cmt>speed=0.75</cmt>
				<hdop>3</hdop>
			</trkpt>
			<trkpt lat="42.22188654" lon="-118.71908985">
				<ele>1482.800048828125</ele>
				<time>2013-05-26T10:44:26Z</time>
				<cmt>speed=1</cmt>
				<hdop>3</hdop>
			</trkpt>
			<trkpt lat="42.22144147" lon="-118.71951756">
				<ele>1488.300048828125</ele>
				<time>2013-05-26T10:45:26Z</time>
				<cmt>speed=1</cmt>
				<hdop>4</hdop>
			</trkpt>
			<trkpt lat="42.22128709" lon="-118.71977566">
				<ele>1493.9000244140625</ele>
				<time>2013-05-26T10:46:26Z</time>
				<cmt>speed=0.5</cmt>
				<hdop>4</hdop>
			</trkpt>
			<trkpt lat="42.22105196" lon="-118.71999876">
				<ele>1500.699951171875</ele>
				<time>2013-05-26T10:47:27Z</time>
				<cmt>speed=0.75</cmt>
				<hdop>4</hdop>
			</trkpt>
			<trkpt lat="42.22064971" lon="-118.72014237">
				<ele>1510.300048828125</ele>
				<time>2013-05-26T10:48:26Z</time>
				<cmt>speed=1.5</cmt>
				<hdop>3</hdop>
			</trkpt>
			<trkpt lat="42.22025128" lon="-118.72083838">
				<ele>1501.300048828125</ele>
				<time>2013-05-26T10:49:27Z</time>
				<cmt>speed=1.25</cmt>
				<hdop>3</hdop>
			</trkpt>
			<trkpt lat="42.22002753" lon="-118.72150432">
				<ele>1499.0999755859375</ele>
				<time>2013-05-26T10:50:26Z</time>
				<cmt>speed=1.25</cmt>
				<hdop>3</hdop>
			</trkpt>
			<trkpt lat="42.21987589" lon="-118.72231484">
				<ele>1494.0999755859375</ele>
				<time>2013-05-26T10:51:28Z</time>
				<cmt>speed=1.25</cmt>
				<hdop>3</hdop>
			</trkpt>
			<trkpt lat="42.21941702" lon="-118.72288635">
				<ele>1488.199951171875</ele>
				<time>2013-05-26T10:52:28Z</time>
				<cmt>speed=1.5</cmt>
				<hdop>4</hdop>
			</trkpt>
			<trkpt lat="42.21901585" lon="-118.72354267">
				<ele>1492.199951171875</ele>
				<time>2013-05-26T10:53:28Z</time>
				<cmt>speed=1.25</cmt>
				<hdop>3</hdop>
			</trkpt>
			<trkpt lat="42.21902917" lon="-118.72373802">
				<ele>1491.800048828125</ele>
				<time>2013-05-26T10:54:27Z</time>
				<cmt>speed=0</cmt>
				<hdop>3</hdop>
			</trkpt>
			<trkpt lat="42.21892544" lon="-118.72387974">
				<ele>1488.699951171875</ele>
				<time>2013-05-26T10:55:27Z</time>
				<cmt>speed=1.25</cmt>
				<hdop>3</hdop>
			</trkpt>
			<trkpt lat="42.21873758" lon="-118.72469892">
				<ele>1495.800048828125</ele>
				<time>2013-05-26T10:56:29Z</time>
				<cmt>speed=0</cmt>
				<hdop>4</hdop>
			</trkpt>
			<trkpt lat="42.21858194" lon="-118.7255572">
				<ele>1497.5</ele>
				<time>2013-05-26T10:57:29Z</time>
				<cmt>speed=1.25</cmt>
				<hdop>3</hdop>
			</trkpt>
			<trkpt lat="42.21839555" lon="-118.72604804">
				<ele>1499.5</ele>
				<time>2013-05-26T10:58:29Z</time>
				<cmt>speed=0</cmt>
				<hdop>3</hdop>
			</trkpt>
			<trkpt lat="42.21832232" lon="-118.7262517">
				<ele>1503.0</ele>
				<time>2013-05-26T10:59:28Z</time>
				<cmt>speed=0</cmt>
				<hdop>3</hdop>
			</trkpt>
			<trkpt lat="42.21832492" lon="-118.72626999">
				<ele>1502.9000244140625</ele>
				<time>2013-05-26T11:00:28Z</time>
				<cmt>speed=0</cmt>
				<hdop>3</hdop>
			</trkpt>
			<trkpt lat="42.21835066" lon="-118.72623472">
				<ele>1506.4000244140625</ele>
				<time>2013-05-26T11:01:28Z</time>
				<cmt>speed=0.25</cmt>
				<hdop>6</hdop>
			</trkpt>
			<trkpt lat="42.21832527" lon="-118.72625086">
				<ele>1500.300048828125</ele>
				<time>2013-05-26T11:02:29Z</time>
				<cmt>speed=0</cmt>
				<hdop>4</hdop>
			</trkpt>
			<trkpt lat="42.21832105" lon="-118.72623861">
				<ele>1500.800048828125</ele>
				<time>2013-05-26T11:03:00Z</time>
				<cmt>speed=0</cmt>
				<hdop>3</hdop>
			</trkpt>
			<trkpt lat="42.21832367" lon="-118.72623784">
				<ele>1501.5</ele>
				<time>2013-05-26T11:04:01Z</time>
				<cmt>speed=0</cmt>
				<hdop>4</hdop>
			</trkpt>
			<trkpt lat="42.21832067" lon="-118.7262372">
				<ele>1501.5999755859375</ele>
				<time>2013-05-26T11:05:01Z</time>
				<cmt>speed=0</cmt>
				<hdop>4</hdop>
			</trkpt>
			<trkpt lat="42.21832018" lon="-118.7262477">
				<ele>1502.199951171875</ele>
				<time>2013-05-26T11:06:01Z</time>
				<cmt>speed=0</cmt>
				<hdop>5</hdop>
			</trkpt>
			<trkpt lat="42.21834573" lon="-118.72622909">
				<ele>1497.800048828125</ele>
				<time>2013-05-26T11:07:02Z</time>
				<cmt>speed=0</cmt>
				<hdop>4</hdop>
			</trkpt>
			<trkpt lat="42.21834411" lon="-118.72622363">
				<ele>1497.5999755859375</ele>
				<time>2013-05-26T11:08:02Z</time>
				<cmt>speed=0</cmt>
				<hdop>3</hdop>
			</trkpt>
			<trkpt lat="42.2183465" lon="-118.72621748">
				<ele>1499.0999755859375</ele>
				<time>2013-05-26T11:09:02Z</time>
				<cmt>speed=0</cmt>
				<hdop>3</hdop>
			</trkpt>
			<trkpt lat="42.21834655" lon="-118.72621766">
				<ele>1499.0999755859375</ele>
				<time>2013-05-26T11:10:03Z</time>
				<cmt>speed=0</cmt>
				<hdop>3</hdop>
			</trkpt>
			<trkpt lat="42.21834075" lon="-118.72623542">
				<ele>1500.5999755859375</ele>
				<time>2013-05-26T11:11:03Z</time>
				<cmt>speed=0</cmt>
				<hdop>3</hdop>
			</trkpt>
			<trkpt lat="42.21827258" lon="-118.72611496">
				<ele>1501.0</ele>
				<time>2013-05-26T11:12:03Z</time>
				<cmt>speed=0</cmt>
				<hdop>3</hdop>
			</trkpt>
			<trkpt lat="42.21832608" lon="-118.72622465">
				<ele>1501.699951171875</ele>
				<time>2013-05-26T11:13:04Z</time>
				<cmt>speed=0</cmt>
				<hdop>3</hdop>
			</trkpt>
			<trkpt lat="42.21832907" lon="-118.72622588">
				<ele>1501.4000244140625</ele>
				<time>2013-05-26T11:14:04Z</time>
				<cmt>speed=0</cmt>
				<hdop>3</hdop>
			</trkpt>
			<trkpt lat="42.21833415" lon="-118.72623853">
				<ele>1500.5999755859375</ele>
				<time>2013-05-26T11:15:06Z</time>
				<cmt>speed=0.25</cmt>
				<hdop>3</hdop>
			</trkpt>
			<trkpt lat="42.21833336" lon="-118.72624032">
				<ele>1500.800048828125</ele>
				<time>2013-05-26T11:16:06Z</time>
				<cmt>speed=0</cmt>
				<hdop>3</hdop>
			</trkpt>
			<trkpt lat="42.2183334" lon="-118.72624018">
				<ele>1500.800048828125</ele>
				<time>2013-05-26T11:17:07Z</time>
				<cmt>speed=0</cmt>
				<hdop>3</hdop>
			</trkpt>
			<trkpt lat="42.21833035" lon="-118.7262393">
				<ele>1500.9000244140625</ele>
				<time>2013-05-26T11:18:07Z</time>
				<cmt>speed=0</cmt>
				<hdop>3</hdop>
			</trkpt>
			<trkpt lat="42.21832617" lon="-118.72623577">
				<ele>1501.0</ele>
				<time>2013-05-26T11:19:07Z</time>
				<cmt>speed=0</cmt>
				<hdop>3</hdop>
			</trkpt>
			<trkpt lat="42.21832837" lon="-118.7262404">
				<ele>1500.9000244140625</ele>
				<time>2013-05-26T11:20:07Z</time>
				<cmt>speed=0.25</cmt>
				<hdop>3</hdop>
			</trkpt>
			<trkpt lat="42.21832998" lon="-118.72624666">
				<ele>1501.199951171875</ele>
				<time>2013-05-26T11:21:08Z</time>
				<cmt>speed=0</cmt>
				<hdop>3</hdop>
			</trkpt>
			<trkpt lat="42.21832991" lon="-118.72624661">
				<ele>1501.199951171875</ele>
				<time>2013-05-26T11:22:08Z</time>
				<cmt>speed=0</cmt>
				<hdop>3</hdop>
			</trkpt>
			<trkpt lat="42.21832895" lon="-118.7262497">
				<ele>1501.5999755859375</ele>
				<time>2013-05-26T11:23:09Z</time>
				<cmt>speed=0</cmt>
				<hdop>3</hdop>
			</trkpt>
			<trkpt lat="42.21832891" lon="-118.72625329">
				<ele>1501.4000244140625</ele>
				<time>2013-05-26T11:24:09Z</time>
				<cmt>speed=0</cmt>
				<hdop>3</hdop>
			</trkpt>
			<trkpt lat="42.21842499" lon="-118.72611047">
				<ele>1501.9000244140625</ele>
				<time>2013-05-26T11:25:10Z</time>
				<cmt>speed=0.75</cmt>
				<hdop>3</hdop>
			</trkpt>
			<trkpt lat="42.2185712" lon="-118.72604012">
				<ele>1501.800048828125</ele>
				<time>2013-05-26T11:26:09Z</time>
				<cmt>speed=0</cmt>
				<hdop>3</hdop>
			</trkpt>
			<trkpt lat="42.21833851" lon="-118.72624377">
				<ele>1500.9000244140625</ele>
				<time>2013-05-26T11:27:10Z</time>
				<cmt>speed=0</cmt>
				<hdop>4</hdop>
			</trkpt>
			<trkpt lat="42.21833285" lon="-118.72623248">
				<ele>1500.9000244140625</ele>
				<time>2013-05-26T11:28:11Z</time>
				<cmt>speed=0</cmt>
				<hdop>3</hdop>
			</trkpt>
			<trkpt lat="42.21834194" lon="-118.7262519">
				<ele>1502.199951171875</ele>
				<time>2013-05-26T11:29:11Z</time>
				<cmt>speed=0</cmt>
				<hdop>3</hdop>
			</trkpt>
			<trkpt lat="42.2175812" lon="-118.72576022">
				<ele>1510.0</ele>
				<time>2013-05-26T11:31:29Z</time>
				<cmt>speed=1.5</cmt>
				<hdop>18</hdop>
			</trkpt>
			<trkpt lat="42.2174812" lon="-118.72577378">
				<ele>1500.9000244140625</ele>
				<time>2013-05-26T11:31:42Z</time>
				<cmt>speed=1.5</cmt>
				<hdop>5</hdop>
			</trkpt>
			<trkpt lat="42.2105746" lon="-118.72382604">
				<ele>1549.9000244140625</ele>
				<time>2013-05-26T11:42:41Z</time>
				<cmt>speed=1.11803</cmt>
				<hdop>4</hdop>
			</trkpt>
			<trkpt lat="42.21044376" lon="-118.72382863">
				<ele>1551.5999755859375</ele>
				<time>2013-05-26T11:43:13Z</time>
				<cmt>speed=0</cmt>
				<hdop>9</hdop>
			</trkpt>
			<trkpt lat="42.21020929" lon="-118.72376023">
				<ele>1556.5999755859375</ele>
				<time>2013-05-26T11:44:16Z</time>
				<cmt>speed=1.75</cmt>
				<hdop>3</hdop>
			</trkpt>
			<trkpt lat="42.2093874" lon="-118.72371572">
				<ele>1559.0</ele>
				<time>2013-05-26T11:45:16Z</time>
				<cmt>speed=1.75</cmt>
				<hdop>3</hdop>
			</trkpt>
			<trkpt lat="42.20867644" lon="-118.72344501">
				<ele>1565.5</ele>
				<time>2013-05-26T11:46:17Z</time>
				<cmt>speed=1.25</cmt>
				<hdop>4</hdop>
			</trkpt>
			<trkpt lat="42.2080011" lon="-118.72376988">
				<ele>1567.9000244140625</ele>
				<time>2013-05-26T11:47:17Z</time>
				<cmt>speed=1.5</cmt>
				<hdop>4</hdop>
			</trkpt>
			<trkpt lat="42.2078888" lon="-118.72305058">
				<ele>1569.199951171875</ele>
				<time>2013-05-26T11:48:22Z</time>
				<cmt>speed=1.5</cmt>
				<hdop>3</hdop>
			</trkpt>
			<trkpt lat="42.20771483" lon="-118.72217843">
				<ele>1569.0</ele>
				<time>2013-05-26T11:49:19Z</time>
				<cmt>speed=1.5</cmt>
				<hdop>4</hdop>
			</trkpt>
			<trkpt lat="42.20733328" lon="-118.7213468">
				<ele>1574.9000244140625</ele>
				<time>2013-05-26T11:50:20Z</time>
				<cmt>speed=1.75</cmt>
				<hdop>3</hdop>
			</trkpt>
			<trkpt lat="42.20682499" lon="-118.72053718">
				<ele>1579.300048828125</ele>
				<time>2013-05-26T11:51:21Z</time>
				<cmt>speed=1.5</cmt>
				<hdop>3</hdop>
			</trkpt>
			<trkpt lat="42.2064803" lon="-118.72067473">
				<ele>1578.5</ele>
				<time>2013-05-26T11:52:22Z</time>
				<cmt>speed=0</cmt>
				<hdop>3</hdop>
			</trkpt>
			<trkpt lat="42.20655945" lon="-118.72069064">
				<ele>1573.9000244140625</ele>
				<time>2013-05-26T11:53:24Z</time>
				<cmt>speed=0</cmt>
				<hdop>3</hdop>
			</trkpt>
			<trkpt lat="42.20636199" lon="-118.72084862">
				<ele>1576.5</ele>
				<time>2013-05-26T11:54:24Z</time>
				<cmt>speed=1.5</cmt>
				<hdop>3</hdop>
			</trkpt>
			<trkpt lat="42.20572624" lon="-118.721377">
				<ele>1575.699951171875</ele>
				<time>2013-05-26T11:55:24Z</time>
				<cmt>speed=1.25</cmt>
				<hdop>3</hdop>
			</trkpt>
			<trkpt lat="42.20505366" lon="-118.72193156">
				<ele>1579.9000244140625</ele>
				<time>2013-05-26T11:56:25Z</time>
				<cmt>speed=1.75</cmt>
				<hdop>3</hdop>
			</trkpt>
			<trkpt lat="42.2044013" lon="-118.72254219">
				<ele>1579.199951171875</ele>
				<time>2013-05-26T11:57:26Z</time>
				<cmt>speed=1.5</cmt>
				<hdop>3</hdop>
			</trkpt>
			<trkpt lat="42.20369917" lon="-118.72298704">
				<ele>1589.199951171875</ele>
				<time>2013-05-26T11:58:25Z</time>
				<cmt>speed=1.5</cmt>
				<hdop>3</hdop>
			</trkpt>
			<trkpt lat="42.20302948" lon="-118.72361392">
				<ele>1591.0999755859375</ele>
				<time>2013-05-26T11:59:28Z</time>
				<cmt>speed=1.25</cmt>
				<hdop>4</hdop>
			</trkpt>
			<trkpt lat="42.20271283" lon="-118.72384867">
				<ele>1597.5</ele>
				<time>2013-05-26T12:00:41Z</time>
				<cmt>speed=0</cmt>
				<hdop>3</hdop>
			</trkpt>
			<trkpt lat="42.2029123" lon="-118.72360608">
				<ele>1593.300048828125</ele>
				<time>2013-05-26T12:01:29Z</time>
				<cmt>speed=0</cmt>
				<hdop>3</hdop>
			</trkpt>
			<trkpt lat="42.20272828" lon="-118.72357333">
				<ele>1591.800048828125</ele>
				<time>2013-05-26T12:02:28Z</time>
				<cmt>speed=1.5</cmt>
				<hdop>3</hdop>
			</trkpt>
			<trkpt lat="42.201861" lon="-118.72366305">
				<ele>1597.5</ele>
				<time>2013-05-26T12:03:30Z</time>
				<cmt>speed=2</cmt>
				<hdop>4</hdop>
			</trkpt>
			<trkpt lat="42.20125844" lon="-118.72429294">
				<ele>1601.0</ele>
				<time>2013-05-26T12:04:31Z</time>
				<cmt>speed=1.5</cmt>
				<hdop>4</hdop>
			</trkpt>
			<trkpt lat="42.20068596" lon="-118.72504101">
				<ele>1604.800048828125</ele>
				<time>2013-05-26T12:05:32Z</time>
				<cmt>speed=1.5</cmt>
				<hdop>4</hdop>
			</trkpt>
			<trkpt lat="42.20003753" lon="-118.72572196">
				<ele>1609.9000244140625</ele>
				<time>2013-05-26T12:06:32Z</time>
				<cmt>speed=1.5</cmt>
				<hdop>3</hdop>
			</trkpt>
			<trkpt lat="42.19946545" lon="-118.7264785">
				<ele>1614.9000244140625</ele>
				<time>2013-05-26T12:07:33Z</time>
				<cmt>speed=1.25</cmt>
				<hdop>4</hdop>
			</trkpt>
			<trkpt lat="42.19879824" lon="-118.72690215">
				<ele>1614.9000244140625</ele>
				<time>2013-05-26T12:08:33Z</time>
				<cmt>speed=1.5</cmt>
				<hdop>3</hdop>
			</trkpt>
			<trkpt lat="42.19809385" lon="-118.7263525">
				<ele>1615.5</ele>
				<time>2013-05-26T12:09:33Z</time>
				<cmt>speed=1.5</cmt>
				<hdop>3</hdop>
			</trkpt>
			<trkpt lat="42.19748075" lon="-118.72560668">
				<ele>1618.0</ele>
				<time>2013-05-26T12:10:34Z</time>
				<cmt>speed=1.5</cmt>
				<hdop>3</hdop>
			</trkpt>
			<trkpt lat="42.19707835" lon="-118.72514862">
				<ele>1616.4000244140625</ele>
				<time>2013-05-26T12:11:35Z</time>
				<cmt>speed=0</cmt>
				<hdop>3</hdop>
			</trkpt>
			<trkpt lat="42.19707664" lon="-118.72515099">
				<ele>1616.699951171875</ele>
				<time>2013-05-26T12:12:35Z</time>
				<cmt>speed=0</cmt>
				<hdop>3</hdop>
			</trkpt>
			<trkpt lat="42.19656322" lon="-118.7245427">
				<ele>1615.5999755859375</ele>
				<time>2013-05-26T12:13:35Z</time>
				<cmt>speed=1.25</cmt>
				<hdop>3</hdop>
			</trkpt>
			<trkpt lat="42.19607527" lon="-118.72380918">
				<ele>1610.4000244140625</ele>
				<time>2013-05-26T12:14:36Z</time>
				<cmt>speed=1</cmt>
				<hdop>3</hdop>
			</trkpt>
			<trkpt lat="42.19578267" lon="-118.72331409">
				<ele>1609.199951171875</ele>
				<time>2013-05-26T12:15:36Z</time>
				<cmt>speed=1.25</cmt>
				<hdop>3</hdop>
			</trkpt>
			<trkpt lat="42.19546501" lon="-118.72293249">
				<ele>1609.800048828125</ele>
				<time>2013-05-26T12:16:35Z</time>
				<cmt>speed=0.5</cmt>
				<hdop>3</hdop>
			</trkpt>
			<trkpt lat="42.19533649" lon="-118.72285957">
				<ele>1612.300048828125</ele>
				<time>2013-05-26T12:17:37Z</time>
				<cmt>speed=0.25</cmt>
				<hdop>3</hdop>
			</trkpt>
			<trkpt lat="42.19477866" lon="-118.72263499">
				<ele>1617.199951171875</ele>
				<time>2013-05-26T12:18:36Z</time>
				<cmt>speed=1.25</cmt>
				<hdop>3</hdop>
			</trkpt>
			<trkpt lat="42.19416341" lon="-118.7227961">
				<ele>1619.0</ele>
				<time>2013-05-26T12:19:37Z</time>
				<cmt>speed=1.5</cmt>
				<hdop>3</hdop>
			</trkpt>
			<trkpt lat="42.19381547" lon="-118.7229066">
				<ele>1619.0</ele>
				<time>2013-05-26T12:20:37Z</time>
				<cmt>speed=0</cmt>
				<hdop>3</hdop>
			</trkpt>
			<trkpt lat="42.19381024" lon="-118.72290581">
				<ele>1618.699951171875</ele>
				<time>2013-05-26T12:21:37Z</time>
				<cmt>speed=0</cmt>
				<hdop>3</hdop>
			</trkpt>
			<trkpt lat="42.19344171" lon="-118.7230674">
				<ele>1621.0999755859375</ele>
				<time>2013-05-26T12:22:37Z</time>
				<cmt>speed=1.5</cmt>
				<hdop>3</hdop>
			</trkpt>
			<trkpt lat="42.1927213" lon="-118.72334413">
				<ele>1635.0</ele>
				<time>2013-05-26T12:23:38Z</time>
				<cmt>speed=1.25</cmt>
				<hdop>3</hdop>
			</trkpt>
			<trkpt lat="42.19208903" lon="-118.72357507">
				<ele>1635.699951171875</ele>
				<time>2013-05-26T12:24:38Z</time>
				<cmt>speed=1.25</cmt>
				<hdop>3</hdop>
			</trkpt>
			<trkpt lat="42.19144088" lon="-118.72379396">
				<ele>1637.9000244140625</ele>
				<time>2013-05-26T12:25:39Z</time>
				<cmt>speed=1.5</cmt>
				<hdop>3</hdop>
			</trkpt>
			<trkpt lat="42.19085238" lon="-118.72391618">
				<ele>1641.0</ele>
				<time>2013-05-26T12:26:38Z</time>
				<cmt>speed=1.25</cmt>
				<hdop>3</hdop>
			</trkpt>
			<trkpt lat="42.19015266" lon="-118.72394919">
				<ele>1647.199951171875</ele>
				<time>2013-05-26T12:27:39Z</time>
				<cmt>speed=1.25</cmt>
				<hdop>3</hdop>
			</trkpt>
			<trkpt lat="42.18947313" lon="-118.72388341">
				<ele>1651.800048828125</ele>
				<time>2013-05-26T12:28:38Z</time>
				<cmt>speed=1.5</cmt>
				<hdop>3</hdop>
			</trkpt>
			<trkpt lat="42.18879158" lon="-118.72379912">
				<ele>1652.199951171875</ele>
				<time>2013-05-26T12:29:39Z</time>
				<cmt>speed=1.25</cmt>
				<hdop>3</hdop>
			</trkpt>
			<trkpt lat="42.18819487" lon="-118.72369307">
				<ele>1656.9000244140625</ele>
				<time>2013-05-26T12:30:39Z</time>
				<cmt>speed=1.25</cmt>
				<hdop>3</hdop>
			</trkpt>
			<trkpt lat="42.18756624" lon="-118.72367846">
				<ele>1661.800048828125</ele>
				<time>2013-05-26T12:31:39Z</time>
				<cmt>speed=1.25</cmt>
				<hdop>3</hdop>
			</trkpt>
			<trkpt lat="42.18724362" lon="-118.72357255">
				<ele>1662.9000244140625</ele>
				<time>2013-05-26T12:32:40Z</time>
				<cmt>speed=0</cmt>
				<hdop>3</hdop>
			</trkpt>
			<trkpt lat="42.18695369" lon="-118.72347121">
				<ele>1663.9000244140625</ele>
				<time>2013-05-26T12:33:42Z</time>
				<cmt>speed=1</cmt>
				<hdop>3</hdop>
			</trkpt>
			<trkpt lat="42.1863311" lon="-118.72341273">
				<ele>1671.4000244140625</ele>
				<time>2013-05-26T12:34:42Z</time>
				<cmt>speed=1.5</cmt>
				<hdop>4</hdop>
			</trkpt>
			<trkpt lat="42.18579852" lon="-118.72345588">
				<ele>1682.300048828125</ele>
				<time>2013-05-26T12:35:42Z</time>
				<cmt>speed=1</cmt>
				<hdop>3</hdop>
			</trkpt>
			<trkpt lat="42.18512317" lon="-118.72345031">
				<ele>1685.699951171875</ele>
				<time>2013-05-26T12:36:43Z</time>
				<cmt>speed=0</cmt>
				<hdop>3</hdop>
			</trkpt>
			<trkpt lat="42.18459413" lon="-118.72344828">
				<ele>1685.9000244140625</ele>
				<time>2013-05-26T12:37:43Z</time>
				<cmt>speed=1.75</cmt>
				<hdop>4</hdop>
			</trkpt>
			<trkpt lat="42.18400988" lon="-118.72351962">
				<ele>1692.199951171875</ele>
				<time>2013-05-26T12:38:44Z</time>
				<cmt>speed=0.75</cmt>
				<hdop>3</hdop>
			</trkpt>
			<trkpt lat="42.18370559" lon="-118.72351487">
				<ele>1699.199951171875</ele>
				<time>2013-05-26T12:39:44Z</time>
				<cmt>speed=1</cmt>
				<hdop>4</hdop>
			</trkpt>
			<trkpt lat="42.18310296" lon="-118.72317156">
				<ele>1697.9000244140625</ele>
				<time>2013-05-26T12:40:45Z</time>
				<cmt>speed=0.75</cmt>
				<hdop>4</hdop>
			</trkpt>
			<trkpt lat="42.1824495" lon="-118.72302225">
				<ele>1702.800048828125</ele>
				<time>2013-05-26T12:41:44Z</time>
				<cmt>speed=1</cmt>
				<hdop>3</hdop>
			</trkpt>
			<trkpt lat="42.18184154" lon="-118.72295251">
				<ele>1708.4000244140625</ele>
				<time>2013-05-26T12:42:46Z</time>
				<cmt>speed=1.25</cmt>
				<hdop>3</hdop>
			</trkpt>
			<trkpt lat="42.18141461" lon="-118.72292448">
				<ele>1706.300048828125</ele>
				<time>2013-05-26T12:43:46Z</time>
				<cmt>speed=1.75</cmt>
				<hdop>4</hdop>
			</trkpt>
			<trkpt lat="42.18077628" lon="-118.72280884">
				<ele>1723.0999755859375</ele>
				<time>2013-05-26T12:44:47Z</time>
				<cmt>speed=0.75</cmt>
				<hdop>4</hdop>
			</trkpt>
			<trkpt lat="42.18005578" lon="-118.72257567">
				<ele>1723.300048828125</ele>
				<time>2013-05-26T12:45:47Z</time>
				<cmt>speed=1.5</cmt>
				<hdop>3</hdop>
			</trkpt>
			<trkpt lat="42.17926924" lon="-118.72238603">
				<ele>1722.199951171875</ele>
				<time>2013-05-26T12:46:47Z</time>
				<cmt>speed=1.5</cmt>
				<hdop>3</hdop>
			</trkpt>
			<trkpt lat="42.17860919" lon="-118.72198032">
				<ele>1720.9000244140625</ele>
				<time>2013-05-26T12:47:47Z</time>
				<cmt>speed=1.25</cmt>
				<hdop>3</hdop>
			</trkpt>
			<trkpt lat="42.17815092" lon="-118.72176455">
				<ele>1718.300048828125</ele>
				<time>2013-05-26T12:48:48Z</time>
				<cmt>speed=1.25</cmt>
				<hdop>3</hdop>
			</trkpt>
			<trkpt lat="42.17771788" lon="-118.72147092">
				<ele>1720.800048828125</ele>
				<time>2013-05-26T12:49:48Z</time>
				<cmt>speed=1.25</cmt>
				<hdop>3</hdop>
			</trkpt>
			<trkpt lat="42.17700688" lon="-118.72111387">
				<ele>1716.0</ele>
				<time>2013-05-26T12:50:48Z</time>
				<cmt>speed=1.5</cmt>
				<hdop>3</hdop>
			</trkpt>
			<trkpt lat="42.17624894" lon="-118.72099132">
				<ele>1722.4000244140625</ele>
				<time>2013-05-26T12:51:48Z</time>
				<cmt>speed=1.25</cmt>
				<hdop>3</hdop>
			</trkpt>
			<trkpt lat="42.17548116" lon="-118.7212187">
				<ele>1720.5999755859375</ele>
				<time>2013-05-26T12:52:49Z</time>
				<cmt>speed=1.5</cmt>
				<hdop>3</hdop>
			</trkpt>
			<trkpt lat="42.17514028" lon="-118.72135891">
				<ele>1726.0999755859375</ele>
				<time>2013-05-26T12:53:50Z</time>
				<cmt>speed=0</cmt>
				<hdop>3</hdop>
			</trkpt>
			<trkpt lat="42.17491652" lon="-118.72144005">
				<ele>1728.4000244140625</ele>
				<time>2013-05-26T12:54:50Z</time>
				<cmt>speed=1.25</cmt>
				<hdop>3</hdop>
			</trkpt>
			<trkpt lat="42.17416595" lon="-118.72178292">
				<ele>1723.4000244140625</ele>
				<time>2013-05-26T12:55:50Z</time>
				<cmt>speed=1.5</cmt>
				<hdop>3</hdop>
			</trkpt>
			<trkpt lat="42.17343746" lon="-118.72200529">
				<ele>1726.300048828125</ele>
				<time>2013-05-26T12:56:50Z</time>
				<cmt>speed=1.5</cmt>
				<hdop>3</hdop>
			</trkpt>
			<trkpt lat="42.17268097" lon="-118.72225652">
				<ele>1727.800048828125</ele>
				<time>2013-05-26T12:57:52Z</time>
				<cmt>speed=1.5</cmt>
				<hdop>3</hdop>
			</trkpt>
			<trkpt lat="42.17201159" lon="-118.72253819">
				<ele>1730.699951171875</ele>
				<time>2013-05-26T12:58:52Z</time>
				<cmt>speed=1.25</cmt>
				<hdop>3</hdop>
			</trkpt>
			<trkpt lat="42.17130856" lon="-118.72279338">
				<ele>1736.5999755859375</ele>
				<time>2013-05-26T12:59:51Z</time>
				<cmt>speed=1.5</cmt>
				<hdop>3</hdop>
			</trkpt>
			<trkpt lat="42.1706377" lon="-118.7231645">
				<ele>1742.5</ele>
				<time>2013-05-26T13:00:50Z</time>
				<cmt>speed=1.25</cmt>
				<hdop>3</hdop>
			</trkpt>
			<trkpt lat="42.17002205" lon="-118.72296393">
				<ele>1737.9000244140625</ele>
				<time>2013-05-26T13:01:51Z</time>
				<cmt>speed=1.25</cmt>
				<hdop>9</hdop>
			</trkpt>
			<trkpt lat="42.16971291" lon="-118.72203533">
				<ele>1736.300048828125</ele>
				<time>2013-05-26T13:02:51Z</time>
				<cmt>speed=1.25</cmt>
				<hdop>4</hdop>
			</trkpt>
			<trkpt lat="42.16929192" lon="-118.72142635">
				<ele>1740.199951171875</ele>
				<time>2013-05-26T13:03:50Z</time>
				<cmt>speed=1.25</cmt>
				<hdop>3</hdop>
			</trkpt>
			<trkpt lat="42.16894332" lon="-118.72074401">
				<ele>1737.4000244140625</ele>
				<time>2013-05-26T13:04:51Z</time>
				<cmt>speed=1.25</cmt>
				<hdop>3</hdop>
			</trkpt>
			<trkpt lat="42.16893429" lon="-118.72052574">
				<ele>1741.5</ele>
				<time>2013-05-26T13:05:51Z</time>
				<cmt>speed=0</cmt>
				<hdop>3</hdop>
			</trkpt>
			<trkpt lat="42.16888451" lon="-118.7203546">
				<ele>1744.4000244140625</ele>
				<time>2013-05-26T13:06:51Z</time>
				<cmt>speed=1</cmt>
				<hdop>3</hdop>
			</trkpt>
			<trkpt lat="42.16885711" lon="-118.720265">
				<ele>1744.300048828125</ele>
				<time>2013-05-26T13:07:51Z</time>
				<cmt>speed=0</cmt>
				<hdop>3</hdop>
			</trkpt>
			<trkpt lat="42.16891908" lon="-118.72045591">
				<ele>1743.5</ele>
				<time>2013-05-26T13:08:51Z</time>
				<cmt>speed=1.25</cmt>
				<hdop>4</hdop>
			</trkpt>
			<trkpt lat="42.16926829" lon="-118.72130748">
				<ele>1736.9000244140625</ele>
				<time>2013-05-26T13:09:51Z</time>
				<cmt>speed=1.25</cmt>
				<hdop>3</hdop>
			</trkpt>
			<trkpt lat="42.1697741" lon="-118.7220802">
				<ele>1738.5</ele>
				<time>2013-05-26T13:10:51Z</time>
				<cmt>speed=1.25</cmt>
				<hdop>3</hdop>
			</trkpt>
			<trkpt lat="42.17007907" lon="-118.72300356">
				<ele>1739.199951171875</ele>
				<time>2013-05-26T13:11:52Z</time>
				<cmt>speed=1</cmt>
				<hdop>4</hdop>
			</trkpt>
			<trkpt lat="42.17022968" lon="-118.72370151">
				<ele>1740.5999755859375</ele>
				<time>2013-05-26T13:12:51Z</time>
				<cmt>speed=1.25</cmt>
				<hdop>3</hdop>
			</trkpt>
			<trkpt lat="42.1704789" lon="-118.72443277">
				<ele>1740.300048828125</ele>
				<time>2013-05-26T13:13:53Z</time>
				<cmt>speed=1</cmt>
				<hdop>3</hdop>
			</trkpt>
			<trkpt lat="42.17075699" lon="-118.72480379">
				<ele>1749.800048828125</ele>
				<time>2013-05-26T13:14:53Z</time>
				<cmt>speed=0</cmt>
				<hdop>3</hdop>
			</trkpt>
			<trkpt lat="42.17106498" lon="-118.72533558">
				<ele>1748.300048828125</ele>
				<time>2013-05-26T13:15:53Z</time>
				<cmt>speed=1.25</cmt>
				<hdop>3</hdop>
			</trkpt>
			<trkpt lat="42.17142722" lon="-118.72588867">
				<ele>1751.5</ele>
				<time>2013-05-26T13:16:54Z</time>
				<cmt>speed=1.25</cmt>
				<hdop>3</hdop>
			</trkpt>
			<trkpt lat="42.17182701" lon="-118.72634653">
				<ele>1754.5</ele>
				<time>2013-05-26T13:17:53Z</time>
				<cmt>speed=1</cmt>
				<hdop>3</hdop>
			</trkpt>
			<trkpt lat="42.17225422" lon="-118.72673702">
				<ele>1754.800048828125</ele>
				<time>2013-05-26T13:18:54Z</time>
				<cmt>speed=0.75</cmt>
				<hdop>3</hdop>
			</trkpt>
			<trkpt lat="42.17258201" lon="-118.72727805">
				<ele>1758.800048828125</ele>
				<time>2013-05-26T13:19:55Z</time>
				<cmt>speed=1.25</cmt>
				<hdop>4</hdop>
			</trkpt>
			<trkpt lat="42.17262179" lon="-118.72734816">
				<ele>1762.199951171875</ele>
				<time>2013-05-26T13:20:56Z</time>
				<cmt>speed=0</cmt>
				<hdop>4</hdop>
			</trkpt>
			<trkpt lat="42.17263525" lon="-118.727427">
				<ele>1761.699951171875</ele>
				<time>2013-05-26T13:21:56Z</time>
				<cmt>speed=0</cmt>
				<hdop>4</hdop>
			</trkpt>
			<trkpt lat="42.1727267" lon="-118.72815509">
				<ele>1765.9000244140625</ele>
				<time>2013-05-26T13:22:56Z</time>
				<cmt>speed=0.75</cmt>
				<hdop>3</hdop>
			</trkpt>
			<trkpt lat="42.17262354" lon="-118.72866636">
				<ele>1770.0999755859375</ele>
				<time>2013-05-26T13:23:56Z</time>
				<cmt>speed=0</cmt>
				<hdop>3</hdop>
			</trkpt>
			<trkpt lat="42.17248315" lon="-118.72892027">
				<ele>1776.199951171875</ele>
				<time>2013-05-26T13:24:57Z</time>
				<cmt>speed=1</cmt>
				<hdop>3</hdop>
			</trkpt>
			<trkpt lat="42.17218934" lon="-118.72942695">
				<ele>1780.9000244140625</ele>
				<time>2013-05-26T13:25:57Z</time>
				<cmt>speed=1</cmt>
				<hdop>3</hdop>
			</trkpt>
			<trkpt lat="42.17212679" lon="-118.72996795">
				<ele>1787.800048828125</ele>
				<time>2013-05-26T13:26:57Z</time>
				<cmt>speed=1</cmt>
				<hdop>3</hdop>
			</trkpt>
			<trkpt lat="42.17194157" lon="-118.73045507">
				<ele>1796.5999755859375</ele>
				<time>2013-05-26T13:27:56Z</time>
				<cmt>speed=1</cmt>
				<hdop>3</hdop>
			</trkpt>
			<trkpt lat="42.17177756" lon="-118.73096958">
				<ele>1799.699951171875</ele>
				<time>2013-05-26T13:28:57Z</time>
				<cmt>speed=1</cmt>
				<hdop>3</hdop>
			</trkpt>
			<trkpt lat="42.17145593" lon="-118.73141135">
				<ele>1791.4000244140625</ele>
				<time>2013-05-26T13:30:01Z</time>
				<cmt>speed=0.75</cmt>
				<hdop>7</hdop>
			</trkpt>
			<trkpt lat="42.17122447" lon="-118.73178329">
				<ele>1837.4000244140625</ele>
				<time>2013-05-26T13:30:59Z</time>
				<cmt>speed=1.58114</cmt>
				<hdop>10</hdop>
			</trkpt>
			<trkpt lat="42.17121106" lon="-118.73224578">
				<ele>1825.5999755859375</ele>
				<time>2013-05-26T13:32:00Z</time>
				<cmt>speed=1.67705</cmt>
				<hdop>9</hdop>
			</trkpt>
			<trkpt lat="42.17116102" lon="-118.73232601">
				<ele>1818.699951171875</ele>
				<time>2013-05-26T13:33:01Z</time>
				<cmt>speed=1</cmt>
				<hdop>10</hdop>
			</trkpt>
			<trkpt lat="42.17105035" lon="-118.73260154">
				<ele>1805.699951171875</ele>
				<time>2013-05-26T13:34:03Z</time>
				<cmt>speed=0</cmt>
				<hdop>6</hdop>
			</trkpt>
			<trkpt lat="42.17098399" lon="-118.7327267">
				<ele>1797.199951171875</ele>
				<time>2013-05-26T13:35:02Z</time>
				<cmt>speed=0</cmt>
				<hdop>5</hdop>
			</trkpt>
			<trkpt lat="42.17067601" lon="-118.73298862">
				<ele>1811.0999755859375</ele>
				<time>2013-05-26T13:36:02Z</time>
				<cmt>speed=1.11803</cmt>
				<hdop>6</hdop>
			</trkpt>
			<trkpt lat="42.17043145" lon="-118.73354663">
				<ele>1820.4000244140625</ele>
				<time>2013-05-26T13:37:03Z</time>
				<cmt>speed=1.25</cmt>
				<hdop>13</hdop>
			</trkpt>
			<trkpt lat="42.1702422" lon="-118.73369124">
				<ele>1836.699951171875</ele>
				<time>2013-05-26T13:38:02Z</time>
				<cmt>speed=0</cmt>
				<hdop>8</hdop>
			</trkpt>
			<trkpt lat="42.17012913" lon="-118.73396485">
				<ele>1829.9000244140625</ele>
				<time>2013-05-26T13:39:02Z</time>
				<cmt>speed=0</cmt>
				<hdop>12</hdop>
			</trkpt>
			<trkpt lat="42.17005103" lon="-118.73404963">
				<ele>1829.5</ele>
				<time>2013-05-26T13:40:01Z</time>
				<cmt>speed=0</cmt>
				<hdop>8</hdop>
			</trkpt>
			<trkpt lat="42.16968168" lon="-118.73453029">
				<ele>1838.5</ele>
				<time>2013-05-26T13:41:00Z</time>
				<cmt>speed=2.12132</cmt>
				<hdop>13</hdop>
			</trkpt>
			<trkpt lat="42.16959885" lon="-118.73500292">
				<ele>1822.4000244140625</ele>
				<time>2013-05-26T13:42:03Z</time>
				<cmt>speed=0.5</cmt>
				<hdop>6</hdop>
			</trkpt>
			<trkpt lat="42.1694865" lon="-118.73517732">
				<ele>1885.699951171875</ele>
				<time>2013-05-26T13:43:00Z</time>
				<cmt>speed=1.58114</cmt>
				<hdop>7</hdop>
			</trkpt>
			<trkpt lat="42.16955736" lon="-118.7350962">
				<ele>1845.0999755859375</ele>
				<time>2013-05-26T13:44:03Z</time>
				<cmt>speed=0</cmt>
				<hdop>15</hdop>
			</trkpt>
			<trkpt lat="42.16950813" lon="-118.73513612">
				<ele>1852.300048828125</ele>
				<time>2013-05-26T13:45:03Z</time>
				<cmt>speed=0</cmt>
				<hdop>8</hdop>
			</trkpt>
			<trkpt lat="42.16941369" lon="-118.7351755">
				<ele>1853.9000244140625</ele>
				<time>2013-05-26T13:46:04Z</time>
				<cmt>speed=0.559017</cmt>
				<hdop>11</hdop>
			</trkpt>
			<trkpt lat="42.16955384" lon="-118.73516043">
				<ele>1847.0999755859375</ele>
				<time>2013-05-26T13:47:00Z</time>
				<cmt>speed=0</cmt>
				<hdop>4</hdop>
			</trkpt>
			<trkpt lat="42.16954954" lon="-118.73516326">
				<ele>1847.800048828125</ele>
				<time>2013-05-26T13:47:58Z</time>
				<cmt>speed=0</cmt>
				<hdop>3</hdop>
			</trkpt>
			<trkpt lat="42.1695041" lon="-118.7352472">
				<ele>1847.5</ele>
				<time>2013-05-26T13:48:59Z</time>
				<cmt>speed=1</cmt>
				<hdop>4</hdop>
			</trkpt>
			<trkpt lat="42.16929893" lon="-118.73563313">
				<ele>1850.9000244140625</ele>
				<time>2013-05-26T13:49:59Z</time>
				<cmt>speed=0</cmt>
				<hdop>3</hdop>
			</trkpt>
			<trkpt lat="42.1696211" lon="-118.73583375">
				<ele>1855.4000244140625</ele>
				<time>2013-05-26T13:51:00Z</time>
				<cmt>speed=1</cmt>
				<hdop>3</hdop>
			</trkpt>
			<trkpt lat="42.16988353" lon="-118.73604843">
				<ele>1850.699951171875</ele>
				<time>2013-05-26T13:52:00Z</time>
				<cmt>speed=0.75</cmt>
				<hdop>3</hdop>
			</trkpt>
			<trkpt lat="42.17024249" lon="-118.73620587">
				<ele>1843.0999755859375</ele>
				<time>2013-05-26T13:53:00Z</time>
				<cmt>speed=1</cmt>
				<hdop>3</hdop>
			</trkpt>
			<trkpt lat="42.17052023" lon="-118.7364489">
				<ele>1833.4000244140625</ele>
				<time>2013-05-26T13:53:59Z</time>
				<cmt>speed=0.75</cmt>
				<hdop>3</hdop>
			</trkpt>
			<trkpt lat="42.17071655" lon="-118.73660261">
				<ele>1826.9000244140625</ele>
				<time>2013-05-26T13:55:00Z</time>
				<cmt>speed=0</cmt>
				<hdop>3</hdop>
			</trkpt>
			<trkpt lat="42.17089999" lon="-118.7369738">
				<ele>1829.5999755859375</ele>
				<time>2013-05-26T13:56:01Z</time>
				<cmt>speed=0.75</cmt>
				<hdop>3</hdop>
			</trkpt>
			<trkpt lat="42.17088718" lon="-118.73704869">
				<ele>1832.5999755859375</ele>
				<time>2013-05-26T13:57:02Z</time>
				<cmt>speed=0</cmt>
				<hdop>3</hdop>
			</trkpt>
			<trkpt lat="42.17090684" lon="-118.73707771">
				<ele>1832.5999755859375</ele>
				<time>2013-05-26T13:58:02Z</time>
				<cmt>speed=1</cmt>
				<hdop>3</hdop>
			</trkpt>
			<trkpt lat="42.17088387" lon="-118.73705822">
				<ele>1832.5999755859375</ele>
				<time>2013-05-26T13:59:02Z</time>
				<cmt>speed=0</cmt>
				<hdop>3</hdop>
			</trkpt>
			<trkpt lat="42.17089562" lon="-118.73703948">
				<ele>1835.4000244140625</ele>
				<time>2013-05-26T14:00:03Z</time>
				<cmt>speed=0.25</cmt>
				<hdop>3</hdop>
			</trkpt>
			<trkpt lat="42.17089803" lon="-118.73702176">
				<ele>1835.300048828125</ele>
				<time>2013-05-26T14:01:04Z</time>
				<cmt>speed=0</cmt>
				<hdop>3</hdop>
			</trkpt>
			<trkpt lat="42.17089931" lon="-118.73705188">
				<ele>1835.5</ele>
				<time>2013-05-26T14:02:04Z</time>
				<cmt>speed=0.25</cmt>
				<hdop>3</hdop>
			</trkpt>
			<trkpt lat="42.1709081" lon="-118.73704309">
				<ele>1834.0</ele>
				<time>2013-05-26T14:03:05Z</time>
				<cmt>speed=0.25</cmt>
				<hdop>3</hdop>
			</trkpt>
			<trkpt lat="42.17090372" lon="-118.73702959">
				<ele>1832.4000244140625</ele>
				<time>2013-05-26T14:04:06Z</time>
				<cmt>speed=0</cmt>
				<hdop>3</hdop>
			</trkpt>
			<trkpt lat="42.17090235" lon="-118.73702901">
				<ele>1832.199951171875</ele>
				<time>2013-05-26T14:04:12Z</time>
				<cmt>speed=0</cmt>
				<hdop>3</hdop>
			</trkpt>
			<trkpt lat="42.17101921" lon="-118.73679339">
				<ele>1846.9000244140625</ele>
				<time>2013-05-27T06:19:19Z</time>
				<cmt>speed=0.25</cmt>
				<hdop>19</hdop>
			</trkpt>
			<trkpt lat="42.17097256" lon="-118.73681552">
				<ele>1885.5</ele>
				<time>2013-05-27T06:19:51Z</time>
				<cmt>speed=0.75</cmt>
				<hdop>18</hdop>
			</trkpt>
			<trkpt lat="42.1704199" lon="-118.73698786">
				<ele>1879.9000244140625</ele>
				<time>2013-05-27T06:20:51Z</time>
				<cmt>speed=0.5</cmt>
				<hdop>18</hdop>
			</trkpt>
			<trkpt lat="42.16996612" lon="-118.73687521">
				<ele>1876.300048828125</ele>
				<time>2013-05-27T06:21:52Z</time>
				<cmt>speed=1.25</cmt>
				<hdop>12</hdop>
			</trkpt>
			<trkpt lat="42.1697192" lon="-118.73628419">
				<ele>1907.5</ele>
				<time>2013-05-27T06:22:52Z</time>
				<cmt>speed=0.75</cmt>
				<hdop>18</hdop>
			</trkpt>
			<trkpt lat="42.16924426" lon="-118.73592553">
				<ele>1879.5</ele>
				<time>2013-05-27T06:23:52Z</time>
				<cmt>speed=1</cmt>
				<hdop>17</hdop>
			</trkpt>
			<trkpt lat="42.16875402" lon="-118.73565953">
				<ele>1867.800048828125</ele>
				<time>2013-05-27T06:24:55Z</time>
				<cmt>speed=0.5</cmt>
				<hdop>17</hdop>
			</trkpt>
			<trkpt lat="42.16848138" lon="-118.7353728">
				<ele>1896.0999755859375</ele>
				<time>2013-05-27T06:25:54Z</time>
				<cmt>speed=1</cmt>
				<hdop>19</hdop>
			</trkpt>
			<trkpt lat="42.16817588" lon="-118.7356273">
				<ele>1893.300048828125</ele>
				<time>2013-05-27T06:26:49Z</time>
				<cmt>speed=4.93077</cmt>
				<hdop>10</hdop>
			</trkpt>
			<trkpt lat="42.16802427" lon="-118.73574683">
				<ele>1904.5999755859375</ele>
				<time>2013-05-27T06:27:52Z</time>
				<cmt>speed=0</cmt>
				<hdop>15</hdop>
			</trkpt>
			<trkpt lat="42.16790952" lon="-118.73583915">
				<ele>1890.9000244140625</ele>
				<time>2013-05-27T06:29:04Z</time>
				<cmt>speed=0.75</cmt>
				<hdop>14</hdop>
			</trkpt>
			<trkpt lat="42.16755057" lon="-118.73536862">
				<ele>1853.5999755859375</ele>
				<time>2013-05-27T06:29:53Z</time>
				<cmt>speed=0</cmt>
				<hdop>16</hdop>
			</trkpt>
			<trkpt lat="42.16735078" lon="-118.73592455">
				<ele>1931.5999755859375</ele>
				<time>2013-05-27T06:30:57Z</time>
				<cmt>speed=0.5</cmt>
				<hdop>19</hdop>
			</trkpt>
			<trkpt lat="42.16754497" lon="-118.73568139">
				<ele>1828.5</ele>
				<time>2013-05-27T06:31:59Z</time>
				<cmt>speed=0</cmt>
				<hdop>16</hdop>
			</trkpt>
			<trkpt lat="42.16730858" lon="-118.73592318">
				<ele>1809.0999755859375</ele>
				<time>2013-05-27T06:33:07Z</time>
				<cmt>speed=0.75</cmt>
				<hdop>19</hdop>
			</trkpt>
			<trkpt lat="42.16693265" lon="-118.73571476">
				<ele>1805.699951171875</ele>
				<time>2013-05-27T06:33:53Z</time>
				<cmt>speed=0</cmt>
				<hdop>18</hdop>
			</trkpt>
			<trkpt lat="42.16698491" lon="-118.73607732">
				<ele>1917.300048828125</ele>
				<time>2013-05-27T06:34:53Z</time>
				<cmt>speed=0</cmt>
				<hdop>16</hdop>
			</trkpt>
			<trkpt lat="42.16658957" lon="-118.73634059">
				<ele>1885.5</ele>
				<time>2013-05-27T06:35:54Z</time>
				<cmt>speed=0.5</cmt>
				<hdop>18</hdop>
			</trkpt>
			<trkpt lat="42.16633144" lon="-118.73654526">
				<ele>1929.800048828125</ele>
				<time>2013-05-27T06:36:51Z</time>
				<cmt>speed=1.34629</cmt>
				<hdop>16</hdop>
			</trkpt>
			<trkpt lat="42.16671949" lon="-118.7362171">
				<ele>1800.4000244140625</ele>
				<time>2013-05-27T06:37:09Z</time>
				<cmt>speed=0</cmt>
				<hdop>19</hdop>
			</trkpt>
			<trkpt lat="42.16672065" lon="-118.73618983">
				<ele>1791.0</ele>
				<time>2013-05-27T06:38:07Z</time>
				<cmt>speed=0</cmt>
				<hdop>18</hdop>
			</trkpt>
			<trkpt lat="42.16662942" lon="-118.73606707">
				<ele>1758.300048828125</ele>
				<time>2013-05-27T06:39:16Z</time>
				<cmt>speed=0.5</cmt>
				<hdop>19</hdop>
			</trkpt>
			<trkpt lat="42.16605512" lon="-118.7359262">
				<ele>1893.300048828125</ele>
				<time>2013-05-27T06:40:08Z</time>
				<cmt>speed=0.25</cmt>
				<hdop>15</hdop>
			</trkpt>
			<trkpt lat="42.16609647" lon="-118.73594464">
				<ele>1859.4000244140625</ele>
				<time>2013-05-27T06:41:13Z</time>
				<cmt>speed=0.75</cmt>
				<hdop>17</hdop>
			</trkpt>
			<trkpt lat="42.16574061" lon="-118.73580588">
				<ele>1914.0</ele>
				<time>2013-05-27T06:42:05Z</time>
				<cmt>speed=0.559017</cmt>
				<hdop>19</hdop>
			</trkpt>
			<trkpt lat="42.16556327" lon="-118.73573014">
				<ele>1959.699951171875</ele>
				<time>2013-05-27T06:43:04Z</time>
				<cmt>speed=1.60078</cmt>
				<hdop>17</hdop>
			</trkpt>
			<trkpt lat="42.1655421" lon="-118.73535098">
				<ele>1833.5999755859375</ele>
				<time>2013-05-27T06:44:10Z</time>
				<cmt>speed=1.03078</cmt>
				<hdop>17</hdop>
			</trkpt>
			<trkpt lat="42.1650945" lon="-118.73550558">
				<ele>1957.0</ele>
				<time>2013-05-27T06:45:04Z</time>
				<cmt>speed=3.75</cmt>
				<hdop>16</hdop>
			</trkpt>
			<trkpt lat="42.16535754" lon="-118.73501386">
				<ele>1781.5</ele>
				<time>2013-05-27T06:46:05Z</time>
				<cmt>speed=0.5</cmt>
				<hdop>17</hdop>
			</trkpt>
			<trkpt lat="42.16474863" lon="-118.73538988">
				<ele>1931.5</ele>
				<time>2013-05-27T06:47:06Z</time>
				<cmt>speed=1</cmt>
				<hdop>18</hdop>
			</trkpt>
			<trkpt lat="42.16516641" lon="-118.73470712">
				<ele>1822.0999755859375</ele>
				<time>2013-05-27T06:48:07Z</time>
				<cmt>speed=0.25</cmt>
				<hdop>18</hdop>
			</trkpt>
			<trkpt lat="42.16501081" lon="-118.73494158">
				<ele>1929.9000244140625</ele>
				<time>2013-05-27T06:49:04Z</time>
				<cmt>speed=0</cmt>
				<hdop>17</hdop>
			</trkpt>
			<trkpt lat="42.16469189" lon="-118.73503786">
				<ele>2009.0999755859375</ele>
				<time>2013-05-27T06:50:03Z</time>
				<cmt>speed=4.60977</cmt>
				<hdop>11</hdop>
			</trkpt>
			<trkpt lat="42.16458503" lon="-118.73478534">
				<ele>1958.300048828125</ele>
				<time>2013-05-27T06:51:05Z</time>
				<cmt>speed=0.75</cmt>
				<hdop>15</hdop>
			</trkpt>
			<trkpt lat="42.16494661" lon="-118.73492521">
				<ele>1921.4000244140625</ele>
				<time>2013-05-27T06:52:11Z</time>
				<cmt>speed=0</cmt>
				<hdop>17</hdop>
			</trkpt>
			<trkpt lat="42.1645218" lon="-118.73442975">
				<ele>1957.800048828125</ele>
				<time>2013-05-27T06:53:04Z</time>
				<cmt>speed=0.901388</cmt>
				<hdop>19</hdop>
			</trkpt>
			<trkpt lat="42.16441317" lon="-118.73438789">
				<ele>1902.4000244140625</ele>
				<time>2013-05-27T06:54:07Z</time>
				<cmt>speed=0</cmt>
				<hdop>19</hdop>
			</trkpt>
			<trkpt lat="42.1639378" lon="-118.73467187">
				<ele>1913.5</ele>
				<time>2013-05-27T06:55:08Z</time>
				<cmt>speed=0.5</cmt>
				<hdop>15</hdop>
			</trkpt>
			<trkpt lat="42.16395185" lon="-118.73492681">
				<ele>1939.699951171875</ele>
				<time>2013-05-27T06:56:08Z</time>
				<cmt>speed=0.5</cmt>
				<hdop>17</hdop>
			</trkpt>
			<trkpt lat="42.16342265" lon="-118.73532549">
				<ele>1924.5999755859375</ele>
				<time>2013-05-27T06:57:08Z</time>
				<cmt>speed=1</cmt>
				<hdop>19</hdop>
			</trkpt>
			<trkpt lat="42.16321792" lon="-118.73508122">
				<ele>2049.10009765625</ele>
				<time>2013-05-27T06:58:08Z</time>
				<cmt>speed=0.559017</cmt>
				<hdop>17</hdop>
			</trkpt>
			<trkpt lat="42.16339765" lon="-118.73550318">
				<ele>1852.4000244140625</ele>
				<time>2013-05-27T06:59:12Z</time>
				<cmt>speed=0.25</cmt>
				<hdop>14</hdop>
			</trkpt>
			<trkpt lat="42.16311603" lon="-118.73511934">
				<ele>1937.199951171875</ele>
				<time>2013-05-27T07:00:10Z</time>
				<cmt>speed=0.5</cmt>
				<hdop>18</hdop>
			</trkpt>
			<trkpt lat="42.16288645" lon="-118.73538728">
				<ele>1921.300048828125</ele>
				<time>2013-05-27T07:01:10Z</time>
				<cmt>speed=0.75</cmt>
				<hdop>19</hdop>
			</trkpt>
			<trkpt lat="42.16251087" lon="-118.73540917">
				<ele>1943.5</ele>
				<time>2013-05-27T07:02:11Z</time>
				<cmt>speed=0</cmt>
				<hdop>13</hdop>
			</trkpt>
			<trkpt lat="42.1619997" lon="-118.73559113">
				<ele>1962.5</ele>
				<time>2013-05-27T07:03:11Z</time>
				<cmt>speed=0.5</cmt>
				<hdop>18</hdop>
			</trkpt>
			<trkpt lat="42.16218665" lon="-118.73535141">
				<ele>2020.0</ele>
				<time>2013-05-27T07:04:12Z</time>
				<cmt>speed=0.25</cmt>
				<hdop>17</hdop>
			</trkpt>
			<trkpt lat="42.16226253" lon="-118.73519477">
				<ele>2026.5999755859375</ele>
				<time>2013-05-27T07:05:13Z</time>
				<cmt>speed=0.5</cmt>
				<hdop>15</hdop>
			</trkpt>
			<trkpt lat="42.16197587" lon="-118.73494902">
				<ele>2039.0999755859375</ele>
				<time>2013-05-27T07:06:15Z</time>
				<cmt>speed=0.25</cmt>
				<hdop>14</hdop>
			</trkpt>
			<trkpt lat="42.16190614" lon="-118.73505318">
				<ele>2072.89990234375</ele>
				<time>2013-05-27T07:06:45Z</time>
				<cmt>speed=0.75</cmt>
				<hdop>13</hdop>
			</trkpt>
			<trkpt lat="42.16193334" lon="-118.73504533">
				<ele>2077.199951171875</ele>
				<time>2013-05-27T07:07:45Z</time>
				<cmt>speed=0</cmt>
				<hdop>15</hdop>
			</trkpt>
			<trkpt lat="42.1619744" lon="-118.73510135">
				<ele>2086.60009765625</ele>
				<time>2013-05-27T07:08:46Z</time>
				<cmt>speed=0</cmt>
				<hdop>14</hdop>
			</trkpt>
			<trkpt lat="42.1620112" lon="-118.73499799">
				<ele>2074.699951171875</ele>
				<time>2013-05-27T07:09:46Z</time>
				<cmt>speed=0.25</cmt>
				<hdop>9</hdop>
			</trkpt>
			<trkpt lat="42.16154715" lon="-118.73518991">
				<ele>2087.0</ele>
				<time>2013-05-27T07:10:47Z</time>
				<cmt>speed=0.75</cmt>
				<hdop>12</hdop>
			</trkpt>
			<trkpt lat="42.16116504" lon="-118.73547018">
				<ele>2105.699951171875</ele>
				<time>2013-05-27T07:11:47Z</time>
				<cmt>speed=0.75</cmt>
				<hdop>19</hdop>
			</trkpt>
			<trkpt lat="42.16125042" lon="-118.7356713">
				<ele>2102.300048828125</ele>
				<time>2013-05-27T07:12:49Z</time>
				<cmt>speed=0.25</cmt>
				<hdop>14</hdop>
			</trkpt>
			<trkpt lat="42.16100911" lon="-118.73564529">
				<ele>2103.89990234375</ele>
				<time>2013-05-27T07:13:48Z</time>
				<cmt>speed=0.5</cmt>
				<hdop>13</hdop>
			</trkpt>
			<trkpt lat="42.16087126" lon="-118.73531142">
				<ele>2113.5</ele>
				<time>2013-05-27T07:14:50Z</time>
				<cmt>speed=0.75</cmt>
				<hdop>15</hdop>
			</trkpt>
			<trkpt lat="42.16061932" lon="-118.73519742">
				<ele>2133.89990234375</ele>
				<time>2013-05-27T07:15:50Z</time>
				<cmt>speed=0</cmt>
				<hdop>14</hdop>
			</trkpt>
			<trkpt lat="42.16034849" lon="-118.73523021">
				<ele>2135.800048828125</ele>
				<time>2013-05-27T07:16:51Z</time>
				<cmt>speed=0.25</cmt>
				<hdop>15</hdop>
			</trkpt>
			<trkpt lat="42.1602308" lon="-118.73501598">
				<ele>2145.10009765625</ele>
				<time>2013-05-27T07:17:50Z</time>
				<cmt>speed=0.25</cmt>
				<hdop>19</hdop>
			</trkpt>
			<trkpt lat="42.15980963" lon="-118.73501037">
				<ele>2143.60009765625</ele>
				<time>2013-05-27T07:18:50Z</time>
				<cmt>speed=0.5</cmt>
				<hdop>17</hdop>
			</trkpt>
			<trkpt lat="42.15988783" lon="-118.73520709">
				<ele>2167.60009765625</ele>
				<time>2013-05-27T07:19:51Z</time>
				<cmt>speed=0</cmt>
				<hdop>17</hdop>
			</trkpt>
			<trkpt lat="42.15976679" lon="-118.73523628">
				<ele>2188.60009765625</ele>
				<time>2013-05-27T07:20:51Z</time>
				<cmt>speed=0.75</cmt>
				<hdop>12</hdop>
			</trkpt>
			<trkpt lat="42.15953774" lon="-118.73534922">
				<ele>2175.199951171875</ele>
				<time>2013-05-27T07:21:51Z</time>
				<cmt>speed=0.5</cmt>
				<hdop>18</hdop>
			</trkpt>
			<trkpt lat="42.15976666" lon="-118.73561713">
				<ele>2203.89990234375</ele>
				<time>2013-05-27T07:22:51Z</time>
				<cmt>speed=0</cmt>
				<hdop>16</hdop>
			</trkpt>
			<trkpt lat="42.15922797" lon="-118.73557856">
				<ele>2131.89990234375</ele>
				<time>2013-05-27T07:23:48Z</time>
				<cmt>speed=0.5</cmt>
				<hdop>17</hdop>
			</trkpt>
			<trkpt lat="42.15919742" lon="-118.73544179">
				<ele>2192.39990234375</ele>
				<time>2013-05-27T07:24:49Z</time>
				<cmt>speed=0.5</cmt>
				<hdop>13</hdop>
			</trkpt>
			<trkpt lat="42.15896163" lon="-118.73580912">
				<ele>2203.60009765625</ele>
				<time>2013-05-27T07:25:50Z</time>
				<cmt>speed=0.75</cmt>
				<hdop>18</hdop>
			</trkpt>
			<trkpt lat="42.1587377" lon="-118.73598051">
				<ele>2167.199951171875</ele>
				<time>2013-05-27T07:26:54Z</time>
				<cmt>speed=0</cmt>
				<hdop>11</hdop>
			</trkpt>
			<trkpt lat="42.15869176" lon="-118.73596636">
				<ele>2166.199951171875</ele>
				<time>2013-05-27T07:27:52Z</time>
				<cmt>speed=0</cmt>
				<hdop>14</hdop>
			</trkpt>
			<trkpt lat="42.1585708" lon="-118.73669017">
				<ele>2235.699951171875</ele>
				<time>2013-05-27T07:28:51Z</time>
				<cmt>speed=0.75</cmt>
				<hdop>11</hdop>
			</trkpt>
			<trkpt lat="42.1582996" lon="-118.73722127">
				<ele>2228.699951171875</ele>
				<time>2013-05-27T07:29:51Z</time>
				<cmt>speed=0.707107</cmt>
				<hdop>15</hdop>
			</trkpt>
			<trkpt lat="42.1576634" lon="-118.73753073">
				<ele>2242.89990234375</ele>
				<time>2013-05-27T07:30:52Z</time>
				<cmt>speed=0.707107</cmt>
				<hdop>19</hdop>
			</trkpt>
			<trkpt lat="42.15737375" lon="-118.7377522">
				<ele>2237.60009765625</ele>
				<time>2013-05-27T07:31:54Z</time>
				<cmt>speed=0.5</cmt>
				<hdop>14</hdop>
			</trkpt>
			<trkpt lat="42.15729933" lon="-118.73791966">
				<ele>2246.89990234375</ele>
				<time>2013-05-27T07:32:53Z</time>
				<cmt>speed=0.901388</cmt>
				<hdop>15</hdop>
			</trkpt>
			<trkpt lat="42.15706431" lon="-118.73826796">
				<ele>2252.300048828125</ele>
				<time>2013-05-27T07:33:52Z</time>
				<cmt>speed=1.25</cmt>
				<hdop>16</hdop>
			</trkpt>
			<trkpt lat="42.15672107" lon="-118.73838276">
				<ele>2253.89990234375</ele>
				<time>2013-05-27T07:34:55Z</time>
				<cmt>speed=0.707107</cmt>
				<hdop>15</hdop>
			</trkpt>
			<trkpt lat="42.15634844" lon="-118.7386896">
				<ele>2246.800048828125</ele>
				<time>2013-05-27T07:35:51Z</time>
				<cmt>speed=1.25</cmt>
				<hdop>4</hdop>
			</trkpt>
			<trkpt lat="42.15609901" lon="-118.73894713">
				<ele>2222.199951171875</ele>
				<time>2013-05-27T07:36:52Z</time>
				<cmt>speed=0.5</cmt>
				<hdop>12</hdop>
			</trkpt>
			<trkpt lat="42.15595815" lon="-118.73905106">
				<ele>2194.60009765625</ele>
				<time>2013-05-27T07:37:53Z</time>
				<cmt>speed=0.25</cmt>
				<hdop>9</hdop>
			</trkpt>
			<trkpt lat="42.1559542" lon="-118.73922116">
				<ele>2206.199951171875</ele>
				<time>2013-05-27T07:38:00Z</time>
				<cmt>speed=0.25</cmt>
				<hdop>9</hdop>
			</trkpt>
			<trkpt lat="42.15566778" lon="-118.73929676">
				<ele>2255.60009765625</ele>
				<time>2013-05-27T07:39:01Z</time>
				<cmt>speed=1.11803</cmt>
				<hdop>12</hdop>
			</trkpt>
			<trkpt lat="42.15526298" lon="-118.73950903">
				<ele>2244.699951171875</ele>
				<time>2013-05-27T07:40:01Z</time>
				<cmt>speed=0</cmt>
				<hdop>8</hdop>
			</trkpt>
			<trkpt lat="42.15483308" lon="-118.73964184">
				<ele>2246.5</ele>
				<time>2013-05-27T07:41:01Z</time>
				<cmt>speed=1.25</cmt>
				<hdop>7</hdop>
			</trkpt>
			<trkpt lat="42.15435544" lon="-118.73949213">
				<ele>2255.5</ele>
				<time>2013-05-27T07:42:01Z</time>
				<cmt>speed=2.61008</cmt>
				<hdop>11</hdop>
			</trkpt>
			<trkpt lat="42.15395082" lon="-118.73966127">
				<ele>2278.0</ele>
				<time>2013-05-27T07:43:02Z</time>
				<cmt>speed=0.707107</cmt>
				<hdop>10</hdop>
			</trkpt>
			<trkpt lat="42.15373433" lon="-118.73963968">
				<ele>2270.800048828125</ele>
				<time>2013-05-27T07:44:02Z</time>
				<cmt>speed=0.5</cmt>
				<hdop>17</hdop>
			</trkpt>
			<trkpt lat="42.15363153" lon="-118.73967458">
				<ele>2276.300048828125</ele>
				<time>2013-05-27T07:44:16Z</time>
				<cmt>speed=1.95256</cmt>
				<hdop>12</hdop>
			</trkpt>
			<trkpt lat="42.15320944" lon="-118.73971736">
				<ele>2273.199951171875</ele>
				<time>2013-05-27T07:45:17Z</time>
				<cmt>speed=1</cmt>
				<hdop>8</hdop>
			</trkpt>
			<trkpt lat="42.15279059" lon="-118.73996819">
				<ele>2271.39990234375</ele>
				<time>2013-05-27T07:46:17Z</time>
				<cmt>speed=1</cmt>
				<hdop>9</hdop>
			</trkpt>
			<trkpt lat="42.15247611" lon="-118.74053064">
				<ele>2283.800048828125</ele>
				<time>2013-05-27T07:47:17Z</time>
				<cmt>speed=0.75</cmt>
				<hdop>10</hdop>
			</trkpt>
			<trkpt lat="42.15225905" lon="-118.74061464">
				<ele>2269.300048828125</ele>
				<time>2013-05-27T07:48:17Z</time>
				<cmt>speed=1.34629</cmt>
				<hdop>9</hdop>
			</trkpt>
			<trkpt lat="42.1516714" lon="-118.74111508">
				<ele>2286.89990234375</ele>
				<time>2013-05-27T07:49:18Z</time>
				<cmt>speed=0.5</cmt>
				<hdop>14</hdop>
			</trkpt>
			<trkpt lat="42.15131331" lon="-118.74119553">
				<ele>2288.10009765625</ele>
				<time>2013-05-27T07:50:15Z</time>
				<cmt>speed=5.7717</cmt>
				<hdop>16</hdop>
			</trkpt>
			<trkpt lat="42.15074332" lon="-118.74143507">
				<ele>2256.10009765625</ele>
				<time>2013-05-27T07:51:18Z</time>
				<cmt>speed=1.25</cmt>
				<hdop>14</hdop>
			</trkpt>
			<trkpt lat="42.15048179" lon="-118.74155535">
				<ele>2268.300048828125</ele>
				<time>2013-05-27T07:52:16Z</time>
				<cmt>speed=3.53553</cmt>
				<hdop>16</hdop>
			</trkpt>
			<trkpt lat="42.15000112" lon="-118.74163106">
				<ele>2280.199951171875</ele>
				<time>2013-05-27T07:53:19Z</time>
				<cmt>speed=0</cmt>
				<hdop>14</hdop>
			</trkpt>
			<trkpt lat="42.15002329" lon="-118.74165779">
				<ele>2259.800048828125</ele>
				<time>2013-05-27T07:53:25Z</time>
				<cmt>speed=0</cmt>
				<hdop>14</hdop>
			</trkpt>
			<trkpt lat="42.14971552" lon="-118.74173818">
				<ele>2259.39990234375</ele>
				<time>2013-05-27T07:54:26Z</time>
				<cmt>speed=1.25</cmt>
				<hdop>8</hdop>
			</trkpt>
			<trkpt lat="42.14928974" lon="-118.741583">
				<ele>2237.199951171875</ele>
				<time>2013-05-27T07:54:57Z</time>
				<cmt>speed=1.34629</cmt>
				<hdop>11</hdop>
			</trkpt>
			<trkpt lat="42.14924291" lon="-118.74157811">
				<ele>2259.699951171875</ele>
				<time>2013-05-27T07:55:58Z</time>
				<cmt>speed=1.95256</cmt>
				<hdop>11</hdop>
			</trkpt>
			<trkpt lat="42.14899747" lon="-118.74124527">
				<ele>2264.39990234375</ele>
				<time>2013-05-27T07:57:01Z</time>
				<cmt>speed=0.901388</cmt>
				<hdop>19</hdop>
			</trkpt>
			<trkpt lat="42.14886752" lon="-118.74118142">
				<ele>2227.300048828125</ele>
				<time>2013-05-27T07:57:59Z</time>
				<cmt>speed=0.5</cmt>
				<hdop>12</hdop>
			</trkpt>
			<trkpt lat="42.14826968" lon="-118.74078932">
				<ele>2212.60009765625</ele>
				<time>2013-05-27T07:59:00Z</time>
				<cmt>speed=0</cmt>
				<hdop>14</hdop>
			</trkpt>
			<trkpt lat="42.14829666" lon="-118.74072998">
				<ele>2252.39990234375</ele>
				<time>2013-05-27T07:59:59Z</time>
				<cmt>speed=0.707107</cmt>
				<hdop>9</hdop>
			</trkpt>
			<trkpt lat="42.1480344" lon="-118.7402515">
				<ele>2238.39990234375</ele>
				<time>2013-05-27T08:01:00Z</time>
				<cmt>speed=1.25</cmt>
				<hdop>12</hdop>
			</trkpt>
			<trkpt lat="42.14772662" lon="-118.73990766">
				<ele>2222.0</ele>
				<time>2013-05-27T08:02:02Z</time>
				<cmt>speed=1.34629</cmt>
				<hdop>10</hdop>
			</trkpt>
			<trkpt lat="42.14729877" lon="-118.73972625">
				<ele>2232.800048828125</ele>
				<time>2013-05-27T08:03:00Z</time>
				<cmt>speed=1</cmt>
				<hdop>19</hdop>
			</trkpt>
			<trkpt lat="42.14678266" lon="-118.73970992">
				<ele>2253.699951171875</ele>
				<time>2013-05-27T08:04:00Z</time>
				<cmt>speed=6.18466</cmt>
				<hdop>10</hdop>
			</trkpt>
			<trkpt lat="42.14646145" lon="-118.73914276">
				<ele>2237.300048828125</ele>
				<time>2013-05-27T08:05:01Z</time>
				<cmt>speed=1</cmt>
				<hdop>8</hdop>
			</trkpt>
			<trkpt lat="42.14589634" lon="-118.73916227">
				<ele>2237.10009765625</ele>
				<time>2013-05-27T08:06:01Z</time>
				<cmt>speed=1.25</cmt>
				<hdop>10</hdop>
			</trkpt>
			<trkpt lat="42.14530966" lon="-118.73887616">
				<ele>2205.800048828125</ele>
				<time>2013-05-27T08:06:28Z</time>
				<cmt>speed=1.11803</cmt>
				<hdop>16</hdop>
			</trkpt>
			<trkpt lat="42.14541402" lon="-118.73893948">
				<ele>2223.10009765625</ele>
				<time>2013-05-27T08:07:32Z</time>
				<cmt>speed=0</cmt>
				<hdop>10</hdop>
			</trkpt>
			<trkpt lat="42.14531871" lon="-118.73893187">
				<ele>2257.10009765625</ele>
				<time>2013-05-27T08:08:32Z</time>
				<cmt>speed=1</cmt>
				<hdop>10</hdop>
			</trkpt>
			<trkpt lat="42.14471718" lon="-118.73879672">
				<ele>2261.0</ele>
				<time>2013-05-27T08:09:31Z</time>
				<cmt>speed=1.11803</cmt>
				<hdop>11</hdop>
			</trkpt>
			<trkpt lat="42.14427015" lon="-118.73825115">
				<ele>2245.0</ele>
				<time>2013-05-27T08:10:34Z</time>
				<cmt>speed=0.75</cmt>
				<hdop>14</hdop>
			</trkpt>
			<trkpt lat="42.14389571" lon="-118.73844434">
				<ele>2278.699951171875</ele>
				<time>2013-05-27T08:11:34Z</time>
				<cmt>speed=0.901388</cmt>
				<hdop>11</hdop>
			</trkpt>
			<trkpt lat="42.14357716" lon="-118.73798481">
				<ele>2261.699951171875</ele>
				<time>2013-05-27T08:12:34Z</time>
				<cmt>speed=1</cmt>
				<hdop>13</hdop>
			</trkpt>
			<trkpt lat="42.14337534" lon="-118.73799103">
				<ele>2287.800048828125</ele>
				<time>2013-05-27T08:13:35Z</time>
				<cmt>speed=0.901388</cmt>
				<hdop>8</hdop>
			</trkpt>
			<trkpt lat="42.14319112" lon="-118.7379365">
				<ele>2276.0</ele>
				<time>2013-05-27T08:14:34Z</time>
				<cmt>speed=0.25</cmt>
				<hdop>9</hdop>
			</trkpt>
			<trkpt lat="42.14308091" lon="-118.73787988">
				<ele>2279.800048828125</ele>
				<time>2013-05-27T08:15:33Z</time>
				<cmt>speed=2.23607</cmt>
				<hdop>11</hdop>
			</trkpt>
			<trkpt lat="42.14308887" lon="-118.73799481">
				<ele>2268.300048828125</ele>
				<time>2013-05-27T08:16:36Z</time>
				<cmt>speed=0</cmt>
				<hdop>9</hdop>
			</trkpt>
			<trkpt lat="42.14291345" lon="-118.73773859">
				<ele>2295.800048828125</ele>
				<time>2013-05-27T08:17:23Z</time>
				<cmt>speed=1.82003</cmt>
				<hdop>12</hdop>
			</trkpt>
			<trkpt lat="42.14289339" lon="-118.7377511">
				<ele>2313.39990234375</ele>
				<time>2013-05-27T08:18:25Z</time>
				<cmt>speed=0.25</cmt>
				<hdop>11</hdop>
			</trkpt>
			<trkpt lat="42.14267187" lon="-118.73739937">
				<ele>2299.60009765625</ele>
				<time>2013-05-27T08:19:25Z</time>
				<cmt>speed=0.5</cmt>
				<hdop>9</hdop>
			</trkpt>
			<trkpt lat="42.1424241" lon="-118.73730385">
				<ele>2288.89990234375</ele>
				<time>2013-05-27T08:20:25Z</time>
				<cmt>speed=0.75</cmt>
				<hdop>12</hdop>
			</trkpt>
			<trkpt lat="42.14234028" lon="-118.73747642">
				<ele>2296.199951171875</ele>
				<time>2013-05-27T08:21:25Z</time>
				<cmt>speed=0.5</cmt>
				<hdop>12</hdop>
			</trkpt>
			<trkpt lat="42.14174141" lon="-118.73697104">
				<ele>2319.699951171875</ele>
				<time>2013-05-27T08:22:25Z</time>
				<cmt>speed=2.30489</cmt>
				<hdop>6</hdop>
			</trkpt>
			<trkpt lat="42.13822252" lon="-118.73759629">
				<ele>2338.5</ele>
				<time>2013-05-27T08:32:01Z</time>
				<cmt>speed=1.34629</cmt>
				<hdop>17</hdop>
			</trkpt>
			<trkpt lat="42.13766943" lon="-118.73762295">
				<ele>2346.60009765625</ele>
				<time>2013-05-27T08:33:01Z</time>
				<cmt>speed=2.25</cmt>
				<hdop>13</hdop>
			</trkpt>
			<trkpt lat="42.13731117" lon="-118.73796061">
				<ele>2327.699951171875</ele>
				<time>2013-05-27T08:34:01Z</time>
				<cmt>speed=0.707107</cmt>
				<hdop>12</hdop>
			</trkpt>
			<trkpt lat="42.13675009" lon="-118.73808635">
				<ele>2332.199951171875</ele>
				<time>2013-05-27T08:35:04Z</time>
				<cmt>speed=0.901388</cmt>
				<hdop>10</hdop>
			</trkpt>
			<trkpt lat="42.13633687" lon="-118.7384041">
				<ele>2334.199951171875</ele>
				<time>2013-05-27T08:36:04Z</time>
				<cmt>speed=0.901388</cmt>
				<hdop>12</hdop>
			</trkpt>
			<trkpt lat="42.13562356" lon="-118.73849307">
				<ele>2314.199951171875</ele>
				<time>2013-05-27T08:37:05Z</time>
				<cmt>speed=1</cmt>
				<hdop>6</hdop>
			</trkpt>
			<trkpt lat="42.13515626" lon="-118.73831173">
				<ele>2312.699951171875</ele>
				<time>2013-05-27T08:38:06Z</time>
				<cmt>speed=0.25</cmt>
				<hdop>12</hdop>
			</trkpt>
			<trkpt lat="42.13469406" lon="-118.73813301">
				<ele>2321.89990234375</ele>
				<time>2013-05-27T08:39:06Z</time>
				<cmt>speed=1.25</cmt>
				<hdop>13</hdop>
			</trkpt>
			<trkpt lat="42.13433484" lon="-118.73783407">
				<ele>2323.39990234375</ele>
				<time>2013-05-27T08:40:07Z</time>
				<cmt>speed=1</cmt>
				<hdop>12</hdop>
			</trkpt>
			<trkpt lat="42.13398585" lon="-118.73779566">
				<ele>2333.10009765625</ele>
				<time>2013-05-27T08:41:07Z</time>
				<cmt>speed=0.559017</cmt>
				<hdop>7</hdop>
			</trkpt>
			<trkpt lat="42.13392429" lon="-118.73783369">
				<ele>2326.39990234375</ele>
				<time>2013-05-27T08:42:09Z</time>
				<cmt>speed=0</cmt>
				<hdop>11</hdop>
			</trkpt>
			<trkpt lat="42.13362837" lon="-118.73770839">
				<ele>2316.89990234375</ele>
				<time>2013-05-27T08:43:09Z</time>
				<cmt>speed=0.5</cmt>
				<hdop>8</hdop>
			</trkpt>
			<trkpt lat="42.13356132" lon="-118.73739354">
				<ele>2297.199951171875</ele>
				<time>2013-05-27T08:44:07Z</time>
				<cmt>speed=2.12132</cmt>
				<hdop>10</hdop>
			</trkpt>
			<trkpt lat="42.1337921" lon="-118.73764104">
				<ele>2331.0</ele>
				<time>2013-05-27T08:45:11Z</time>
				<cmt>speed=0</cmt>
				<hdop>10</hdop>
			</trkpt>
			<trkpt lat="42.13358994" lon="-118.73760928">
				<ele>2310.300048828125</ele>
				<time>2013-05-27T08:46:10Z</time>
				<cmt>speed=0</cmt>
				<hdop>11</hdop>
			</trkpt>
			<trkpt lat="42.13338725" lon="-118.73723293">
				<ele>2317.0</ele>
				<time>2013-05-27T08:47:10Z</time>
				<cmt>speed=0</cmt>
				<hdop>16</hdop>
			</trkpt>
			<trkpt lat="42.13339708" lon="-118.73735826">
				<ele>2314.800048828125</ele>
				<time>2013-05-27T08:48:12Z</time>
				<cmt>speed=0</cmt>
				<hdop>11</hdop>
			</trkpt>
			<trkpt lat="42.13337174" lon="-118.73729829">
				<ele>2333.10009765625</ele>
				<time>2013-05-27T08:49:13Z</time>
				<cmt>speed=0</cmt>
				<hdop>10</hdop>
			</trkpt>
			<trkpt lat="42.13347591" lon="-118.73745758">
				<ele>2305.10009765625</ele>
				<time>2013-05-27T08:50:13Z</time>
				<cmt>speed=0</cmt>
				<hdop>12</hdop>
			</trkpt>
			<trkpt lat="42.13346053" lon="-118.73748915">
				<ele>2310.0</ele>
				<time>2013-05-27T08:51:13Z</time>
				<cmt>speed=0</cmt>
				<hdop>11</hdop>
			</trkpt>
			<trkpt lat="42.13373091" lon="-118.73765083">
				<ele>2325.60009765625</ele>
				<time>2013-05-27T08:52:15Z</time>
				<cmt>speed=0</cmt>
				<hdop>19</hdop>
			</trkpt>
			<trkpt lat="42.13339891" lon="-118.7374065">
				<ele>2319.5</ele>
				<time>2013-05-27T08:53:15Z</time>
				<cmt>speed=0</cmt>
				<hdop>17</hdop>
			</trkpt>
			<trkpt lat="42.13356179" lon="-118.73751409">
				<ele>2325.800048828125</ele>
				<time>2013-05-27T08:54:15Z</time>
				<cmt>speed=0</cmt>
				<hdop>14</hdop>
			</trkpt>
			<trkpt lat="42.13358348" lon="-118.73753481">
				<ele>2343.60009765625</ele>
				<time>2013-05-27T08:55:13Z</time>
				<cmt>speed=0.559017</cmt>
				<hdop>10</hdop>
			</trkpt>
			<trkpt lat="42.13367381" lon="-118.73761341">
				<ele>2326.199951171875</ele>
				<time>2013-05-27T08:56:17Z</time>
				<cmt>speed=0</cmt>
				<hdop>13</hdop>
			</trkpt>
			<trkpt lat="42.13338337" lon="-118.7374317">
				<ele>2324.60009765625</ele>
				<time>2013-05-27T08:57:16Z</time>
				<cmt>speed=0</cmt>
				<hdop>13</hdop>
			</trkpt>
			<trkpt lat="42.13340431" lon="-118.73742216">
				<ele>2333.800048828125</ele>
				<time>2013-05-27T08:58:15Z</time>
				<cmt>speed=0</cmt>
				<hdop>9</hdop>
			</trkpt>
			<trkpt lat="42.13337326" lon="-118.73739916">
				<ele>2347.199951171875</ele>
				<time>2013-05-27T08:59:16Z</time>
				<cmt>speed=0</cmt>
				<hdop>14</hdop>
			</trkpt>
			<trkpt lat="42.13331042" lon="-118.7373769">
				<ele>2338.300048828125</ele>
				<time>2013-05-27T09:00:17Z</time>
				<cmt>speed=0</cmt>
				<hdop>9</hdop>
			</trkpt>
			<trkpt lat="42.13350448" lon="-118.73723295">
				<ele>2312.199951171875</ele>
				<time>2013-05-27T09:01:17Z</time>
				<cmt>speed=0.901388</cmt>
				<hdop>14</hdop>
			</trkpt>
			<trkpt lat="42.13345073" lon="-118.73738976">
				<ele>2320.89990234375</ele>
				<time>2013-05-27T09:02:18Z</time>
				<cmt>speed=0</cmt>
				<hdop>15</hdop>
			</trkpt>
			<trkpt lat="42.13336588" lon="-118.73735468">
				<ele>2327.39990234375</ele>
				<time>2013-05-27T09:03:17Z</time>
				<cmt>speed=0.5</cmt>
				<hdop>15</hdop>
			</trkpt>
			<trkpt lat="42.13354933" lon="-118.7374966">
				<ele>2319.800048828125</ele>
				<time>2013-05-27T09:04:20Z</time>
				<cmt>speed=0</cmt>
				<hdop>8</hdop>
			</trkpt>
			<trkpt lat="42.13339565" lon="-118.73736398">
				<ele>2321.199951171875</ele>
				<time>2013-05-27T09:05:20Z</time>
				<cmt>speed=0.559017</cmt>
				<hdop>12</hdop>
			</trkpt>
			<trkpt lat="42.13351401" lon="-118.73745827">
				<ele>2317.10009765625</ele>
				<time>2013-05-27T09:06:20Z</time>
				<cmt>speed=0</cmt>
				<hdop>9</hdop>
			</trkpt>
			<trkpt lat="42.13349263" lon="-118.73743311">
				<ele>2315.60009765625</ele>
				<time>2013-05-27T09:07:20Z</time>
				<cmt>speed=0</cmt>
				<hdop>14</hdop>
			</trkpt>
			<trkpt lat="42.13349845" lon="-118.73742771">
				<ele>2314.89990234375</ele>
				<time>2013-05-27T09:08:21Z</time>
				<cmt>speed=0</cmt>
				<hdop>16</hdop>
			</trkpt>
			<trkpt lat="42.13316033" lon="-118.73754168">
				<ele>2311.60009765625</ele>
				<time>2013-05-27T09:09:26Z</time>
				<cmt>speed=0.75</cmt>
				<hdop>18</hdop>
			</trkpt>
			<trkpt lat="42.13266951" lon="-118.73733207">
				<ele>2284.89990234375</ele>
				<time>2013-05-27T09:10:23Z</time>
				<cmt>speed=1</cmt>
				<hdop>15</hdop>
			</trkpt>
			<trkpt lat="42.13246113" lon="-118.73678605">
				<ele>2293.10009765625</ele>
				<time>2013-05-27T09:11:24Z</time>
				<cmt>speed=2.5</cmt>
				<hdop>11</hdop>
			</trkpt>
			<trkpt lat="42.13226889" lon="-118.73642746">
				<ele>2281.0</ele>
				<time>2013-05-27T09:12:25Z</time>
				<cmt>speed=0.901388</cmt>
				<hdop>11</hdop>
			</trkpt>
			<trkpt lat="42.13213585" lon="-118.73576048">
				<ele>2294.0</ele>
				<time>2013-05-27T09:13:24Z</time>
				<cmt>speed=2.01556</cmt>
				<hdop>14</hdop>
			</trkpt>
			<trkpt lat="42.13187255" lon="-118.73527582">
				<ele>2287.39990234375</ele>
				<time>2013-05-27T09:14:26Z</time>
				<cmt>speed=1.25</cmt>
				<hdop>14</hdop>
			</trkpt>
			<trkpt lat="42.13154378" lon="-118.73474972">
				<ele>2284.60009765625</ele>
				<time>2013-05-27T09:15:25Z</time>
				<cmt>speed=0.25</cmt>
				<hdop>14</hdop>
			</trkpt>
			<trkpt lat="42.13167002" lon="-118.73480817">
				<ele>2278.5</ele>
				<time>2013-05-27T09:15:38Z</time>
				<cmt>speed=0.707107</cmt>
				<hdop>13</hdop>
			</trkpt>
			<trkpt lat="42.13132564" lon="-118.73460065">
				<ele>2257.699951171875</ele>
				<time>2013-05-27T09:16:39Z</time>
				<cmt>speed=1.25</cmt>
				<hdop>7</hdop>
			</trkpt>
			<trkpt lat="42.13082644" lon="-118.73461438">
				<ele>2269.800048828125</ele>
				<time>2013-05-27T09:17:39Z</time>
				<cmt>speed=1.34629</cmt>
				<hdop>18</hdop>
			</trkpt>
			<trkpt lat="42.13037335" lon="-118.73435613">
				<ele>2271.300048828125</ele>
				<time>2013-05-27T09:18:40Z</time>
				<cmt>speed=1</cmt>
				<hdop>8</hdop>
			</trkpt>
			<trkpt lat="42.12997094" lon="-118.73407489">
				<ele>2249.300048828125</ele>
				<time>2013-05-27T09:19:44Z</time>
				<cmt>speed=3.09233</cmt>
				<hdop>19</hdop>
			</trkpt>
			<trkpt lat="42.12969937" lon="-118.7335032">
				<ele>2257.10009765625</ele>
				<time>2013-05-27T09:20:42Z</time>
				<cmt>speed=1.25</cmt>
				<hdop>12</hdop>
			</trkpt>
			<trkpt lat="42.12948596" lon="-118.73268394">
				<ele>2270.10009765625</ele>
				<time>2013-05-27T09:21:42Z</time>
				<cmt>speed=1</cmt>
				<hdop>15</hdop>
			</trkpt>
			<trkpt lat="42.12911762" lon="-118.73211775">
				<ele>2272.0</ele>
				<time>2013-05-27T09:22:42Z</time>
				<cmt>speed=1</cmt>
				<hdop>11</hdop>
			</trkpt>
			<trkpt lat="42.12888809" lon="-118.73202778">
				<ele>2279.199951171875</ele>
				<time>2013-05-27T09:23:43Z</time>
				<cmt>speed=0</cmt>
				<hdop>10</hdop>
			</trkpt>
			<trkpt lat="42.12890266" lon="-118.73210696">
				<ele>2276.199951171875</ele>
				<time>2013-05-27T09:24:45Z</time>
				<cmt>speed=0.25</cmt>
				<hdop>6</hdop>
			</trkpt>
			<trkpt lat="42.12835262" lon="-118.73174722">
				<ele>2266.199951171875</ele>
				<time>2013-05-27T09:25:44Z</time>
				<cmt>speed=1.34629</cmt>
				<hdop>8</hdop>
			</trkpt>
			<trkpt lat="42.12774164" lon="-118.7316122">
				<ele>2240.89990234375</ele>
				<time>2013-05-27T09:26:44Z</time>
				<cmt>speed=3.0104</cmt>
				<hdop>8</hdop>
			</trkpt>
			<trkpt lat="42.12726758" lon="-118.73143301">
				<ele>2210.199951171875</ele>
				<time>2013-05-27T09:27:43Z</time>
				<cmt>speed=3.05164</cmt>
				<hdop>11</hdop>
			</trkpt>
			<trkpt lat="42.12652178" lon="-118.73151041">
				<ele>2237.60009765625</ele>
				<time>2013-05-27T09:28:46Z</time>
				<cmt>speed=1.25</cmt>
				<hdop>9</hdop>
			</trkpt>
			<trkpt lat="42.12625258" lon="-118.73110097">
				<ele>2241.300048828125</ele>
				<time>2013-05-27T09:29:43Z</time>
				<cmt>speed=1.58114</cmt>
				<hdop>3</hdop>
			</trkpt>
			<trkpt lat="42.12593159" lon="-118.73093097">
				<ele>2265.60009765625</ele>
				<time>2013-05-27T09:30:44Z</time>
				<cmt>speed=2.12132</cmt>
				<hdop>6</hdop>
			</trkpt>
			<trkpt lat="42.12549769" lon="-118.73084587">
				<ele>2273.0</ele>
				<time>2013-05-27T09:31:47Z</time>
				<cmt>speed=1.58114</cmt>
				<hdop>14</hdop>
			</trkpt>
			<trkpt lat="42.12506089" lon="-118.73013714">
				<ele>2263.300048828125</ele>
				<time>2013-05-27T09:32:45Z</time>
				<cmt>speed=0.75</cmt>
				<hdop>13</hdop>
			</trkpt>
			<trkpt lat="42.12457669" lon="-118.72971351">
				<ele>2269.89990234375</ele>
				<time>2013-05-27T09:33:48Z</time>
				<cmt>speed=2.06155</cmt>
				<hdop>10</hdop>
			</trkpt>
			<trkpt lat="42.12422397" lon="-118.72922854">
				<ele>2283.800048828125</ele>
				<time>2013-05-27T09:34:48Z</time>
				<cmt>speed=0.901388</cmt>
				<hdop>17</hdop>
			</trkpt>
			<trkpt lat="42.12374817" lon="-118.72875783">
				<ele>2267.5</ele>
				<time>2013-05-27T09:35:49Z</time>
				<cmt>speed=0.901388</cmt>
				<hdop>12</hdop>
			</trkpt>
			<trkpt lat="42.12331464" lon="-118.72820152">
				<ele>2288.89990234375</ele>
				<time>2013-05-27T09:36:50Z</time>
				<cmt>speed=0.901388</cmt>
				<hdop>16</hdop>
			</trkpt>
			<trkpt lat="42.12300929" lon="-118.72787817">
				<ele>2281.60009765625</ele>
				<time>2013-05-27T09:37:50Z</time>
				<cmt>speed=1</cmt>
				<hdop>8</hdop>
			</trkpt>
			<trkpt lat="42.12239056" lon="-118.72766045">
				<ele>2288.300048828125</ele>
				<time>2013-05-27T09:38:51Z</time>
				<cmt>speed=1.11803</cmt>
				<hdop>10</hdop>
			</trkpt>
			<trkpt lat="42.12212129" lon="-118.72714857">
				<ele>2264.89990234375</ele>
				<time>2013-05-27T09:39:48Z</time>
				<cmt>speed=1.5</cmt>
				<hdop>7</hdop>
			</trkpt>
			<trkpt lat="42.1216915" lon="-118.72649998">
				<ele>2279.60009765625</ele>
				<time>2013-05-27T09:40:50Z</time>
				<cmt>speed=1</cmt>
				<hdop>8</hdop>
			</trkpt>
			<trkpt lat="42.12148917" lon="-118.72592654">
				<ele>2277.39990234375</ele>
				<time>2013-05-27T09:41:50Z</time>
				<cmt>speed=0.5</cmt>
				<hdop>12</hdop>
			</trkpt>
			<trkpt lat="42.12154074" lon="-118.72574677">
				<ele>2289.5</ele>
				<time>2013-05-27T09:42:54Z</time>
				<cmt>speed=0</cmt>
				<hdop>10</hdop>
			</trkpt>
			<trkpt lat="42.12144656" lon="-118.72576315">
				<ele>2297.800048828125</ele>
				<time>2013-05-27T09:43:56Z</time>
				<cmt>speed=0</cmt>
				<hdop>14</hdop>
			</trkpt>
			<trkpt lat="42.12138013" lon="-118.72572014">
				<ele>2291.800048828125</ele>
				<time>2013-05-27T09:44:55Z</time>
				<cmt>speed=0</cmt>
				<hdop>12</hdop>
			</trkpt>
			<trkpt lat="42.12135504" lon="-118.72572386">
				<ele>2291.89990234375</ele>
				<time>2013-05-27T09:45:56Z</time>
				<cmt>speed=0</cmt>
				<hdop>7</hdop>
			</trkpt>
			<trkpt lat="42.12125851" lon="-118.7254154">
				<ele>2307.699951171875</ele>
				<time>2013-05-27T09:46:57Z</time>
				<cmt>speed=1.11803</cmt>
				<hdop>8</hdop>
			</trkpt>
			<trkpt lat="42.12102908" lon="-118.7249827">
				<ele>2295.39990234375</ele>
				<time>2013-05-27T09:47:57Z</time>
				<cmt>speed=1</cmt>
				<hdop>7</hdop>
			</trkpt>
			<trkpt lat="42.12092838" lon="-118.72455495">
				<ele>2298.199951171875</ele>
				<time>2013-05-27T09:48:58Z</time>
				<cmt>speed=1</cmt>
				<hdop>13</hdop>
			</trkpt>
			<trkpt lat="42.12068011" lon="-118.72425873">
				<ele>2282.39990234375</ele>
				<time>2013-05-27T09:49:57Z</time>
				<cmt>speed=1.11803</cmt>
				<hdop>5</hdop>
			</trkpt>
			<trkpt lat="42.12057525" lon="-118.7234368">
				<ele>2292.5</ele>
				<time>2013-05-27T09:50:57Z</time>
				<cmt>speed=1</cmt>
				<hdop>13</hdop>
			</trkpt>
			<trkpt lat="42.12027631" lon="-118.72317617">
				<ele>2296.0</ele>
				<time>2013-05-27T09:51:59Z</time>
				<cmt>speed=0.25</cmt>
				<hdop>9</hdop>
			</trkpt>
			<trkpt lat="42.11979245" lon="-118.7228252">
				<ele>2281.0</ele>
				<time>2013-05-27T09:52:59Z</time>
				<cmt>speed=1</cmt>
				<hdop>7</hdop>
			</trkpt>
			<trkpt lat="42.11948206" lon="-118.72232575">
				<ele>2290.39990234375</ele>
				<time>2013-05-27T09:54:00Z</time>
				<cmt>speed=0.75</cmt>
				<hdop>11</hdop>
			</trkpt>
			<trkpt lat="42.11955415" lon="-118.72174916">
				<ele>2279.800048828125</ele>
				<time>2013-05-27T09:55:01Z</time>
				<cmt>speed=1.34629</cmt>
				<hdop>11</hdop>
			</trkpt>
			<trkpt lat="42.11958762" lon="-118.72124586">
				<ele>2286.199951171875</ele>
				<time>2013-05-27T09:56:00Z</time>
				<cmt>speed=1.25</cmt>
				<hdop>8</hdop>
			</trkpt>
			<trkpt lat="42.11974939" lon="-118.72061521">
				<ele>2286.60009765625</ele>
				<time>2013-05-27T09:57:00Z</time>
				<cmt>speed=1.11803</cmt>
				<hdop>14</hdop>
			</trkpt>
			<trkpt lat="42.11985371" lon="-118.72006661">
				<ele>2262.39990234375</ele>
				<time>2013-05-27T09:58:00Z</time>
				<cmt>speed=0.25</cmt>
				<hdop>14</hdop>
			</trkpt>
			<trkpt lat="42.1199774" lon="-118.72011061">
				<ele>2274.89990234375</ele>
				<time>2013-05-27T09:58:12Z</time>
				<cmt>speed=3.25</cmt>
				<hdop>13</hdop>
			</trkpt>
			<trkpt lat="42.12001195" lon="-118.7198864">
				<ele>2271.0</ele>
				<time>2013-05-27T09:59:14Z</time>
				<cmt>speed=1</cmt>
				<hdop>8</hdop>
			</trkpt>
			<trkpt lat="42.11977439" lon="-118.71975044">
				<ele>2241.10009765625</ele>
				<time>2013-05-27T10:00:15Z</time>
				<cmt>speed=0.707107</cmt>
				<hdop>9</hdop>
			</trkpt>
			<trkpt lat="42.11976626" lon="-118.71925604">
				<ele>2273.60009765625</ele>
				<time>2013-05-27T10:01:14Z</time>
				<cmt>speed=2.136</cmt>
				<hdop>12</hdop>
			</trkpt>
			<trkpt lat="42.11978758" lon="-118.71907508">
				<ele>2249.199951171875</ele>
				<time>2013-05-27T10:02:13Z</time>
				<cmt>speed=0.5</cmt>
				<hdop>13</hdop>
			</trkpt>
			<trkpt lat="42.11979955" lon="-118.71892426">
				<ele>2239.39990234375</ele>
				<time>2013-05-27T10:03:16Z</time>
				<cmt>speed=0</cmt>
				<hdop>15</hdop>
			</trkpt>
			<trkpt lat="42.11987714" lon="-118.71844341">
				<ele>2244.89990234375</ele>
				<time>2013-05-27T10:04:16Z</time>
				<cmt>speed=0.5</cmt>
				<hdop>8</hdop>
			</trkpt>
			<trkpt lat="42.1198923" lon="-118.71812954">
				<ele>2232.300048828125</ele>
				<time>2013-05-27T10:05:16Z</time>
				<cmt>speed=0.707107</cmt>
				<hdop>10</hdop>
			</trkpt>
			<trkpt lat="42.12003228" lon="-118.71799836">
				<ele>2246.39990234375</ele>
				<time>2013-05-27T10:06:18Z</time>
				<cmt>speed=0.25</cmt>
				<hdop>17</hdop>
			</trkpt>
			<trkpt lat="42.11999668" lon="-118.71723574">
				<ele>2242.60009765625</ele>
				<time>2013-05-27T10:07:16Z</time>
				<cmt>speed=3.47311</cmt>
				<hdop>8</hdop>
			</trkpt>
			<trkpt lat="42.11990442" lon="-118.71731427">
				<ele>2225.800048828125</ele>
				<time>2013-05-27T10:08:18Z</time>
				<cmt>speed=0.5</cmt>
				<hdop>8</hdop>
			</trkpt>
			<trkpt lat="42.11995183" lon="-118.71686626">
				<ele>2253.300048828125</ele>
				<time>2013-05-27T10:09:18Z</time>
				<cmt>speed=1.25</cmt>
				<hdop>11</hdop>
			</trkpt>
			<trkpt lat="42.11994102" lon="-118.71702346">
				<ele>2212.5</ele>
				<time>2013-05-27T10:10:19Z</time>
				<cmt>speed=0.25</cmt>
				<hdop>12</hdop>
			</trkpt>
			<trkpt lat="42.11995983" lon="-118.71713744">
				<ele>2220.10009765625</ele>
				<time>2013-05-27T10:11:19Z</time>
				<cmt>speed=0.559017</cmt>
				<hdop>9</hdop>
			</trkpt>
			<trkpt lat="42.12004373" lon="-118.71644115">
				<ele>2216.0</ele>
				<time>2013-05-27T10:12:19Z</time>
				<cmt>speed=2.46221</cmt>
				<hdop>9</hdop>
			</trkpt>
			<trkpt lat="42.1198737" lon="-118.71583969">
				<ele>2204.60009765625</ele>
				<time>2013-05-27T10:13:20Z</time>
				<cmt>speed=0.75</cmt>
				<hdop>7</hdop>
			</trkpt>
			<trkpt lat="42.11975126" lon="-118.71516268">
				<ele>2205.199951171875</ele>
				<time>2013-05-27T10:14:20Z</time>
				<cmt>speed=0.5</cmt>
				<hdop>8</hdop>
			</trkpt>
			<trkpt lat="42.11930155" lon="-118.71503331">
				<ele>2139.699951171875</ele>
				<time>2013-05-27T10:15:21Z</time>
				<cmt>speed=0</cmt>
				<hdop>16</hdop>
			</trkpt>
			<trkpt lat="42.11954599" lon="-118.7143093">
				<ele>2199.60009765625</ele>
				<time>2013-05-27T10:16:20Z</time>
				<cmt>speed=0.75</cmt>
				<hdop>8</hdop>
			</trkpt>
			<trkpt lat="42.11951627" lon="-118.71369617">
				<ele>2188.800048828125</ele>
				<time>2013-05-27T10:17:21Z</time>
				<cmt>speed=1.25</cmt>
				<hdop>10</hdop>
			</trkpt>
			<trkpt lat="42.1194056" lon="-118.71304632">
				<ele>2196.10009765625</ele>
				<time>2013-05-27T10:18:18Z</time>
				<cmt>speed=1.75</cmt>
				<hdop>11</hdop>
			</trkpt>
			<trkpt lat="42.11941212" lon="-118.712939">
				<ele>2190.10009765625</ele>
				<time>2013-05-27T10:19:21Z</time>
				<cmt>speed=0</cmt>
				<hdop>13</hdop>
			</trkpt>
			<trkpt lat="42.11942978" lon="-118.71305593">
				<ele>2193.89990234375</ele>
				<time>2013-05-27T10:20:21Z</time>
				<cmt>speed=0.75</cmt>
				<hdop>10</hdop>
			</trkpt>
			<trkpt lat="42.11884291" lon="-118.71320137">
				<ele>2176.89990234375</ele>
				<time>2013-05-27T10:21:22Z</time>
				<cmt>speed=0.75</cmt>
				<hdop>15</hdop>
			</trkpt>
			<trkpt lat="42.11843923" lon="-118.71313744">
				<ele>2185.0</ele>
				<time>2013-05-27T10:22:22Z</time>
				<cmt>speed=1</cmt>
				<hdop>9</hdop>
			</trkpt>
			<trkpt lat="42.11816678" lon="-118.71296242">
				<ele>2177.199951171875</ele>
				<time>2013-05-27T10:23:23Z</time>
				<cmt>speed=1.25</cmt>
				<hdop>16</hdop>
			</trkpt>
			<trkpt lat="42.11775344" lon="-118.71264115">
				<ele>2166.300048828125</ele>
				<time>2013-05-27T10:24:23Z</time>
				<cmt>speed=1.11803</cmt>
				<hdop>8</hdop>
			</trkpt>
			<trkpt lat="42.11748789" lon="-118.71262492">
				<ele>2148.699951171875</ele>
				<time>2013-05-27T10:25:23Z</time>
				<cmt>speed=0.25</cmt>
				<hdop>9</hdop>
			</trkpt>
			<trkpt lat="42.11710396" lon="-118.71236774">
				<ele>2122.89990234375</ele>
				<time>2013-05-27T10:26:23Z</time>
				<cmt>speed=0.5</cmt>
				<hdop>12</hdop>
			</trkpt>
			<trkpt lat="42.11640955" lon="-118.71247627">
				<ele>2153.800048828125</ele>
				<time>2013-05-27T10:27:26Z</time>
				<cmt>speed=0</cmt>
				<hdop>12</hdop>
			</trkpt>
			<trkpt lat="42.11652979" lon="-118.71257854">
				<ele>2183.89990234375</ele>
				<time>2013-05-27T10:28:25Z</time>
				<cmt>speed=4.85412</cmt>
				<hdop>18</hdop>
			</trkpt>
			<trkpt lat="42.11640794" lon="-118.71238749">
				<ele>2163.699951171875</ele>
				<time>2013-05-27T10:29:27Z</time>
				<cmt>speed=0</cmt>
				<hdop>16</hdop>
			</trkpt>
			<trkpt lat="42.11634851" lon="-118.71226427">
				<ele>2148.199951171875</ele>
				<time>2013-05-27T10:30:24Z</time>
				<cmt>speed=2.70416</cmt>
				<hdop>6</hdop>
			</trkpt>
			<trkpt lat="42.11605624" lon="-118.71263865">
				<ele>2155.800048828125</ele>
				<time>2013-05-27T10:31:26Z</time>
				<cmt>speed=0.25</cmt>
				<hdop>10</hdop>
			</trkpt>
			<trkpt lat="42.11593309" lon="-118.71270641">
				<ele>2146.300048828125</ele>
				<time>2013-05-27T10:32:28Z</time>
				<cmt>speed=0.75</cmt>
				<hdop>16</hdop>
			</trkpt>
			<trkpt lat="42.11546436" lon="-118.71254237">
				<ele>2166.800048828125</ele>
				<time>2013-05-27T10:33:27Z</time>
				<cmt>speed=2.23607</cmt>
				<hdop>6</hdop>
			</trkpt>
			<trkpt lat="42.11513231" lon="-118.71331836">
				<ele>2094.60009765625</ele>
				<time>2013-05-27T10:34:26Z</time>
				<cmt>speed=0.901388</cmt>
				<hdop>16</hdop>
			</trkpt>
			<trkpt lat="42.11496506" lon="-118.71284833">
				<ele>2126.60009765625</ele>
				<time>2013-05-27T10:35:29Z</time>
				<cmt>speed=0.5</cmt>
				<hdop>13</hdop>
			</trkpt>
			<trkpt lat="42.11479426" lon="-118.71235228">
				<ele>2134.199951171875</ele>
				<time>2013-05-27T10:36:29Z</time>
				<cmt>speed=1.5</cmt>
				<hdop>7</hdop>
			</trkpt>
			<trkpt lat="42.11440553" lon="-118.7123063">
				<ele>2124.39990234375</ele>
				<time>2013-05-27T10:37:30Z</time>
				<cmt>speed=5.14782</cmt>
				<hdop>12</hdop>
			</trkpt>
			<trkpt lat="42.11381232" lon="-118.71219601">
				<ele>2132.300048828125</ele>
				<time>2013-05-27T10:38:32Z</time>
				<cmt>speed=0.901388</cmt>
				<hdop>13</hdop>
			</trkpt>
			<trkpt lat="42.11346986" lon="-118.71223351">
				<ele>2123.699951171875</ele>
				<time>2013-05-27T10:39:31Z</time>
				<cmt>speed=3.05164</cmt>
				<hdop>10</hdop>
			</trkpt>
			<trkpt lat="42.11349659" lon="-118.71215888">
				<ele>2156.699951171875</ele>
				<time>2013-05-27T10:40:33Z</time>
				<cmt>speed=0.559017</cmt>
				<hdop>16</hdop>
			</trkpt>
			<trkpt lat="42.11336974" lon="-118.71206623">
				<ele>2159.199951171875</ele>
				<time>2013-05-27T10:41:32Z</time>
				<cmt>speed=6.08276</cmt>
				<hdop>14</hdop>
			</trkpt>
			<trkpt lat="42.11335007" lon="-118.71212734">
				<ele>2167.10009765625</ele>
				<time>2013-05-27T10:42:31Z</time>
				<cmt>speed=1.25</cmt>
				<hdop>10</hdop>
			</trkpt>
			<trkpt lat="42.11323283" lon="-118.71213955">
				<ele>2137.89990234375</ele>
				<time>2013-05-27T10:43:32Z</time>
				<cmt>speed=0</cmt>
				<hdop>13</hdop>
			</trkpt>
			<trkpt lat="42.11308981" lon="-118.712022">
				<ele>2110.5</ele>
				<time>2013-05-27T10:44:33Z</time>
				<cmt>speed=0.707107</cmt>
				<hdop>14</hdop>
			</trkpt>
			<trkpt lat="42.11284555" lon="-118.71188629">
				<ele>2142.89990234375</ele>
				<time>2013-05-27T10:45:33Z</time>
				<cmt>speed=0.75</cmt>
				<hdop>17</hdop>
			</trkpt>
			<trkpt lat="42.11251626" lon="-118.71169759">
				<ele>2147.0</ele>
				<time>2013-05-27T10:46:34Z</time>
				<cmt>speed=0.707107</cmt>
				<hdop>7</hdop>
			</trkpt>
			<trkpt lat="42.11246647" lon="-118.7114463">
				<ele>2184.60009765625</ele>
				<time>2013-05-27T10:47:34Z</time>
				<cmt>speed=0.559017</cmt>
				<hdop>7</hdop>
			</trkpt>
			<trkpt lat="42.11254651" lon="-118.71106363">
				<ele>2156.199951171875</ele>
				<time>2013-05-27T10:48:36Z</time>
				<cmt>speed=0.559017</cmt>
				<hdop>9</hdop>
			</trkpt>
			<trkpt lat="42.11244727" lon="-118.71077113">
				<ele>2178.0</ele>
				<time>2013-05-27T10:49:37Z</time>
				<cmt>speed=0.5</cmt>
				<hdop>13</hdop>
			</trkpt>
			<trkpt lat="42.11212573" lon="-118.71088629">
				<ele>2128.39990234375</ele>
				<time>2013-05-27T10:50:36Z</time>
				<cmt>speed=0</cmt>
				<hdop>16</hdop>
			</trkpt>
			<trkpt lat="42.11227385" lon="-118.71096637">
				<ele>2160.300048828125</ele>
				<time>2013-05-27T10:51:37Z</time>
				<cmt>speed=0</cmt>
				<hdop>11</hdop>
			</trkpt>
			<trkpt lat="42.11195824" lon="-118.71072275">
				<ele>2131.0</ele>
				<time>2013-05-27T10:52:38Z</time>
				<cmt>speed=1.25</cmt>
				<hdop>11</hdop>
			</trkpt>
			<trkpt lat="42.11150265" lon="-118.71074776">
				<ele>2080.300048828125</ele>
				<time>2013-05-27T10:53:38Z</time>
				<cmt>speed=0.559017</cmt>
				<hdop>18</hdop>
			</trkpt>
			<trkpt lat="42.11159261" lon="-118.71035569">
				<ele>2197.699951171875</ele>
				<time>2013-05-27T10:54:45Z</time>
				<cmt>speed=0</cmt>
				<hdop>17</hdop>
			</trkpt>
			<trkpt lat="42.11170758" lon="-118.71047024">
				<ele>2171.39990234375</ele>
				<time>2013-05-27T10:55:40Z</time>
				<cmt>speed=0</cmt>
				<hdop>15</hdop>
			</trkpt>
			<trkpt lat="42.11169006" lon="-118.71059795">
				<ele>2141.39990234375</ele>
				<time>2013-05-27T10:56:40Z</time>
				<cmt>speed=0</cmt>
				<hdop>12</hdop>
			</trkpt>
			<trkpt lat="42.11178138" lon="-118.71035237">
				<ele>2140.800048828125</ele>
				<time>2013-05-27T10:57:42Z</time>
				<cmt>speed=0</cmt>
				<hdop>19</hdop>
			</trkpt>
			<trkpt lat="42.11172353" lon="-118.71048641">
				<ele>2116.699951171875</ele>
				<time>2013-05-27T10:58:42Z</time>
				<cmt>speed=0</cmt>
				<hdop>18</hdop>
			</trkpt>
			<trkpt lat="42.11175528" lon="-118.71043957">
				<ele>2143.0</ele>
				<time>2013-05-27T10:59:41Z</time>
				<cmt>speed=1.25</cmt>
				<hdop>16</hdop>
			</trkpt>
			<trkpt lat="42.11159665" lon="-118.70992837">
				<ele>2124.10009765625</ele>
				<time>2013-05-27T11:00:42Z</time>
				<cmt>speed=1</cmt>
				<hdop>16</hdop>
			</trkpt>
			<trkpt lat="42.11136449" lon="-118.709653">
				<ele>2154.60009765625</ele>
				<time>2013-05-27T11:01:43Z</time>
				<cmt>speed=0.5</cmt>
				<hdop>7</hdop>
			</trkpt>
			<trkpt lat="42.11121436" lon="-118.70919929">
				<ele>2154.300048828125</ele>
				<time>2013-05-27T11:02:43Z</time>
				<cmt>speed=0.75</cmt>
				<hdop>10</hdop>
			</trkpt>
			<trkpt lat="42.11098016" lon="-118.70868749">
				<ele>2145.10009765625</ele>
				<time>2013-05-27T11:03:44Z</time>
				<cmt>speed=0.901388</cmt>
				<hdop>15</hdop>
			</trkpt>
			<trkpt lat="42.11073533" lon="-118.70854984">
				<ele>2159.89990234375</ele>
				<time>2013-05-27T11:04:45Z</time>
				<cmt>speed=0.559017</cmt>
				<hdop>12</hdop>
			</trkpt>
			<trkpt lat="42.11057863" lon="-118.70819895">
				<ele>2176.10009765625</ele>
				<time>2013-05-27T11:05:43Z</time>
				<cmt>speed=1.41421</cmt>
				<hdop>15</hdop>
			</trkpt>
			<trkpt lat="42.11028702" lon="-118.70774801">
				<ele>2204.10009765625</ele>
				<time>2013-05-27T11:06:45Z</time>
				<cmt>speed=0.75</cmt>
				<hdop>16</hdop>
			</trkpt>
			<trkpt lat="42.11041706" lon="-118.70720873">
				<ele>2113.199951171875</ele>
				<time>2013-05-27T11:07:45Z</time>
				<cmt>speed=0.559017</cmt>
				<hdop>13</hdop>
			</trkpt>
			<trkpt lat="42.11022414" lon="-118.70719639">
				<ele>2136.199951171875</ele>
				<time>2013-05-27T11:08:46Z</time>
				<cmt>speed=0.559017</cmt>
				<hdop>15</hdop>
			</trkpt>
			<trkpt lat="42.11020711" lon="-118.7072155">
				<ele>2162.89990234375</ele>
				<time>2013-05-27T11:09:46Z</time>
				<cmt>speed=0</cmt>
				<hdop>16</hdop>
			</trkpt>
			<trkpt lat="42.11018231" lon="-118.70720297">
				<ele>2173.699951171875</ele>
				<time>2013-05-27T11:10:45Z</time>
				<cmt>speed=1.25</cmt>
				<hdop>14</hdop>
			</trkpt>
			<trkpt lat="42.11004124" lon="-118.70646619">
				<ele>2178.10009765625</ele>
				<time>2013-05-27T11:11:45Z</time>
				<cmt>speed=1.34629</cmt>
				<hdop>12</hdop>
			</trkpt>
			<trkpt lat="42.10967132" lon="-118.70585853">
				<ele>2169.89990234375</ele>
				<time>2013-05-27T11:12:45Z</time>
				<cmt>speed=1.58114</cmt>
				<hdop>14</hdop>
			</trkpt>
			<trkpt lat="42.10962548" lon="-118.70520196">
				<ele>2167.5</ele>
				<time>2013-05-27T11:13:47Z</time>
				<cmt>speed=1.60078</cmt>
				<hdop>8</hdop>
			</trkpt>
			<trkpt lat="42.10955239" lon="-118.70427532">
				<ele>2158.10009765625</ele>
				<time>2013-05-27T11:14:49Z</time>
				<cmt>speed=1</cmt>
				<hdop>8</hdop>
			</trkpt>
			<trkpt lat="42.10927964" lon="-118.70366539">
				<ele>2168.0</ele>
				<time>2013-05-27T11:15:48Z</time>
				<cmt>speed=1.34629</cmt>
				<hdop>12</hdop>
			</trkpt>
			<trkpt lat="42.10902203" lon="-118.70303826">
				<ele>2181.89990234375</ele>
				<time>2013-05-27T11:16:49Z</time>
				<cmt>speed=1.25</cmt>
				<hdop>10</hdop>
			</trkpt>
			<trkpt lat="42.10882089" lon="-118.70250286">
				<ele>2160.699951171875</ele>
				<time>2013-05-27T11:17:50Z</time>
				<cmt>speed=1</cmt>
				<hdop>6</hdop>
			</trkpt>
			<trkpt lat="42.10895781" lon="-118.70239075">
				<ele>2137.699951171875</ele>
				<time>2013-05-27T11:18:49Z</time>
				<cmt>speed=0.559017</cmt>
				<hdop>14</hdop>
			</trkpt>
			<trkpt lat="42.10849069" lon="-118.70203869">
				<ele>2152.10009765625</ele>
				<time>2013-05-27T11:19:51Z</time>
				<cmt>speed=0.75</cmt>
				<hdop>12</hdop>
			</trkpt>
			<trkpt lat="42.10783287" lon="-118.70120414">
				<ele>2151.5</ele>
				<time>2013-05-27T11:20:51Z</time>
				<cmt>speed=1.11803</cmt>
				<hdop>6</hdop>
			</trkpt>
			<trkpt lat="42.1076444" lon="-118.70086735">
				<ele>2151.5</ele>
				<time>2013-05-27T11:21:50Z</time>
				<cmt>speed=0.707107</cmt>
				<hdop>13</hdop>
			</trkpt>
			<trkpt lat="42.10712311" lon="-118.70021672">
				<ele>2163.800048828125</ele>
				<time>2013-05-27T11:22:50Z</time>
				<cmt>speed=1.80278</cmt>
				<hdop>10</hdop>
			</trkpt>
			<trkpt lat="42.10686222" lon="-118.69969426">
				<ele>2149.300048828125</ele>
				<time>2013-05-27T11:23:52Z</time>
				<cmt>speed=1.25</cmt>
				<hdop>8</hdop>
			</trkpt>
			<trkpt lat="42.10644068" lon="-118.69905229">
				<ele>2128.60009765625</ele>
				<time>2013-05-27T11:24:52Z</time>
				<cmt>speed=1</cmt>
				<hdop>10</hdop>
			</trkpt>
			<trkpt lat="42.1061905" lon="-118.69848765">
				<ele>2141.199951171875</ele>
				<time>2013-05-27T11:25:51Z</time>
				<cmt>speed=1.82003</cmt>
				<hdop>10</hdop>
			</trkpt>
			<trkpt lat="42.10582988" lon="-118.69809428">
				<ele>2140.800048828125</ele>
				<time>2013-05-27T11:26:52Z</time>
				<cmt>speed=0.75</cmt>
				<hdop>10</hdop>
			</trkpt>
			<trkpt lat="42.10580054" lon="-118.69764153">
				<ele>2126.10009765625</ele>
				<time>2013-05-27T11:27:52Z</time>
				<cmt>speed=1</cmt>
				<hdop>12</hdop>
			</trkpt>
			<trkpt lat="42.10563026" lon="-118.69731781">
				<ele>2107.5</ele>
				<time>2013-05-27T11:28:54Z</time>
				<cmt>speed=0.25</cmt>
				<hdop>19</hdop>
			</trkpt>
			<trkpt lat="42.10585504" lon="-118.69776374">
				<ele>2120.199951171875</ele>
				<time>2013-05-27T11:29:55Z</time>
				<cmt>speed=0.25</cmt>
				<hdop>14</hdop>
			</trkpt>
			<trkpt lat="42.10571233" lon="-118.69740156">
				<ele>2126.300048828125</ele>
				<time>2013-05-27T11:30:56Z</time>
				<cmt>speed=1.41421</cmt>
				<hdop>12</hdop>
			</trkpt>
			<trkpt lat="42.10568601" lon="-118.69757569">
				<ele>2128.60009765625</ele>
				<time>2013-05-27T11:31:56Z</time>
				<cmt>speed=0.559017</cmt>
				<hdop>15</hdop>
			</trkpt>
			<trkpt lat="42.10564674" lon="-118.69769033">
				<ele>2127.0</ele>
				<time>2013-05-27T11:32:59Z</time>
				<cmt>speed=0.25</cmt>
				<hdop>18</hdop>
			</trkpt>
			<trkpt lat="42.10570951" lon="-118.69766622">
				<ele>2127.10009765625</ele>
				<time>2013-05-27T11:34:22Z</time>
				<cmt>speed=0</cmt>
				<hdop>16</hdop>
			</trkpt>
			<trkpt lat="42.10570332" lon="-118.69765563">
				<ele>2127.10009765625</ele>
				<time>2013-05-27T11:35:12Z</time>
				<cmt>speed=0</cmt>
				<hdop>19</hdop>
			</trkpt>
			<trkpt lat="42.10570085" lon="-118.69767512">
				<ele>2127.10009765625</ele>
				<time>2013-05-27T11:36:05Z</time>
				<cmt>speed=0</cmt>
				<hdop>19</hdop>
			</trkpt>
			<trkpt lat="42.10562612" lon="-118.69744099">
				<ele>2121.699951171875</ele>
				<time>2013-05-27T11:37:01Z</time>
				<cmt>speed=0.25</cmt>
				<hdop>14</hdop>
			</trkpt>
			<trkpt lat="42.10565435" lon="-118.69781631">
				<ele>2121.800048828125</ele>
				<time>2013-05-27T11:38:01Z</time>
				<cmt>speed=0.25</cmt>
				<hdop>15</hdop>
			</trkpt>
			<trkpt lat="42.10570047" lon="-118.69757899">
				<ele>2116.5</ele>
				<time>2013-05-27T11:38:58Z</time>
				<cmt>speed=1.25</cmt>
				<hdop>14</hdop>
			</trkpt>
			<trkpt lat="42.10558685" lon="-118.69742961">
				<ele>2122.0</ele>
				<time>2013-05-27T11:40:01Z</time>
				<cmt>speed=0</cmt>
				<hdop>15</hdop>
			</trkpt>
			<trkpt lat="42.10569584" lon="-118.69767664">
				<ele>2127.10009765625</ele>
				<time>2013-05-27T11:41:59Z</time>
				<cmt>speed=0</cmt>
				<hdop>19</hdop>
			</trkpt>
			<trkpt lat="42.10562305" lon="-118.69756763">
				<ele>2119.10009765625</ele>
				<time>2013-05-27T11:43:01Z</time>
				<cmt>speed=0.5</cmt>
				<hdop>14</hdop>
			</trkpt>
			<trkpt lat="42.10539422" lon="-118.69762855">
				<ele>2110.300048828125</ele>
				<time>2013-05-27T11:44:01Z</time>
				<cmt>speed=1</cmt>
				<hdop>10</hdop>
			</trkpt>
			<trkpt lat="42.10578137" lon="-118.69777">
				<ele>2137.39990234375</ele>
				<time>2013-05-27T11:45:03Z</time>
				<cmt>speed=0</cmt>
				<hdop>14</hdop>
			</trkpt>
			<trkpt lat="42.10563601" lon="-118.69749517">
				<ele>2081.10009765625</ele>
				<time>2013-05-27T11:45:58Z</time>
				<cmt>speed=0.5</cmt>
				<hdop>12</hdop>
			</trkpt>
			<trkpt lat="42.10560378" lon="-118.69738101">
				<ele>2121.89990234375</ele>
				<time>2013-05-27T11:46:59Z</time>
				<cmt>speed=0</cmt>
				<hdop>4</hdop>
			</trkpt>
			<trkpt lat="42.1053446" lon="-118.69682804">
				<ele>2119.800048828125</ele>
				<time>2013-05-27T11:47:59Z</time>
				<cmt>speed=1.60078</cmt>
				<hdop>8</hdop>
			</trkpt>
			<trkpt lat="42.10483785" lon="-118.69656839">
				<ele>2140.0</ele>
				<time>2013-05-27T11:49:00Z</time>
				<cmt>speed=1.34629</cmt>
				<hdop>9</hdop>
			</trkpt>
			<trkpt lat="42.10478237" lon="-118.69695177">
				<ele>2109.10009765625</ele>
				<time>2013-05-27T11:50:04Z</time>
				<cmt>speed=0.75</cmt>
				<hdop>19</hdop>
			</trkpt>
			<trkpt lat="42.10447107" lon="-118.69647353">
				<ele>2142.699951171875</ele>
				<time>2013-05-27T11:50:57Z</time>
				<cmt>speed=2.01556</cmt>
				<hdop>8</hdop>
			</trkpt>
			<trkpt lat="42.10422765" lon="-118.69633738">
				<ele>2110.89990234375</ele>
				<time>2013-05-27T11:51:58Z</time>
				<cmt>speed=2.06155</cmt>
				<hdop>7</hdop>
			</trkpt>
			<trkpt lat="42.10368084" lon="-118.69624096">
				<ele>2129.699951171875</ele>
				<time>2013-05-27T11:53:02Z</time>
				<cmt>speed=0.901388</cmt>
				<hdop>5</hdop>
			</trkpt>
			<trkpt lat="42.10317378" lon="-118.69624688">
				<ele>2136.0</ele>
				<time>2013-05-27T11:54:02Z</time>
				<cmt>speed=1</cmt>
				<hdop>8</hdop>
			</trkpt>
			<trkpt lat="42.10265034" lon="-118.69585987">
				<ele>2108.60009765625</ele>
				<time>2013-05-27T11:55:00Z</time>
				<cmt>speed=1.80278</cmt>
				<hdop>9</hdop>
			</trkpt>
			<trkpt lat="42.10226511" lon="-118.69588421">
				<ele>2118.60009765625</ele>
				<time>2013-05-27T11:56:02Z</time>
				<cmt>speed=1.11803</cmt>
				<hdop>9</hdop>
			</trkpt>
			<trkpt lat="42.1018271" lon="-118.69557984">
				<ele>2115.5</ele>
				<time>2013-05-27T11:57:03Z</time>
				<cmt>speed=0.5</cmt>
				<hdop>11</hdop>
			</trkpt>
			<trkpt lat="42.10139291" lon="-118.69537225">
				<ele>2100.800048828125</ele>
				<time>2013-05-27T11:58:02Z</time>
				<cmt>speed=1.34629</cmt>
				<hdop>14</hdop>
			</trkpt>
			<trkpt lat="42.10077661" lon="-118.69505637">
				<ele>2122.39990234375</ele>
				<time>2013-05-27T11:59:03Z</time>
				<cmt>speed=1.11803</cmt>
				<hdop>7</hdop>
			</trkpt>
			<trkpt lat="42.10052559" lon="-118.69491251">
				<ele>2121.10009765625</ele>
				<time>2013-05-27T12:00:03Z</time>
				<cmt>speed=0.901388</cmt>
				<hdop>5</hdop>
			</trkpt>
			<trkpt lat="42.10011858" lon="-118.69488524">
				<ele>2117.39990234375</ele>
				<time>2013-05-27T12:01:05Z</time>
				<cmt>speed=1.11803</cmt>
				<hdop>12</hdop>
			</trkpt>
			<trkpt lat="42.09974057" lon="-118.69433673">
				<ele>2132.60009765625</ele>
				<time>2013-05-27T12:02:02Z</time>
				<cmt>speed=3.71652</cmt>
				<hdop>16</hdop>
			</trkpt>
			<trkpt lat="42.09949644" lon="-118.69473456">
				<ele>2127.800048828125</ele>
				<time>2013-05-27T12:03:06Z</time>
				<cmt>speed=1.11803</cmt>
				<hdop>7</hdop>
			</trkpt>
			<trkpt lat="42.0993667" lon="-118.69434543">
				<ele>2090.199951171875</ele>
				<time>2013-05-27T12:04:04Z</time>
				<cmt>speed=3.80789</cmt>
				<hdop>15</hdop>
			</trkpt>
			<trkpt lat="42.09918137" lon="-118.69396496">
				<ele>2123.300048828125</ele>
				<time>2013-05-27T12:05:07Z</time>
				<cmt>speed=0</cmt>
				<hdop>11</hdop>
			</trkpt>
			<trkpt lat="42.09896606" lon="-118.69360111">
				<ele>2109.89990234375</ele>
				<time>2013-05-27T12:06:06Z</time>
				<cmt>speed=1</cmt>
				<hdop>6</hdop>
			</trkpt>
			<trkpt lat="42.09867549" lon="-118.69337984">
				<ele>2120.10009765625</ele>
				<time>2013-05-27T12:07:06Z</time>
				<cmt>speed=1.03078</cmt>
				<hdop>14</hdop>
			</trkpt>
			<trkpt lat="42.09859509" lon="-118.69349128">
				<ele>2065.800048828125</ele>
				<time>2013-05-27T12:08:05Z</time>
				<cmt>speed=0</cmt>
				<hdop>12</hdop>
			</trkpt>
			<trkpt lat="42.09860547" lon="-118.69330028">
				<ele>2101.300048828125</ele>
				<time>2013-05-27T12:09:07Z</time>
				<cmt>speed=0</cmt>
				<hdop>8</hdop>
			</trkpt>
			<trkpt lat="42.0980982" lon="-118.69310034">
				<ele>2121.60009765625</ele>
				<time>2013-05-27T12:11:08Z</time>
				<cmt>speed=0.5</cmt>
				<hdop>7</hdop>
			</trkpt>
			<trkpt lat="42.09769739" lon="-118.69267891">
				<ele>2137.39990234375</ele>
				<time>2013-05-27T12:12:08Z</time>
				<cmt>speed=2.3585</cmt>
				<hdop>7</hdop>
			</trkpt>
			<trkpt lat="42.09712837" lon="-118.69226677">
				<ele>2133.39990234375</ele>
				<time>2013-05-27T12:13:11Z</time>
				<cmt>speed=1.25</cmt>
				<hdop>7</hdop>
			</trkpt>
			<trkpt lat="42.09665103" lon="-118.69177025">
				<ele>2139.699951171875</ele>
				<time>2013-05-27T12:14:10Z</time>
				<cmt>speed=1.5</cmt>
				<hdop>8</hdop>
			</trkpt>
			<trkpt lat="42.09601619" lon="-118.69180734">
				<ele>2125.699951171875</ele>
				<time>2013-05-27T12:15:11Z</time>
				<cmt>speed=1.25</cmt>
				<hdop>5</hdop>
			</trkpt>
			<trkpt lat="42.09531688" lon="-118.69208622">
				<ele>2132.10009765625</ele>
				<time>2013-05-27T12:16:11Z</time>
				<cmt>speed=2.92617</cmt>
				<hdop>18</hdop>
			</trkpt>
			<trkpt lat="42.0947109" lon="-118.69209358">
				<ele>2111.800048828125</ele>
				<time>2013-05-27T12:17:11Z</time>
				<cmt>speed=1.5</cmt>
				<hdop>16</hdop>
			</trkpt>
			<trkpt lat="42.09408697" lon="-118.69204152">
				<ele>2128.0</ele>
				<time>2013-05-27T12:18:11Z</time>
				<cmt>speed=1.25</cmt>
				<hdop>16</hdop>
			</trkpt>
			<trkpt lat="42.09371579" lon="-118.69167412">
				<ele>2092.800048828125</ele>
				<time>2013-05-27T12:19:12Z</time>
				<cmt>speed=1.25</cmt>
				<hdop>5</hdop>
			</trkpt>
			<trkpt lat="42.09307328" lon="-118.69139599">
				<ele>2081.199951171875</ele>
				<time>2013-05-27T12:20:13Z</time>
				<cmt>speed=1.82003</cmt>
				<hdop>10</hdop>
			</trkpt>
			<trkpt lat="42.09245226" lon="-118.69116493">
				<ele>2116.699951171875</ele>
				<time>2013-05-27T12:21:13Z</time>
				<cmt>speed=1.25</cmt>
				<hdop>8</hdop>
			</trkpt>
			<trkpt lat="42.0919808" lon="-118.69070785">
				<ele>2069.300048828125</ele>
				<time>2013-05-27T12:22:13Z</time>
				<cmt>speed=1</cmt>
				<hdop>19</hdop>
			</trkpt>
			<trkpt lat="42.09124932" lon="-118.69034758">
				<ele>2060.199951171875</ele>
				<time>2013-05-27T12:23:14Z</time>
				<cmt>speed=1.25</cmt>
				<hdop>9</hdop>
			</trkpt>
			<trkpt lat="42.09067896" lon="-118.6899252">
				<ele>2039.300048828125</ele>
				<time>2013-05-27T12:24:15Z</time>
				<cmt>speed=1.5</cmt>
				<hdop>5</hdop>
			</trkpt>
			<trkpt lat="42.09021948" lon="-118.68959919">
				<ele>2092.300048828125</ele>
				<time>2013-05-27T12:25:15Z</time>
				<cmt>speed=2.12132</cmt>
				<hdop>14</hdop>
			</trkpt>
			<trkpt lat="42.08945747" lon="-118.68936524">
				<ele>2032.0999755859375</ele>
				<time>2013-05-27T12:26:13Z</time>
				<cmt>speed=4.36606</cmt>
				<hdop>5</hdop>
			</trkpt>
			<trkpt lat="42.08909976" lon="-118.69005564">
				<ele>2041.4000244140625</ele>
				<time>2013-05-27T12:27:18Z</time>
				<cmt>speed=1.11803</cmt>
				<hdop>8</hdop>
			</trkpt>
			<trkpt lat="42.08874755" lon="-118.69029982">
				<ele>2027.300048828125</ele>
				<time>2013-05-27T12:28:18Z</time>
				<cmt>speed=1.11803</cmt>
				<hdop>6</hdop>
			</trkpt>
			<trkpt lat="42.08847824" lon="-118.69008044">
				<ele>2052.300048828125</ele>
				<time>2013-05-27T12:29:17Z</time>
				<cmt>speed=2.12132</cmt>
				<hdop>9</hdop>
			</trkpt>
			<trkpt lat="42.08826737" lon="-118.68927116">
				<ele>2029.4000244140625</ele>
				<time>2013-05-27T12:30:18Z</time>
				<cmt>speed=1.34629</cmt>
				<hdop>4</hdop>
			</trkpt>
			<trkpt lat="42.08770617" lon="-118.68889678">
				<ele>2007.5999755859375</ele>
				<time>2013-05-27T12:31:18Z</time>
				<cmt>speed=1.25</cmt>
				<hdop>5</hdop>
			</trkpt>
			<trkpt lat="42.08725797" lon="-118.68840183">
				<ele>2003.300048828125</ele>
				<time>2013-05-27T12:32:19Z</time>
				<cmt>speed=1</cmt>
				<hdop>7</hdop>
			</trkpt>
			<trkpt lat="42.08688412" lon="-118.68828002">
				<ele>1977.4000244140625</ele>
				<time>2013-05-27T12:33:19Z</time>
				<cmt>speed=1</cmt>
				<hdop>7</hdop>
			</trkpt>
			<trkpt lat="42.08633573" lon="-118.68809794">
				<ele>1987.0999755859375</ele>
				<time>2013-05-27T12:34:20Z</time>
				<cmt>speed=1.25</cmt>
				<hdop>8</hdop>
			</trkpt>
			<trkpt lat="42.08561764" lon="-118.68806171">
				<ele>1979.9000244140625</ele>
				<time>2013-05-27T12:35:22Z</time>
				<cmt>speed=1.58114</cmt>
				<hdop>9</hdop>
			</trkpt>
			<trkpt lat="42.08496822" lon="-118.68838189">
				<ele>1915.5</ele>
				<time>2013-05-27T12:36:20Z</time>
				<cmt>speed=3.36341</cmt>
				<hdop>13</hdop>
			</trkpt>
			<trkpt lat="42.08418013" lon="-118.68816164">
				<ele>1968.5999755859375</ele>
				<time>2013-05-27T12:37:22Z</time>
				<cmt>speed=1.34629</cmt>
				<hdop>11</hdop>
			</trkpt>
			<trkpt lat="42.08363649" lon="-118.68813856">
				<ele>1961.4000244140625</ele>
				<time>2013-05-27T12:38:23Z</time>
				<cmt>speed=1.5</cmt>
				<hdop>5</hdop>
			</trkpt>
			<trkpt lat="42.08287699" lon="-118.68774162">
				<ele>1935.0999755859375</ele>
				<time>2013-05-27T12:39:23Z</time>
				<cmt>speed=1.34629</cmt>
				<hdop>4</hdop>
			</trkpt>
			<trkpt lat="42.08234318" lon="-118.68777097">
				<ele>1941.4000244140625</ele>
				<time>2013-05-27T12:40:21Z</time>
				<cmt>speed=2.65754</cmt>
				<hdop>7</hdop>
			</trkpt>
			<trkpt lat="42.08184646" lon="-118.68746243">
				<ele>1933.0</ele>
				<time>2013-05-27T12:41:23Z</time>
				<cmt>speed=1.25</cmt>
				<hdop>5</hdop>
			</trkpt>
			<trkpt lat="42.08112497" lon="-118.68728393">
				<ele>1938.800048828125</ele>
				<time>2013-05-27T12:42:24Z</time>
				<cmt>speed=0.5</cmt>
				<hdop>5</hdop>
			</trkpt>
			<trkpt lat="42.08056685" lon="-118.68730407">
				<ele>1931.699951171875</ele>
				<time>2013-05-27T12:43:21Z</time>
				<cmt>speed=1.25</cmt>
				<hdop>4</hdop>
			</trkpt>
			<trkpt lat="42.08008968" lon="-118.68713949">
				<ele>1929.699951171875</ele>
				<time>2013-05-27T12:44:23Z</time>
				<cmt>speed=0.25</cmt>
				<hdop>7</hdop>
			</trkpt>
			<trkpt lat="42.080076" lon="-118.68696143">
				<ele>1922.5</ele>
				<time>2013-05-27T12:45:24Z</time>
				<cmt>speed=0</cmt>
				<hdop>12</hdop>
			</trkpt>
			<trkpt lat="42.0800163" lon="-118.68713515">
				<ele>1931.699951171875</ele>
				<time>2013-05-27T12:46:21Z</time>
				<cmt>speed=1.60078</cmt>
				<hdop>9</hdop>
			</trkpt>
			<trkpt lat="42.07983694" lon="-118.68717924">
				<ele>1931.5999755859375</ele>
				<time>2013-05-27T12:47:23Z</time>
				<cmt>speed=1</cmt>
				<hdop>6</hdop>
			</trkpt>
			<trkpt lat="42.0795744" lon="-118.68673094">
				<ele>1926.199951171875</ele>
				<time>2013-05-27T12:48:25Z</time>
				<cmt>speed=0</cmt>
				<hdop>4</hdop>
			</trkpt>
			<trkpt lat="42.07970201" lon="-118.68692852">
				<ele>1931.199951171875</ele>
				<time>2013-05-27T12:49:26Z</time>
				<cmt>speed=1</cmt>
				<hdop>5</hdop>
			</trkpt>
			<trkpt lat="42.07952388" lon="-118.68678467">
				<ele>1927.800048828125</ele>
				<time>2013-05-27T12:50:23Z</time>
				<cmt>speed=1</cmt>
				<hdop>13</hdop>
			</trkpt>
			<trkpt lat="42.07963193" lon="-118.68701842">
				<ele>1937.0</ele>
				<time>2013-05-27T12:51:26Z</time>
				<cmt>speed=3.25</cmt>
				<hdop>9</hdop>
			</trkpt>
			<trkpt lat="42.07940159" lon="-118.68716175">
				<ele>1938.0999755859375</ele>
				<time>2013-05-27T12:52:24Z</time>
				<cmt>speed=2.79508</cmt>
				<hdop>6</hdop>
			</trkpt>
			<trkpt lat="42.07907048" lon="-118.68695188">
				<ele>1899.4000244140625</ele>
				<time>2013-05-27T12:53:24Z</time>
				<cmt>speed=2.3585</cmt>
				<hdop>11</hdop>
			</trkpt>
			<trkpt lat="42.07866349" lon="-118.68669697">
				<ele>1921.5999755859375</ele>
				<time>2013-05-27T12:54:28Z</time>
				<cmt>speed=1.58114</cmt>
				<hdop>8</hdop>
			</trkpt>
			<trkpt lat="42.07845527" lon="-118.68688774">
				<ele>1917.9000244140625</ele>
				<time>2013-05-27T12:55:29Z</time>
				<cmt>speed=0</cmt>
				<hdop>7</hdop>
			</trkpt>
			<trkpt lat="42.07860804" lon="-118.68694093">
				<ele>1908.5</ele>
				<time>2013-05-27T12:56:30Z</time>
				<cmt>speed=0</cmt>
				<hdop>9</hdop>
			</trkpt>
			<trkpt lat="42.07852867" lon="-118.68666638">
				<ele>1939.699951171875</ele>
				<time>2013-05-27T12:57:29Z</time>
				<cmt>speed=3.16228</cmt>
				<hdop>6</hdop>
			</trkpt>
			<trkpt lat="42.07867709" lon="-118.68672576">
				<ele>1946.9000244140625</ele>
				<time>2013-05-27T12:58:29Z</time>
				<cmt>speed=2.3585</cmt>
				<hdop>15</hdop>
			</trkpt>
			<trkpt lat="42.07869596" lon="-118.68687056">
				<ele>1952.9000244140625</ele>
				<time>2013-05-27T12:59:30Z</time>
				<cmt>speed=2.23607</cmt>
				<hdop>19</hdop>
			</trkpt>
			<trkpt lat="42.07848519" lon="-118.68698986">
				<ele>1908.0</ele>
				<time>2013-05-27T13:00:31Z</time>
				<cmt>speed=0</cmt>
				<hdop>13</hdop>
			</trkpt>
			<trkpt lat="42.07855742" lon="-118.68697169">
				<ele>1898.5</ele>
				<time>2013-05-27T13:01:32Z</time>
				<cmt>speed=0</cmt>
				<hdop>11</hdop>
			</trkpt>
			<trkpt lat="42.07860027" lon="-118.68677405">
				<ele>1917.800048828125</ele>
				<time>2013-05-27T13:02:32Z</time>
				<cmt>speed=0.901388</cmt>
				<hdop>6</hdop>
			</trkpt>
			<trkpt lat="42.07830784" lon="-118.68723818">
				<ele>1898.5</ele>
				<time>2013-05-27T13:03:29Z</time>
				<cmt>speed=2.01556</cmt>
				<hdop>8</hdop>
			</trkpt>
			<trkpt lat="42.07791494" lon="-118.68755146">
				<ele>1927.800048828125</ele>
				<time>2013-05-27T13:04:31Z</time>
				<cmt>speed=0.5</cmt>
				<hdop>5</hdop>
			</trkpt>
			<trkpt lat="42.07778095" lon="-118.68735671">
				<ele>1943.5999755859375</ele>
				<time>2013-05-27T13:05:30Z</time>
				<cmt>speed=0.5</cmt>
				<hdop>11</hdop>
			</trkpt>
			<trkpt lat="42.07723282" lon="-118.68726022">
				<ele>1927.199951171875</ele>
				<time>2013-05-27T13:06:32Z</time>
				<cmt>speed=1.25</cmt>
				<hdop>7</hdop>
			</trkpt>
			<trkpt lat="42.07683428" lon="-118.6876014">
				<ele>1954.0999755859375</ele>
				<time>2013-05-27T13:07:34Z</time>
				<cmt>speed=1</cmt>
				<hdop>6</hdop>
			</trkpt>
			<trkpt lat="42.07666105" lon="-118.68827663">
				<ele>1952.0</ele>
				<time>2013-05-27T13:08:33Z</time>
				<cmt>speed=1.25</cmt>
				<hdop>13</hdop>
			</trkpt>
			<trkpt lat="42.0763461" lon="-118.68821741">
				<ele>1943.800048828125</ele>
				<time>2013-05-27T13:09:31Z</time>
				<cmt>speed=2.69258</cmt>
				<hdop>12</hdop>
			</trkpt>
			<trkpt lat="42.07600514" lon="-118.68821584">
				<ele>1996.699951171875</ele>
				<time>2013-05-27T13:10:32Z</time>
				<cmt>speed=2.3585</cmt>
				<hdop>10</hdop>
			</trkpt>
			<trkpt lat="42.07572911" lon="-118.68810408">
				<ele>1954.0999755859375</ele>
				<time>2013-05-27T13:11:36Z</time>
				<cmt>speed=0</cmt>
				<hdop>9</hdop>
			</trkpt>
			<trkpt lat="42.07563799" lon="-118.68803488">
				<ele>1937.699951171875</ele>
				<time>2013-05-27T13:12:36Z</time>
				<cmt>speed=0</cmt>
				<hdop>19</hdop>
			</trkpt>
			<trkpt lat="42.07528426" lon="-118.68794584">
				<ele>1990.300048828125</ele>
				<time>2013-05-27T13:13:37Z</time>
				<cmt>speed=1</cmt>
				<hdop>9</hdop>
			</trkpt>
			<trkpt lat="42.07518266" lon="-118.68750723">
				<ele>1984.5</ele>
				<time>2013-05-27T13:14:35Z</time>
				<cmt>speed=1.80278</cmt>
				<hdop>15</hdop>
			</trkpt>
			<trkpt lat="42.07480309" lon="-118.68732248">
				<ele>1988.0</ele>
				<time>2013-05-27T13:15:38Z</time>
				<cmt>speed=0.75</cmt>
				<hdop>7</hdop>
			</trkpt>
			<trkpt lat="42.0746161" lon="-118.68732526">
				<ele>1994.699951171875</ele>
				<time>2013-05-27T13:16:39Z</time>
				<cmt>speed=1.5</cmt>
				<hdop>7</hdop>
			</trkpt>
			<trkpt lat="42.07454614" lon="-118.68762871">
				<ele>2024.0999755859375</ele>
				<time>2013-05-27T13:17:39Z</time>
				<cmt>speed=0.901388</cmt>
				<hdop>10</hdop>
			</trkpt>
			<trkpt lat="42.07475182" lon="-118.68755603">
				<ele>2005.4000244140625</ele>
				<time>2013-05-27T13:18:40Z</time>
				<cmt>speed=0.559017</cmt>
				<hdop>5</hdop>
			</trkpt>
			<trkpt lat="42.0745745" lon="-118.68759758">
				<ele>2004.4000244140625</ele>
				<time>2013-05-27T13:19:41Z</time>
				<cmt>speed=0</cmt>
				<hdop>8</hdop>
			</trkpt>
			<trkpt lat="42.07455874" lon="-118.68755165">
				<ele>1993.699951171875</ele>
				<time>2013-05-27T13:20:41Z</time>
				<cmt>speed=0</cmt>
				<hdop>7</hdop>
			</trkpt>
			<trkpt lat="42.07435418" lon="-118.6877301">
				<ele>2001.199951171875</ele>
				<time>2013-05-27T13:21:42Z</time>
				<cmt>speed=1</cmt>
				<hdop>5</hdop>
			</trkpt>
			<trkpt lat="42.07410125" lon="-118.68808362">
				<ele>2012.5999755859375</ele>
				<time>2013-05-27T13:22:42Z</time>
				<cmt>speed=0.901388</cmt>
				<hdop>13</hdop>
			</trkpt>
			<trkpt lat="42.07368475" lon="-118.68822342">
				<ele>2031.199951171875</ele>
				<time>2013-05-27T13:23:43Z</time>
				<cmt>speed=0</cmt>
				<hdop>10</hdop>
			</trkpt>
			<trkpt lat="42.07351677" lon="-118.68837716">
				<ele>2030.699951171875</ele>
				<time>2013-05-27T13:24:42Z</time>
				<cmt>speed=0</cmt>
				<hdop>11</hdop>
			</trkpt>
			<trkpt lat="42.07372839" lon="-118.68830362">
				<ele>1999.800048828125</ele>
				<time>2013-05-27T13:25:43Z</time>
				<cmt>speed=0</cmt>
				<hdop>12</hdop>
			</trkpt>
			<trkpt lat="42.07388045" lon="-118.68913734">
				<ele>1993.0999755859375</ele>
				<time>2013-05-27T13:26:43Z</time>
				<cmt>speed=0.75</cmt>
				<hdop>7</hdop>
			</trkpt>
			<trkpt lat="42.07381591" lon="-118.68945666">
				<ele>2011.0</ele>
				<time>2013-05-27T13:27:43Z</time>
				<cmt>speed=1.25</cmt>
				<hdop>10</hdop>
			</trkpt>
			<trkpt lat="42.07369264" lon="-118.68996176">
				<ele>2032.199951171875</ele>
				<time>2013-05-27T13:28:42Z</time>
				<cmt>speed=4.06971</cmt>
				<hdop>8</hdop>
			</trkpt>
			<trkpt lat="42.0735739" lon="-118.69051373">
				<ele>2026.300048828125</ele>
				<time>2013-05-27T13:29:44Z</time>
				<cmt>speed=1</cmt>
				<hdop>7</hdop>
			</trkpt>
			<trkpt lat="42.07325054" lon="-118.6910596">
				<ele>2055.0</ele>
				<time>2013-05-27T13:30:42Z</time>
				<cmt>speed=9.08639</cmt>
				<hdop>6</hdop>
			</trkpt>
			<trkpt lat="42.07294585" lon="-118.69137738">
				<ele>2014.9000244140625</ele>
				<time>2013-05-27T13:31:45Z</time>
				<cmt>speed=0</cmt>
				<hdop>11</hdop>
			</trkpt>
			<trkpt lat="42.07268635" lon="-118.69144366">
				<ele>2035.800048828125</ele>
				<time>2013-05-27T13:32:46Z</time>
				<cmt>speed=0</cmt>
				<hdop>8</hdop>
			</trkpt>
			<trkpt lat="42.07225944" lon="-118.6914479">
				<ele>1999.4000244140625</ele>
				<time>2013-05-27T13:33:43Z</time>
				<cmt>speed=1.03078</cmt>
				<hdop>9</hdop>
			</trkpt>
			<trkpt lat="42.0720689" lon="-118.69147243">
				<ele>2035.0</ele>
				<time>2013-05-27T13:34:45Z</time>
				<cmt>speed=1</cmt>
				<hdop>9</hdop>
			</trkpt>
			<trkpt lat="42.07161746" lon="-118.6916293">
				<ele>2043.699951171875</ele>
				<time>2013-05-27T13:35:46Z</time>
				<cmt>speed=0.5</cmt>
				<hdop>6</hdop>
			</trkpt>
			<trkpt lat="42.07141039" lon="-118.69183842">
				<ele>2035.0999755859375</ele>
				<time>2013-05-27T13:36:47Z</time>
				<cmt>speed=0.901388</cmt>
				<hdop>9</hdop>
			</trkpt>
			<trkpt lat="42.07108318" lon="-118.69186813">
				<ele>2038.800048828125</ele>
				<time>2013-05-27T13:37:48Z</time>
				<cmt>speed=0.901388</cmt>
				<hdop>6</hdop>
			</trkpt>
			<trkpt lat="42.07078683" lon="-118.69212758">
				<ele>1973.0999755859375</ele>
				<time>2013-05-27T13:38:47Z</time>
				<cmt>speed=2.12132</cmt>
				<hdop>10</hdop>
			</trkpt>
			<trkpt lat="42.07042211" lon="-118.69246072">
				<ele>2037.0999755859375</ele>
				<time>2013-05-27T13:39:46Z</time>
				<cmt>speed=0.75</cmt>
				<hdop>15</hdop>
			</trkpt>
			<trkpt lat="42.07030858" lon="-118.69243266">
				<ele>2017.5</ele>
				<time>2013-05-27T13:40:47Z</time>
				<cmt>speed=0.5</cmt>
				<hdop>10</hdop>
			</trkpt>
			<trkpt lat="42.0699102" lon="-118.69237135">
				<ele>2021.0999755859375</ele>
				<time>2013-05-27T13:41:47Z</time>
				<cmt>speed=0.75</cmt>
				<hdop>13</hdop>
			</trkpt>
			<trkpt lat="42.06966927" lon="-118.6924443">
				<ele>2039.9000244140625</ele>
				<time>2013-05-27T13:42:48Z</time>
				<cmt>speed=0</cmt>
				<hdop>10</hdop>
			</trkpt>
			<trkpt lat="42.06927922" lon="-118.6922607">
				<ele>2043.5999755859375</ele>
				<time>2013-05-27T13:43:49Z</time>
				<cmt>speed=0</cmt>
				<hdop>5</hdop>
			</trkpt>
			<trkpt lat="42.06892849" lon="-118.69233322">
				<ele>2042.199951171875</ele>
				<time>2013-05-27T13:44:47Z</time>
				<cmt>speed=1.25</cmt>
				<hdop>13</hdop>
			</trkpt>
			<trkpt lat="42.06843784" lon="-118.6923663">
				<ele>2046.5</ele>
				<time>2013-05-27T13:45:50Z</time>
				<cmt>speed=0</cmt>
				<hdop>10</hdop>
			</trkpt>
			<trkpt lat="42.06821355" lon="-118.69248817">
				<ele>2045.699951171875</ele>
				<time>2013-05-27T13:46:50Z</time>
				<cmt>speed=1.58114</cmt>
				<hdop>14</hdop>
			</trkpt>
			<trkpt lat="42.06814529" lon="-118.69267616">
				<ele>2015.4000244140625</ele>
				<time>2013-05-27T13:47:48Z</time>
				<cmt>speed=0.25</cmt>
				<hdop>12</hdop>
			</trkpt>
			<trkpt lat="42.06774384" lon="-118.69278546">
				<ele>2034.4000244140625</ele>
				<time>2013-05-27T13:48:51Z</time>
				<cmt>speed=0.75</cmt>
				<hdop>7</hdop>
			</trkpt>
			<trkpt lat="42.06742489" lon="-118.69279167">
				<ele>2012.0999755859375</ele>
				<time>2013-05-27T13:49:53Z</time>
				<cmt>speed=0.707107</cmt>
				<hdop>6</hdop>
			</trkpt>
			<trkpt lat="42.06727676" lon="-118.69277043">
				<ele>2023.4000244140625</ele>
				<time>2013-05-27T13:50:50Z</time>
				<cmt>speed=0.901388</cmt>
				<hdop>11</hdop>
			</trkpt>
			<trkpt lat="42.06706738" lon="-118.69255606">
				<ele>2004.800048828125</ele>
				<time>2013-05-27T13:51:54Z</time>
				<cmt>speed=0.5</cmt>
				<hdop>11</hdop>
			</trkpt>
			<trkpt lat="42.06697852" lon="-118.69231001">
				<ele>2015.699951171875</ele>
				<time>2013-05-27T13:52:55Z</time>
				<cmt>speed=0.5</cmt>
				<hdop>7</hdop>
			</trkpt>
			<trkpt lat="42.06686026" lon="-118.6922342">
				<ele>2031.800048828125</ele>
				<time>2013-05-27T13:53:55Z</time>
				<cmt>speed=0.5</cmt>
				<hdop>4</hdop>
			</trkpt>
			<trkpt lat="42.06670126" lon="-118.69198738">
				<ele>2031.4000244140625</ele>
				<time>2013-05-27T13:54:56Z</time>
				<cmt>speed=0.5</cmt>
				<hdop>7</hdop>
			</trkpt>
			<trkpt lat="42.06664965" lon="-118.69180254">
				<ele>2046.0</ele>
				<time>2013-05-27T13:55:56Z</time>
				<cmt>speed=0.5</cmt>
				<hdop>6</hdop>
			</trkpt>
			<trkpt lat="42.0665035" lon="-118.69151069">
				<ele>2041.9000244140625</ele>
				<time>2013-05-27T13:56:56Z</time>
				<cmt>speed=0.5</cmt>
				<hdop>7</hdop>
			</trkpt>
			<trkpt lat="42.06643936" lon="-118.69144928">
				<ele>2039.300048828125</ele>
				<time>2013-05-27T13:57:56Z</time>
				<cmt>speed=0.75</cmt>
				<hdop>8</hdop>
			</trkpt>
			<trkpt lat="42.06621116" lon="-118.691234">
				<ele>2060.0</ele>
				<time>2013-05-27T13:58:56Z</time>
				<cmt>speed=0.5</cmt>
				<hdop>8</hdop>
			</trkpt>
			<trkpt lat="42.06620087" lon="-118.69122255">
				<ele>2052.300048828125</ele>
				<time>2013-05-27T13:59:57Z</time>
				<cmt>speed=0</cmt>
				<hdop>10</hdop>
			</trkpt>
			<trkpt lat="42.06596864" lon="-118.69113427">
				<ele>2065.5</ele>
				<time>2013-05-27T14:00:57Z</time>
				<cmt>speed=1.11803</cmt>
				<hdop>12</hdop>
			</trkpt>
			<trkpt lat="42.06578803" lon="-118.69093543">
				<ele>2072.10009765625</ele>
				<time>2013-05-27T14:01:58Z</time>
				<cmt>speed=0.707107</cmt>
				<hdop>5</hdop>
			</trkpt>
			<trkpt lat="42.06552452" lon="-118.69079199">
				<ele>2060.0</ele>
				<time>2013-05-27T14:02:58Z</time>
				<cmt>speed=0.75</cmt>
				<hdop>6</hdop>
			</trkpt>
			<trkpt lat="42.06500399" lon="-118.69053464">
				<ele>2082.300048828125</ele>
				<time>2013-05-27T14:03:56Z</time>
				<cmt>speed=3.16228</cmt>
				<hdop>13</hdop>
			</trkpt>
			<trkpt lat="42.06509943" lon="-118.69026318">
				<ele>2077.300048828125</ele>
				<time>2013-05-27T14:04:57Z</time>
				<cmt>speed=0.901388</cmt>
				<hdop>6</hdop>
			</trkpt>
			<trkpt lat="42.06480417" lon="-118.69018354">
				<ele>2065.199951171875</ele>
				<time>2013-05-27T14:06:00Z</time>
				<cmt>speed=0.75</cmt>
				<hdop>8</hdop>
			</trkpt>
			<trkpt lat="42.06452525" lon="-118.68999684">
				<ele>2071.800048828125</ele>
				<time>2013-05-27T14:07:00Z</time>
				<cmt>speed=4.58939</cmt>
				<hdop>17</hdop>
			</trkpt>
			<trkpt lat="42.06431777" lon="-118.68995168">
				<ele>2075.800048828125</ele>
				<time>2013-05-27T14:08:01Z</time>
				<cmt>speed=0.25</cmt>
				<hdop>9</hdop>
			</trkpt>
			<trkpt lat="42.06393632" lon="-118.6899364">
				<ele>2087.800048828125</ele>
				<time>2013-05-27T14:09:02Z</time>
				<cmt>speed=0.75</cmt>
				<hdop>6</hdop>
			</trkpt>
			<trkpt lat="42.06356815" lon="-118.68978747">
				<ele>2081.699951171875</ele>
				<time>2013-05-27T14:10:02Z</time>
				<cmt>speed=1</cmt>
				<hdop>7</hdop>
			</trkpt>
			<trkpt lat="42.06333569" lon="-118.68985248">
				<ele>2080.10009765625</ele>
				<time>2013-05-27T14:11:00Z</time>
				<cmt>speed=1.5</cmt>
				<hdop>12</hdop>
			</trkpt>
			<trkpt lat="42.06266702" lon="-118.68973298">
				<ele>2097.199951171875</ele>
				<time>2013-05-27T14:12:03Z</time>
				<cmt>speed=3.36341</cmt>
				<hdop>10</hdop>
			</trkpt>
			<trkpt lat="42.06246077" lon="-118.68987317">
				<ele>2094.39990234375</ele>
				<time>2013-05-27T14:13:04Z</time>
				<cmt>speed=1.03078</cmt>
				<hdop>9</hdop>
			</trkpt>
			<trkpt lat="42.06235364" lon="-118.68989699">
				<ele>2100.699951171875</ele>
				<time>2013-05-27T14:14:07Z</time>
				<cmt>speed=0.75</cmt>
				<hdop>4</hdop>
			</trkpt>
			<trkpt lat="42.06224729" lon="-118.69002384">
				<ele>2091.699951171875</ele>
				<time>2013-05-27T14:15:07Z</time>
				<cmt>speed=1</cmt>
				<hdop>7</hdop>
			</trkpt>
			<trkpt lat="42.06193353" lon="-118.69009383">
				<ele>2104.0</ele>
				<time>2013-05-27T14:16:07Z</time>
				<cmt>speed=1.25</cmt>
				<hdop>9</hdop>
			</trkpt>
			<trkpt lat="42.06177313" lon="-118.6900569">
				<ele>2095.39990234375</ele>
				<time>2013-05-27T14:17:07Z</time>
				<cmt>speed=2.06155</cmt>
				<hdop>12</hdop>
			</trkpt>
			<trkpt lat="42.06146205" lon="-118.69009311">
				<ele>2098.0</ele>
				<time>2013-05-27T14:18:07Z</time>
				<cmt>speed=2</cmt>
				<hdop>12</hdop>
			</trkpt>
			<trkpt lat="42.06138295" lon="-118.68993315">
				<ele>2101.39990234375</ele>
				<time>2013-05-27T14:19:09Z</time>
				<cmt>speed=0.75</cmt>
				<hdop>7</hdop>
			</trkpt>
			<trkpt lat="42.06105801" lon="-118.68979843">
				<ele>2115.0</ele>
				<time>2013-05-27T14:20:11Z</time>
				<cmt>speed=0</cmt>
				<hdop>7</hdop>
			</trkpt>
			<trkpt lat="42.06083467" lon="-118.68988016">
				<ele>2161.89990234375</ele>
				<time>2013-05-27T14:21:10Z</time>
				<cmt>speed=0.5</cmt>
				<hdop>12</hdop>
			</trkpt>
			<trkpt lat="42.0606099" lon="-118.68978586">
				<ele>2103.300048828125</ele>
				<time>2013-05-27T14:22:11Z</time>
				<cmt>speed=0.5</cmt>
				<hdop>9</hdop>
			</trkpt>
			<trkpt lat="42.06028628" lon="-118.68963562">
				<ele>2126.89990234375</ele>
				<time>2013-05-27T14:23:11Z</time>
				<cmt>speed=0.25</cmt>
				<hdop>14</hdop>
			</trkpt>
			<trkpt lat="42.06019618" lon="-118.68963046">
				<ele>2106.10009765625</ele>
				<time>2013-05-27T14:24:10Z</time>
				<cmt>speed=0</cmt>
				<hdop>14</hdop>
			</trkpt>
			<trkpt lat="42.06012822" lon="-118.68995906">
				<ele>2125.800048828125</ele>
				<time>2013-05-27T14:25:12Z</time>
				<cmt>speed=0</cmt>
				<hdop>6</hdop>
			</trkpt>
			<trkpt lat="42.06021756" lon="-118.69010515">
				<ele>2119.199951171875</ele>
				<time>2013-05-27T14:26:13Z</time>
				<cmt>speed=0</cmt>
				<hdop>10</hdop>
			</trkpt>
			<trkpt lat="42.06014369" lon="-118.69006493">
				<ele>2137.699951171875</ele>
				<time>2013-05-27T14:27:13Z</time>
				<cmt>speed=0.75</cmt>
				<hdop>8</hdop>
			</trkpt>
			<trkpt lat="42.05989263" lon="-118.69024219">
				<ele>2139.10009765625</ele>
				<time>2013-05-27T14:28:12Z</time>
				<cmt>speed=0.75</cmt>
				<hdop>11</hdop>
			</trkpt>
			<trkpt lat="42.06008745" lon="-118.6902891">
				<ele>2140.199951171875</ele>
				<time>2013-05-27T14:29:12Z</time>
				<cmt>speed=0.5</cmt>
				<hdop>15</hdop>
			</trkpt>
			<trkpt lat="42.06003489" lon="-118.69032077">
				<ele>2158.10009765625</ele>
				<time>2013-05-27T14:30:12Z</time>
				<cmt>speed=0</cmt>
				<hdop>5</hdop>
			</trkpt>
			<trkpt lat="42.06006296" lon="-118.69048449">
				<ele>2116.39990234375</ele>
				<time>2013-05-27T14:31:10Z</time>
				<cmt>speed=2.51247</cmt>
				<hdop>4</hdop>
			</trkpt>
			<trkpt lat="42.06006895" lon="-118.69099534">
				<ele>2133.89990234375</ele>
				<time>2013-05-27T14:32:14Z</time>
				<cmt>speed=1.25</cmt>
				<hdop>7</hdop>
			</trkpt>
			<trkpt lat="42.05962028" lon="-118.69147084">
				<ele>2125.60009765625</ele>
				<time>2013-05-27T14:33:14Z</time>
				<cmt>speed=1.11803</cmt>
				<hdop>9</hdop>
			</trkpt>
			<trkpt lat="42.05914083" lon="-118.69186825">
				<ele>2129.10009765625</ele>
				<time>2013-05-27T14:34:13Z</time>
				<cmt>speed=0.5</cmt>
				<hdop>10</hdop>
			</trkpt>
			<trkpt lat="42.05895682" lon="-118.6922853">
				<ele>2095.300048828125</ele>
				<time>2013-05-27T14:35:13Z</time>
				<cmt>speed=3.53553</cmt>
				<hdop>11</hdop>
			</trkpt>
			<trkpt lat="42.05863714" lon="-118.69260772">
				<ele>2082.60009765625</ele>
				<time>2013-05-27T14:36:15Z</time>
				<cmt>speed=0.901388</cmt>
				<hdop>11</hdop>
			</trkpt>
			<trkpt lat="42.05816146" lon="-118.692921">
				<ele>2074.300048828125</ele>
				<time>2013-05-27T14:37:16Z</time>
				<cmt>speed=2.65754</cmt>
				<hdop>9</hdop>
			</trkpt>
			<trkpt lat="42.05768595" lon="-118.69298218">
				<ele>2085.800048828125</ele>
				<time>2013-05-27T14:38:16Z</time>
				<cmt>speed=1.80278</cmt>
				<hdop>10</hdop>
			</trkpt>
			<trkpt lat="42.05765895" lon="-118.69343797">
				<ele>2050.89990234375</ele>
				<time>2013-05-27T14:39:16Z</time>
				<cmt>speed=0</cmt>
				<hdop>7</hdop>
			</trkpt>
			<trkpt lat="42.05760665" lon="-118.69330738">
				<ele>2074.10009765625</ele>
				<time>2013-05-27T14:40:17Z</time>
				<cmt>speed=0</cmt>
				<hdop>13</hdop>
			</trkpt>
			<trkpt lat="42.05775816" lon="-118.69347343">
				<ele>2035.0999755859375</ele>
				<time>2013-05-27T14:41:14Z</time>
				<cmt>speed=0.559017</cmt>
				<hdop>8</hdop>
			</trkpt>
			<trkpt lat="42.05766922" lon="-118.69357834">
				<ele>2071.300048828125</ele>
				<time>2013-05-27T14:42:18Z</time>
				<cmt>speed=0</cmt>
				<hdop>9</hdop>
			</trkpt>
			<trkpt lat="42.05764865" lon="-118.69348053">
				<ele>2078.300048828125</ele>
				<time>2013-05-27T14:43:19Z</time>
				<cmt>speed=0</cmt>
				<hdop>12</hdop>
			</trkpt>
			<trkpt lat="42.05775442" lon="-118.69348362">
				<ele>2064.0</ele>
				<time>2013-05-27T14:44:20Z</time>
				<cmt>speed=3.09233</cmt>
				<hdop>8</hdop>
			</trkpt>
			<trkpt lat="42.05788065" lon="-118.69341129">
				<ele>2070.300048828125</ele>
				<time>2013-05-27T14:45:21Z</time>
				<cmt>speed=0</cmt>
				<hdop>18</hdop>
			</trkpt>
			<trkpt lat="42.05759691" lon="-118.69341567">
				<ele>2093.10009765625</ele>
				<time>2013-05-27T14:46:18Z</time>
				<cmt>speed=0.25</cmt>
				<hdop>16</hdop>
			</trkpt>
			<trkpt lat="42.05750459" lon="-118.69336298">
				<ele>2078.10009765625</ele>
				<time>2013-05-27T14:47:20Z</time>
				<cmt>speed=0.559017</cmt>
				<hdop>16</hdop>
			</trkpt>
			<trkpt lat="42.0577227" lon="-118.69343182">
				<ele>2071.5</ele>
				<time>2013-05-27T14:48:21Z</time>
				<cmt>speed=0.25</cmt>
				<hdop>14</hdop>
			</trkpt>
			<trkpt lat="42.05784732" lon="-118.69344621">
				<ele>2067.800048828125</ele>
				<time>2013-05-27T14:49:21Z</time>
				<cmt>speed=0</cmt>
				<hdop>8</hdop>
			</trkpt>
			<trkpt lat="42.05765918" lon="-118.69331751">
				<ele>2088.800048828125</ele>
				<time>2013-05-27T14:50:21Z</time>
				<cmt>speed=0.5</cmt>
				<hdop>15</hdop>
			</trkpt>
			<trkpt lat="42.05769107" lon="-118.69347082">
				<ele>2075.300048828125</ele>
				<time>2013-05-27T14:51:23Z</time>
				<cmt>speed=0.25</cmt>
				<hdop>12</hdop>
			</trkpt>
			<trkpt lat="42.0577313" lon="-118.69336624">
				<ele>2041.0999755859375</ele>
				<time>2013-05-27T14:52:25Z</time>
				<cmt>speed=0.5</cmt>
				<hdop>17</hdop>
			</trkpt>
			<trkpt lat="42.05784847" lon="-118.69345657">
				<ele>2066.89990234375</ele>
				<time>2013-05-27T14:53:43Z</time>
				<cmt>speed=0</cmt>
				<hdop>19</hdop>
			</trkpt>
			<trkpt lat="42.05784185" lon="-118.69345478">
				<ele>2066.5</ele>
				<time>2013-05-27T14:54:29Z</time>
				<cmt>speed=0</cmt>
				<hdop>11</hdop>
			</trkpt>
			<trkpt lat="42.0577341" lon="-118.6935527">
				<ele>2040.4000244140625</ele>
				<time>2013-05-27T14:55:28Z</time>
				<cmt>speed=0</cmt>
				<hdop>12</hdop>
			</trkpt>
			<trkpt lat="42.05784155" lon="-118.69345734">
				<ele>2066.60009765625</ele>
				<time>2013-05-27T14:56:30Z</time>
				<cmt>speed=0</cmt>
				<hdop>16</hdop>
			</trkpt>
			<trkpt lat="42.05776697" lon="-118.69345013">
				<ele>2068.699951171875</ele>
				<time>2013-05-27T14:57:26Z</time>
				<cmt>speed=0</cmt>
				<hdop>12</hdop>
			</trkpt>
			<trkpt lat="42.05776541" lon="-118.69345626">
				<ele>2068.10009765625</ele>
				<time>2013-05-27T14:58:29Z</time>
				<cmt>speed=0</cmt>
				<hdop>13</hdop>
			</trkpt>
			<trkpt lat="42.05752657" lon="-118.69320641">
				<ele>2066.800048828125</ele>
				<time>2013-05-27T14:59:26Z</time>
				<cmt>speed=0</cmt>
				<hdop>17</hdop>
			</trkpt>
			<trkpt lat="42.05776489" lon="-118.6934696">
				<ele>2066.39990234375</ele>
				<time>2013-05-27T15:00:29Z</time>
				<cmt>speed=0</cmt>
				<hdop>19</hdop>
			</trkpt>
			<trkpt lat="42.05770935" lon="-118.69336427">
				<ele>2067.10009765625</ele>
				<time>2013-05-27T15:01:27Z</time>
				<cmt>speed=0</cmt>
				<hdop>18</hdop>
			</trkpt>
			<trkpt lat="42.0577677" lon="-118.6934764">
				<ele>2061.89990234375</ele>
				<time>2013-05-27T15:02:29Z</time>
				<cmt>speed=0</cmt>
				<hdop>6</hdop>
			</trkpt>
			<trkpt lat="42.05770527" lon="-118.69329463">
				<ele>2071.300048828125</ele>
				<time>2013-05-27T15:03:29Z</time>
				<cmt>speed=0</cmt>
				<hdop>18</hdop>
			</trkpt>
			<trkpt lat="42.05772254" lon="-118.69353008">
				<ele>2041.0</ele>
				<time>2013-05-27T15:04:30Z</time>
				<cmt>speed=0</cmt>
				<hdop>16</hdop>
			</trkpt>
			<trkpt lat="42.057761" lon="-118.69348693">
				<ele>2061.60009765625</ele>
				<time>2013-05-27T15:05:41Z</time>
				<cmt>speed=0</cmt>
				<hdop>16</hdop>
			</trkpt>
			<trkpt lat="42.05124895" lon="-118.69820142">
				<ele>1893.9000244140625</ele>
				<time>2013-05-28T07:34:36Z</time>
				<cmt>speed=1.25</cmt>
				<hdop>6</hdop>
			</trkpt>
			<trkpt lat="42.05084713" lon="-118.69836885">
				<ele>1888.0</ele>
				<time>2013-05-28T07:35:15Z</time>
				<cmt>speed=0.75</cmt>
				<hdop>12</hdop>
			</trkpt>
			<trkpt lat="42.05019022" lon="-118.69882962">
				<ele>1880.5</ele>
				<time>2013-05-28T07:36:15Z</time>
				<cmt>speed=1.75</cmt>
				<hdop>12</hdop>
			</trkpt>
			<trkpt lat="42.04950119" lon="-118.6991293">
				<ele>1850.0999755859375</ele>
				<time>2013-05-28T07:37:16Z</time>
				<cmt>speed=1.34629</cmt>
				<hdop>12</hdop>
			</trkpt>
			<trkpt lat="42.04891097" lon="-118.69928381">
				<ele>1831.0</ele>
				<time>2013-05-28T07:38:15Z</time>
				<cmt>speed=1.34629</cmt>
				<hdop>17</hdop>
			</trkpt>
			<trkpt lat="42.04821113" lon="-118.69939819">
				<ele>1826.5</ele>
				<time>2013-05-28T07:39:17Z</time>
				<cmt>speed=1.80278</cmt>
				<hdop>11</hdop>
			</trkpt>
			<trkpt lat="42.04779783" lon="-118.70020124">
				<ele>1855.5999755859375</ele>
				<time>2013-05-28T07:40:17Z</time>
				<cmt>speed=1.34629</cmt>
				<hdop>19</hdop>
			</trkpt>
			<trkpt lat="42.04745763" lon="-118.70057686">
				<ele>1836.4000244140625</ele>
				<time>2013-05-28T07:41:17Z</time>
				<cmt>speed=0</cmt>
				<hdop>17</hdop>
			</trkpt>
			<trkpt lat="42.04732105" lon="-118.70098386">
				<ele>1882.0999755859375</ele>
				<time>2013-05-28T07:42:16Z</time>
				<cmt>speed=0.901388</cmt>
				<hdop>13</hdop>
			</trkpt>
			<trkpt lat="42.0472518" lon="-118.70147547">
				<ele>1873.300048828125</ele>
				<time>2013-05-28T07:43:15Z</time>
				<cmt>speed=0.75</cmt>
				<hdop>15</hdop>
			</trkpt>
			<trkpt lat="42.04718038" lon="-118.70166384">
				<ele>1862.0</ele>
				<time>2013-05-28T07:44:17Z</time>
				<cmt>speed=0.75</cmt>
				<hdop>13</hdop>
			</trkpt>
			<trkpt lat="42.04658267" lon="-118.701509">
				<ele>1824.199951171875</ele>
				<time>2013-05-28T07:45:17Z</time>
				<cmt>speed=1.34629</cmt>
				<hdop>17</hdop>
			</trkpt>
			<trkpt lat="42.04632599" lon="-118.70117991">
				<ele>1849.5</ele>
				<time>2013-05-28T07:46:17Z</time>
				<cmt>speed=1.34629</cmt>
				<hdop>10</hdop>
			</trkpt>
			<trkpt lat="42.04564683" lon="-118.70132769">
				<ele>1823.699951171875</ele>
				<time>2013-05-28T07:47:17Z</time>
				<cmt>speed=1.5</cmt>
				<hdop>7</hdop>
			</trkpt>
			<trkpt lat="42.04492331" lon="-118.7012581">
				<ele>1834.699951171875</ele>
				<time>2013-05-28T07:48:17Z</time>
				<cmt>speed=2.01556</cmt>
				<hdop>12</hdop>
			</trkpt>
			<trkpt lat="42.04425698" lon="-118.70057687">
				<ele>1805.9000244140625</ele>
				<time>2013-05-28T07:49:17Z</time>
				<cmt>speed=1.34629</cmt>
				<hdop>15</hdop>
			</trkpt>
			<trkpt lat="42.04384858" lon="-118.69986629">
				<ele>1796.699951171875</ele>
				<time>2013-05-28T07:50:18Z</time>
				<cmt>speed=1.25</cmt>
				<hdop>14</hdop>
			</trkpt>
			<trkpt lat="42.04317081" lon="-118.69934207">
				<ele>1772.9000244140625</ele>
				<time>2013-05-28T07:51:18Z</time>
				<cmt>speed=1.25</cmt>
				<hdop>9</hdop>
			</trkpt>
			<trkpt lat="42.0425815" lon="-118.70019488">
				<ele>1821.5999755859375</ele>
				<time>2013-05-28T07:52:19Z</time>
				<cmt>speed=1.82003</cmt>
				<hdop>18</hdop>
			</trkpt>
			<trkpt lat="42.0418774" lon="-118.70046103">
				<ele>1756.5999755859375</ele>
				<time>2013-05-28T07:53:17Z</time>
				<cmt>speed=3.75</cmt>
				<hdop>16</hdop>
			</trkpt>
			<trkpt lat="42.04132087" lon="-118.70095947">
				<ele>1799.0999755859375</ele>
				<time>2013-05-28T07:54:20Z</time>
				<cmt>speed=1</cmt>
				<hdop>9</hdop>
			</trkpt>
			<trkpt lat="42.04104041" lon="-118.70151975">
				<ele>1835.4000244140625</ele>
				<time>2013-05-28T07:55:30Z</time>
				<cmt>speed=1.25</cmt>
				<hdop>17</hdop>
			</trkpt>
			<trkpt lat="42.04079903" lon="-118.70202964">
				<ele>1794.199951171875</ele>
				<time>2013-05-28T07:56:22Z</time>
				<cmt>speed=1</cmt>
				<hdop>11</hdop>
			</trkpt>
			<trkpt lat="42.04032881" lon="-118.70157375">
				<ele>1797.300048828125</ele>
				<time>2013-05-28T07:57:21Z</time>
				<cmt>speed=1.5</cmt>
				<hdop>17</hdop>
			</trkpt>
			<trkpt lat="42.04014695" lon="-118.70071939">
				<ele>1770.699951171875</ele>
				<time>2013-05-28T07:58:21Z</time>
				<cmt>speed=1.25</cmt>
				<hdop>17</hdop>
			</trkpt>
			<trkpt lat="42.0396656" lon="-118.70011575">
				<ele>1776.0999755859375</ele>
				<time>2013-05-28T07:59:21Z</time>
				<cmt>speed=1</cmt>
				<hdop>11</hdop>
			</trkpt>
			<trkpt lat="42.03888398" lon="-118.69918988">
				<ele>1774.4000244140625</ele>
				<time>2013-05-28T08:00:22Z</time>
				<cmt>speed=1.25</cmt>
				<hdop>15</hdop>
			</trkpt>
			<trkpt lat="42.03884227" lon="-118.69881455">
				<ele>1789.199951171875</ele>
				<time>2013-05-28T08:01:19Z</time>
				<cmt>speed=2.30489</cmt>
				<hdop>12</hdop>
			</trkpt>
			<trkpt lat="42.03828422" lon="-118.69759045">
				<ele>1747.5999755859375</ele>
				<time>2013-05-28T08:02:22Z</time>
				<cmt>speed=1.25</cmt>
				<hdop>13</hdop>
			</trkpt>
			<trkpt lat="42.03814199" lon="-118.69660514">
				<ele>1761.300048828125</ele>
				<time>2013-05-28T08:03:22Z</time>
				<cmt>speed=1.34629</cmt>
				<hdop>13</hdop>
			</trkpt>
			<trkpt lat="42.0383393" lon="-118.69561905">
				<ele>1743.5</ele>
				<time>2013-05-28T08:04:23Z</time>
				<cmt>speed=1.34629</cmt>
				<hdop>16</hdop>
			</trkpt>
			<trkpt lat="42.03813289" lon="-118.69465437">
				<ele>1724.199951171875</ele>
				<time>2013-05-28T08:05:24Z</time>
				<cmt>speed=1.34629</cmt>
				<hdop>13</hdop>
			</trkpt>
			<trkpt lat="42.03791261" lon="-118.69387292">
				<ele>1695.300048828125</ele>
				<time>2013-05-28T08:06:24Z</time>
				<cmt>speed=1.41421</cmt>
				<hdop>14</hdop>
			</trkpt>
			<trkpt lat="42.03773608" lon="-118.69327012">
				<ele>1697.5</ele>
				<time>2013-05-28T08:07:25Z</time>
				<cmt>speed=1.5</cmt>
				<hdop>13</hdop>
			</trkpt>
			<trkpt lat="42.0372026" lon="-118.69268936">
				<ele>1731.5</ele>
				<time>2013-05-28T08:08:26Z</time>
				<cmt>speed=1.5</cmt>
				<hdop>14</hdop>
			</trkpt>
			<trkpt lat="42.03645471" lon="-118.69210808">
				<ele>1708.5</ele>
				<time>2013-05-28T08:09:27Z</time>
				<cmt>speed=1.5</cmt>
				<hdop>13</hdop>
			</trkpt>
			<trkpt lat="42.03583277" lon="-118.69151952">
				<ele>1693.300048828125</ele>
				<time>2013-05-28T08:10:27Z</time>
				<cmt>speed=1.34629</cmt>
				<hdop>13</hdop>
			</trkpt>
			<trkpt lat="42.03526638" lon="-118.69099242">
				<ele>1707.199951171875</ele>
				<time>2013-05-28T08:11:26Z</time>
				<cmt>speed=1.58114</cmt>
				<hdop>12</hdop>
			</trkpt>
			<trkpt lat="42.03479028" lon="-118.69062309">
				<ele>1710.5</ele>
				<time>2013-05-28T08:12:28Z</time>
				<cmt>speed=1.5</cmt>
				<hdop>14</hdop>
			</trkpt>
			<trkpt lat="42.03440022" lon="-118.68981528">
				<ele>1706.199951171875</ele>
				<time>2013-05-28T08:13:27Z</time>
				<cmt>speed=0.75</cmt>
				<hdop>11</hdop>
			</trkpt>
			<trkpt lat="42.03442528" lon="-118.68963862">
				<ele>1714.0</ele>
				<time>2013-05-28T08:14:25Z</time>
				<cmt>speed=0.75</cmt>
				<hdop>7</hdop>
			</trkpt>
			<trkpt lat="42.03382462" lon="-118.68876341">
				<ele>1694.800048828125</ele>
				<time>2013-05-28T08:15:26Z</time>
				<cmt>speed=0.75</cmt>
				<hdop>8</hdop>
			</trkpt>
			<trkpt lat="42.03341894" lon="-118.68826872">
				<ele>1676.800048828125</ele>
				<time>2013-05-28T08:16:29Z</time>
				<cmt>speed=0</cmt>
				<hdop>5</hdop>
			</trkpt>
			<trkpt lat="42.0334289" lon="-118.68825126">
				<ele>1710.5999755859375</ele>
				<time>2013-05-28T08:17:32Z</time>
				<cmt>speed=0</cmt>
				<hdop>18</hdop>
			</trkpt>
			<trkpt lat="42.03343129" lon="-118.68829551">
				<ele>1693.699951171875</ele>
				<time>2013-05-28T08:18:30Z</time>
				<cmt>speed=0</cmt>
				<hdop>10</hdop>
			</trkpt>
			<trkpt lat="42.03347792" lon="-118.68836115">
				<ele>1711.699951171875</ele>
				<time>2013-05-28T08:19:31Z</time>
				<cmt>speed=0</cmt>
				<hdop>13</hdop>
			</trkpt>
			<trkpt lat="42.03276534" lon="-118.68768226">
				<ele>1692.699951171875</ele>
				<time>2013-05-28T08:20:28Z</time>
				<cmt>speed=1.67705</cmt>
				<hdop>14</hdop>
			</trkpt>
			<trkpt lat="42.0322715" lon="-118.68708865">
				<ele>1691.4000244140625</ele>
				<time>2013-05-28T08:21:31Z</time>
				<cmt>speed=1.5</cmt>
				<hdop>16</hdop>
			</trkpt>
			<trkpt lat="42.0317412" lon="-118.68686112">
				<ele>1662.699951171875</ele>
				<time>2013-05-28T08:22:30Z</time>
				<cmt>speed=1.34629</cmt>
				<hdop>10</hdop>
			</trkpt>
			<trkpt lat="42.03129542" lon="-118.68636757">
				<ele>1675.0</ele>
				<time>2013-05-28T08:23:32Z</time>
				<cmt>speed=1.60078</cmt>
				<hdop>9</hdop>
			</trkpt>
			<trkpt lat="42.03055286" lon="-118.68578203">
				<ele>1687.699951171875</ele>
				<time>2013-05-28T08:24:33Z</time>
				<cmt>speed=1.60078</cmt>
				<hdop>15</hdop>
			</trkpt>
			<trkpt lat="42.02993421" lon="-118.6850733">
				<ele>1664.699951171875</ele>
				<time>2013-05-28T08:25:32Z</time>
				<cmt>speed=1.58114</cmt>
				<hdop>7</hdop>
			</trkpt>
			<trkpt lat="42.02928226" lon="-118.68472976">
				<ele>1654.800048828125</ele>
				<time>2013-05-28T08:26:34Z</time>
				<cmt>speed=1.5</cmt>
				<hdop>13</hdop>
			</trkpt>
			<trkpt lat="42.02843675" lon="-118.68465705">
				<ele>1671.699951171875</ele>
				<time>2013-05-28T08:27:34Z</time>
				<cmt>speed=1.5</cmt>
				<hdop>10</hdop>
			</trkpt>
			<trkpt lat="42.02779757" lon="-118.68413514">
				<ele>1665.0</ele>
				<time>2013-05-28T08:28:34Z</time>
				<cmt>speed=1.82003</cmt>
				<hdop>13</hdop>
			</trkpt>
			<trkpt lat="42.02706864" lon="-118.68365904">
				<ele>1638.5</ele>
				<time>2013-05-28T08:29:36Z</time>
				<cmt>speed=1.34629</cmt>
				<hdop>12</hdop>
			</trkpt>
			<trkpt lat="42.0263481" lon="-118.68321401">
				<ele>1643.300048828125</ele>
				<time>2013-05-28T08:30:35Z</time>
				<cmt>speed=1.25</cmt>
				<hdop>10</hdop>
			</trkpt>
			<trkpt lat="42.0258086" lon="-118.68291571">
				<ele>1640.5999755859375</ele>
				<time>2013-05-28T08:31:36Z</time>
				<cmt>speed=1.75</cmt>
				<hdop>5</hdop>
			</trkpt>
			<trkpt lat="42.02544445" lon="-118.68255131">
				<ele>1647.4000244140625</ele>
				<time>2013-05-28T08:32:36Z</time>
				<cmt>speed=1.5</cmt>
				<hdop>13</hdop>
			</trkpt>
			<trkpt lat="42.02467798" lon="-118.6821103">
				<ele>1647.699951171875</ele>
				<time>2013-05-28T08:33:36Z</time>
				<cmt>speed=1.34629</cmt>
				<hdop>17</hdop>
			</trkpt>
			<trkpt lat="42.02404232" lon="-118.68171889">
				<ele>1680.699951171875</ele>
				<time>2013-05-28T08:34:36Z</time>
				<cmt>speed=2.23607</cmt>
				<hdop>12</hdop>
			</trkpt>
			<trkpt lat="42.02381633" lon="-118.68104303">
				<ele>1639.4000244140625</ele>
				<time>2013-05-28T08:35:38Z</time>
				<cmt>speed=1.34629</cmt>
				<hdop>13</hdop>
			</trkpt>
			<trkpt lat="42.02321878" lon="-118.68061314">
				<ele>1630.0999755859375</ele>
				<time>2013-05-28T08:36:38Z</time>
				<cmt>speed=1.5</cmt>
				<hdop>13</hdop>
			</trkpt>
			<trkpt lat="42.02311047" lon="-118.68056392">
				<ele>1605.4000244140625</ele>
				<time>2013-05-28T08:37:38Z</time>
				<cmt>speed=0</cmt>
				<hdop>16</hdop>
			</trkpt>
			<trkpt lat="42.02316046" lon="-118.68055298">
				<ele>1599.4000244140625</ele>
				<time>2013-05-28T08:38:36Z</time>
				<cmt>speed=1.34629</cmt>
				<hdop>17</hdop>
			</trkpt>
			<trkpt lat="42.02310232" lon="-118.68058547">
				<ele>1594.5999755859375</ele>
				<time>2013-05-28T08:39:40Z</time>
				<cmt>speed=0</cmt>
				<hdop>13</hdop>
			</trkpt>
			<trkpt lat="42.02289331" lon="-118.68057556">
				<ele>1631.0</ele>
				<time>2013-05-28T08:40:45Z</time>
				<cmt>speed=0</cmt>
				<hdop>16</hdop>
			</trkpt>
			<trkpt lat="42.02306776" lon="-118.68110913">
				<ele>1700.300048828125</ele>
				<time>2013-05-28T08:41:41Z</time>
				<cmt>speed=1.34629</cmt>
				<hdop>16</hdop>
			</trkpt>
			<trkpt lat="42.02311315" lon="-118.68056668">
				<ele>1590.4000244140625</ele>
				<time>2013-05-28T08:42:42Z</time>
				<cmt>speed=1</cmt>
				<hdop>11</hdop>
			</trkpt>
			<trkpt lat="42.02170835" lon="-118.6801203">
				<ele>1614.199951171875</ele>
				<time>2013-05-28T08:43:42Z</time>
				<cmt>speed=1.82003</cmt>
				<hdop>11</hdop>
			</trkpt>
			<trkpt lat="42.02105701" lon="-118.68001452">
				<ele>1601.0999755859375</ele>
				<time>2013-05-28T08:44:43Z</time>
				<cmt>speed=1.41421</cmt>
				<hdop>17</hdop>
			</trkpt>
			<trkpt lat="42.02018732" lon="-118.67952676">
				<ele>1623.300048828125</ele>
				<time>2013-05-28T08:45:43Z</time>
				<cmt>speed=1.80278</cmt>
				<hdop>8</hdop>
			</trkpt>
			<trkpt lat="42.01954347" lon="-118.67900565">
				<ele>1616.199951171875</ele>
				<time>2013-05-28T08:46:44Z</time>
				<cmt>speed=0</cmt>
				<hdop>16</hdop>
			</trkpt>
			<trkpt lat="42.01943887" lon="-118.67896845">
				<ele>1633.4000244140625</ele>
				<time>2013-05-28T08:47:44Z</time>
				<cmt>speed=0</cmt>
				<hdop>8</hdop>
			</trkpt>
			<trkpt lat="42.01965719" lon="-118.67872374">
				<ele>1610.300048828125</ele>
				<time>2013-05-28T08:48:46Z</time>
				<cmt>speed=1.34629</cmt>
				<hdop>13</hdop>
			</trkpt>
			<trkpt lat="42.01973632" lon="-118.6784353">
				<ele>1576.800048828125</ele>
				<time>2013-05-28T08:49:45Z</time>
				<cmt>speed=0.5</cmt>
				<hdop>15</hdop>
			</trkpt>
			<trkpt lat="42.01953878" lon="-118.67810579">
				<ele>1618.4000244140625</ele>
				<time>2013-05-28T08:49:54Z</time>
				<cmt>speed=1.25</cmt>
				<hdop>18</hdop>
			</trkpt>
			<trkpt lat="42.01895461" lon="-118.67786167">
				<ele>1581.300048828125</ele>
				<time>2013-05-28T08:50:54Z</time>
				<cmt>speed=1.58114</cmt>
				<hdop>10</hdop>
			</trkpt>
			<trkpt lat="42.01855513" lon="-118.677576">
				<ele>1581.800048828125</ele>
				<time>2013-05-28T08:51:54Z</time>
				<cmt>speed=0.5</cmt>
				<hdop>18</hdop>
			</trkpt>
			<trkpt lat="42.01787346" lon="-118.67725588">
				<ele>1590.5999755859375</ele>
				<time>2013-05-28T08:52:59Z</time>
				<cmt>speed=1</cmt>
				<hdop>19</hdop>
			</trkpt>
			<trkpt lat="42.01749157" lon="-118.6768974">
				<ele>1566.5999755859375</ele>
				<time>2013-05-28T08:53:55Z</time>
				<cmt>speed=1</cmt>
				<hdop>8</hdop>
			</trkpt>
			<trkpt lat="42.01695322" lon="-118.67683897">
				<ele>1573.4000244140625</ele>
				<time>2013-05-28T08:54:54Z</time>
				<cmt>speed=4.06971</cmt>
				<hdop>16</hdop>
			</trkpt>
			<trkpt lat="42.01638595" lon="-118.67669536">
				<ele>1584.9000244140625</ele>
				<time>2013-05-28T08:55:55Z</time>
				<cmt>speed=1.58114</cmt>
				<hdop>13</hdop>
			</trkpt>
			<trkpt lat="42.01598427" lon="-118.67615326">
				<ele>1578.5999755859375</ele>
				<time>2013-05-28T08:56:56Z</time>
				<cmt>speed=1.11803</cmt>
				<hdop>10</hdop>
			</trkpt>
			<trkpt lat="42.01553342" lon="-118.67560689">
				<ele>1571.0</ele>
				<time>2013-05-28T08:57:58Z</time>
				<cmt>speed=1</cmt>
				<hdop>7</hdop>
			</trkpt>
			<trkpt lat="42.01516389" lon="-118.67505541">
				<ele>1596.199951171875</ele>
				<time>2013-05-28T08:58:59Z</time>
				<cmt>speed=1.34629</cmt>
				<hdop>17</hdop>
			</trkpt>
			<trkpt lat="42.01499024" lon="-118.67450085">
				<ele>1623.699951171875</ele>
				<time>2013-05-28T08:59:57Z</time>
				<cmt>speed=0.5</cmt>
				<hdop>11</hdop>
			</trkpt>
			<trkpt lat="42.01492797" lon="-118.67432089">
				<ele>1648.5</ele>
				<time>2013-05-28T09:01:04Z</time>
				<cmt>speed=0.75</cmt>
				<hdop>17</hdop>
			</trkpt>
			<trkpt lat="42.01489469" lon="-118.67369522">
				<ele>1612.300048828125</ele>
				<time>2013-05-28T09:01:58Z</time>
				<cmt>speed=0</cmt>
				<hdop>13</hdop>
			</trkpt>
			<trkpt lat="42.01491741" lon="-118.67367341">
				<ele>1609.300048828125</ele>
				<time>2013-05-28T09:02:07Z</time>
				<cmt>speed=0</cmt>
				<hdop>14</hdop>
			</trkpt>
			<trkpt lat="42.01489403" lon="-118.67363309">
				<ele>1606.300048828125</ele>
				<time>2013-05-28T09:03:08Z</time>
				<cmt>speed=1</cmt>
				<hdop>17</hdop>
			</trkpt>
			<trkpt lat="42.01430765" lon="-118.67302123">
				<ele>1607.9000244140625</ele>
				<time>2013-05-28T09:04:07Z</time>
				<cmt>speed=2.12132</cmt>
				<hdop>14</hdop>
			</trkpt>
			<trkpt lat="42.01377553" lon="-118.67267836">
				<ele>1593.199951171875</ele>
				<time>2013-05-28T09:05:12Z</time>
				<cmt>speed=0.75</cmt>
				<hdop>13</hdop>
			</trkpt>
			<trkpt lat="42.01367464" lon="-118.67219915">
				<ele>1611.5999755859375</ele>
				<time>2013-05-28T09:06:08Z</time>
				<cmt>speed=2.3585</cmt>
				<hdop>16</hdop>
			</trkpt>
			<trkpt lat="42.01309483" lon="-118.672537">
				<ele>1629.0</ele>
				<time>2013-05-28T09:07:11Z</time>
				<cmt>speed=2.79508</cmt>
				<hdop>18</hdop>
			</trkpt>
			<trkpt lat="42.01273354" lon="-118.67224527">
				<ele>1599.199951171875</ele>
				<time>2013-05-28T09:08:12Z</time>
				<cmt>speed=0</cmt>
				<hdop>18</hdop>
			</trkpt>
			<trkpt lat="42.01303768" lon="-118.67259534">
				<ele>1586.5999755859375</ele>
				<time>2013-05-28T09:09:12Z</time>
				<cmt>speed=0.25</cmt>
				<hdop>18</hdop>
			</trkpt>
			<trkpt lat="42.01286032" lon="-118.67251958">
				<ele>1586.199951171875</ele>
				<time>2013-05-28T09:10:15Z</time>
				<cmt>speed=0.25</cmt>
				<hdop>17</hdop>
			</trkpt>
			<trkpt lat="42.01252111" lon="-118.67236557">
				<ele>1577.5999755859375</ele>
				<time>2013-05-28T09:11:15Z</time>
				<cmt>speed=1.5</cmt>
				<hdop>10</hdop>
			</trkpt>
			<trkpt lat="42.01200694" lon="-118.67211168">
				<ele>1552.199951171875</ele>
				<time>2013-05-28T09:12:17Z</time>
				<cmt>speed=0.5</cmt>
				<hdop>12</hdop>
			</trkpt>
			<trkpt lat="42.01199212" lon="-118.67170828">
				<ele>1542.5</ele>
				<time>2013-05-28T09:13:15Z</time>
				<cmt>speed=1.52069</cmt>
				<hdop>19</hdop>
			</trkpt>
			<trkpt lat="42.0118417" lon="-118.67146305">
				<ele>1557.0999755859375</ele>
				<time>2013-05-28T09:14:17Z</time>
				<cmt>speed=0.5</cmt>
				<hdop>12</hdop>
			</trkpt>
			<trkpt lat="42.01158755" lon="-118.6711209">
				<ele>1592.0</ele>
				<time>2013-05-28T09:15:17Z</time>
				<cmt>speed=0.25</cmt>
				<hdop>15</hdop>
			</trkpt>
			<trkpt lat="42.01140346" lon="-118.67122987">
				<ele>1544.9000244140625</ele>
				<time>2013-05-28T09:16:31Z</time>
				<cmt>speed=1</cmt>
				<hdop>18</hdop>
			</trkpt>
			<trkpt lat="42.01141154" lon="-118.67075801">
				<ele>1521.300048828125</ele>
				<time>2013-05-28T09:17:23Z</time>
				<cmt>speed=1</cmt>
				<hdop>18</hdop>
			</trkpt>
			<trkpt lat="42.0109019" lon="-118.6698279">
				<ele>1471.199951171875</ele>
				<time>2013-05-28T09:19:14Z</time>
				<cmt>speed=1</cmt>
				<hdop>19</hdop>
			</trkpt>
			<trkpt lat="42.0108947" lon="-118.66981178">
				<ele>1470.5</ele>
				<time>2013-05-28T09:19:16Z</time>
				<cmt>speed=0.75</cmt>
				<hdop>17</hdop>
			</trkpt>
			<trkpt lat="42.01137047" lon="-118.66953108">
				<ele>1563.199951171875</ele>
				<time>2013-05-28T09:20:28Z</time>
				<cmt>speed=0</cmt>
				<hdop>12</hdop>
			</trkpt>
			<trkpt lat="42.0114088" lon="-118.66929469">
				<ele>1537.199951171875</ele>
				<time>2013-05-28T09:21:19Z</time>
				<cmt>speed=2.136</cmt>
				<hdop>16</hdop>
			</trkpt>
			<trkpt lat="42.01128616" lon="-118.66903201">
				<ele>1516.5</ele>
				<time>2013-05-28T09:22:22Z</time>
				<cmt>speed=0.25</cmt>
				<hdop>16</hdop>
			</trkpt>
			<trkpt lat="42.01091193" lon="-118.66886753">
				<ele>1520.300048828125</ele>
				<time>2013-05-28T09:23:26Z</time>
				<cmt>speed=0</cmt>
				<hdop>19</hdop>
			</trkpt>
			<trkpt lat="42.01105951" lon="-118.66813852">
				<ele>1494.5999755859375</ele>
				<time>2013-05-28T09:24:28Z</time>
				<cmt>speed=0.75</cmt>
				<hdop>18</hdop>
			</trkpt>
			<trkpt lat="42.01069383" lon="-118.668146">
				<ele>1540.699951171875</ele>
				<time>2013-05-28T09:25:16Z</time>
				<cmt>speed=0.901388</cmt>
				<hdop>13</hdop>
			</trkpt>
			<trkpt lat="42.01086194" lon="-118.6681382">
				<ele>1497.4000244140625</ele>
				<time>2013-05-28T09:26:20Z</time>
				<cmt>speed=0</cmt>
				<hdop>13</hdop>
			</trkpt>
			<trkpt lat="42.01084489" lon="-118.66812806">
				<ele>1518.0999755859375</ele>
				<time>2013-05-28T09:27:19Z</time>
				<cmt>speed=0</cmt>
				<hdop>14</hdop>
			</trkpt>
			<trkpt lat="42.01111897" lon="-118.66781969">
				<ele>1523.0</ele>
				<time>2013-05-28T09:27:28Z</time>
				<cmt>speed=0</cmt>
				<hdop>17</hdop>
			</trkpt>
			<trkpt lat="42.01093899" lon="-118.66803662">
				<ele>1495.199951171875</ele>
				<time>2013-05-28T09:28:25Z</time>
				<cmt>speed=0</cmt>
				<hdop>11</hdop>
			</trkpt>
			<trkpt lat="42.0109474" lon="-118.66800854">
				<ele>1495.800048828125</ele>
				<time>2013-05-28T09:29:28Z</time>
				<cmt>speed=0.5</cmt>
				<hdop>6</hdop>
			</trkpt>
			<trkpt lat="42.01075067" lon="-118.66802461">
				<ele>1522.4000244140625</ele>
				<time>2013-05-28T09:30:28Z</time>
				<cmt>speed=0</cmt>
				<hdop>13</hdop>
			</trkpt>
			<trkpt lat="42.01087149" lon="-118.66796723">
				<ele>1465.9000244140625</ele>
				<time>2013-05-28T09:31:27Z</time>
				<cmt>speed=0</cmt>
				<hdop>8</hdop>
			</trkpt>
			<trkpt lat="42.01080804" lon="-118.66801945">
				<ele>1513.699951171875</ele>
				<time>2013-05-28T09:32:37Z</time>
				<cmt>speed=0</cmt>
				<hdop>18</hdop>
			</trkpt>
			<trkpt lat="42.01079606" lon="-118.66808904">
				<ele>1500.199951171875</ele>
				<time>2013-05-28T09:33:57Z</time>
				<cmt>speed=0</cmt>
				<hdop>19</hdop>
			</trkpt>
			<trkpt lat="42.01070626" lon="-118.66822599">
				<ele>1496.5</ele>
				<time>2013-05-28T09:34:25Z</time>
				<cmt>speed=1.11803</cmt>
				<hdop>17</hdop>
			</trkpt>
			<trkpt lat="42.01080416" lon="-118.6679988">
				<ele>1529.5999755859375</ele>
				<time>2013-05-28T09:35:39Z</time>
				<cmt>speed=0</cmt>
				<hdop>19</hdop>
			</trkpt>
			<trkpt lat="42.01080579" lon="-118.6679844">
				<ele>1532.4000244140625</ele>
				<time>2013-05-28T09:36:30Z</time>
				<cmt>speed=0</cmt>
				<hdop>8</hdop>
			</trkpt>
			<trkpt lat="42.01081708" lon="-118.66786829">
				<ele>1555.300048828125</ele>
				<time>2013-05-28T09:37:30Z</time>
				<cmt>speed=0</cmt>
				<hdop>15</hdop>
			</trkpt>
			<trkpt lat="42.01084128" lon="-118.66798216">
				<ele>1543.5</ele>
				<time>2013-05-28T09:38:30Z</time>
				<cmt>speed=0</cmt>
				<hdop>17</hdop>
			</trkpt>
			<trkpt lat="42.01062735" lon="-118.66787415">
				<ele>1511.800048828125</ele>
				<time>2013-05-28T09:39:28Z</time>
				<cmt>speed=0.707107</cmt>
				<hdop>13</hdop>
			</trkpt>
			<trkpt lat="42.01071779" lon="-118.66745847">
				<ele>1468.9000244140625</ele>
				<time>2013-05-28T09:40:32Z</time>
				<cmt>speed=0.75</cmt>
				<hdop>10</hdop>
			</trkpt>
			<trkpt lat="42.01046515" lon="-118.66719289">
				<ele>1495.0999755859375</ele>
				<time>2013-05-28T09:41:33Z</time>
				<cmt>speed=0.25</cmt>
				<hdop>14</hdop>
			</trkpt>
			<trkpt lat="42.01092788" lon="-118.66658211">
				<ele>1457.0999755859375</ele>
				<time>2013-05-28T09:42:34Z</time>
				<cmt>speed=1.58114</cmt>
				<hdop>13</hdop>
			</trkpt>
			<trkpt lat="42.01054033" lon="-118.66630191">
				<ele>1476.5999755859375</ele>
				<time>2013-05-28T09:43:32Z</time>
				<cmt>speed=1.41421</cmt>
				<hdop>13</hdop>
			</trkpt>
			<trkpt lat="42.01011409" lon="-118.66604873">
				<ele>1502.9000244140625</ele>
				<time>2013-05-28T09:44:35Z</time>
				<cmt>speed=4.27931</cmt>
				<hdop>14</hdop>
			</trkpt>
			<trkpt lat="42.01048366" lon="-118.66514905">
				<ele>1459.199951171875</ele>
				<time>2013-05-28T09:45:37Z</time>
				<cmt>speed=0.75</cmt>
				<hdop>17</hdop>
			</trkpt>
			<trkpt lat="42.01026675" lon="-118.66463634">
				<ele>1496.5999755859375</ele>
				<time>2013-05-28T09:46:39Z</time>
				<cmt>speed=1</cmt>
				<hdop>8</hdop>
			</trkpt>
			<trkpt lat="42.01015158" lon="-118.66356638">
				<ele>1465.9000244140625</ele>
				<time>2013-05-28T09:47:49Z</time>
				<cmt>speed=1.5</cmt>
				<hdop>18</hdop>
			</trkpt>
			<trkpt lat="42.01000935" lon="-118.66271314">
				<ele>1443.9000244140625</ele>
				<time>2013-05-28T09:48:40Z</time>
				<cmt>speed=1.58114</cmt>
				<hdop>15</hdop>
			</trkpt>
			<trkpt lat="42.00973957" lon="-118.66177679">
				<ele>1458.300048828125</ele>
				<time>2013-05-28T09:49:43Z</time>
				<cmt>speed=1.75</cmt>
				<hdop>17</hdop>
			</trkpt>
			<trkpt lat="42.00964033" lon="-118.66115798">
				<ele>1446.5</ele>
				<time>2013-05-28T09:50:44Z</time>
				<cmt>speed=0.75</cmt>
				<hdop>19</hdop>
			</trkpt>
			<trkpt lat="42.00956078" lon="-118.66101189">
				<ele>1500.699951171875</ele>
				<time>2013-05-28T09:51:37Z</time>
				<cmt>speed=4.06971</cmt>
				<hdop>13</hdop>
			</trkpt>
			<trkpt lat="42.00972211" lon="-118.66060435">
				<ele>1456.0999755859375</ele>
				<time>2013-05-28T09:52:41Z</time>
				<cmt>speed=0</cmt>
				<hdop>14</hdop>
			</trkpt>
			<trkpt lat="42.00953089" lon="-118.66026977">
				<ele>1413.0</ele>
				<time>2013-05-28T09:54:04Z</time>
				<cmt>speed=0.25</cmt>
				<hdop>19</hdop>
			</trkpt>
			<trkpt lat="42.009847" lon="-118.65988288">
				<ele>1432.199951171875</ele>
				<time>2013-05-28T09:54:42Z</time>
				<cmt>speed=1</cmt>
				<hdop>17</hdop>
			</trkpt>
			<trkpt lat="42.00953881" lon="-118.6596591">
				<ele>1461.300048828125</ele>
				<time>2013-05-28T09:55:43Z</time>
				<cmt>speed=0.901388</cmt>
				<hdop>18</hdop>
			</trkpt>
			<trkpt lat="42.009542" lon="-118.65922029">
				<ele>1439.699951171875</ele>
				<time>2013-05-28T09:56:43Z</time>
				<cmt>speed=0.25</cmt>
				<hdop>19</hdop>
			</trkpt>
			<trkpt lat="42.00963102" lon="-118.65876388">
				<ele>1461.0999755859375</ele>
				<time>2013-05-28T09:57:46Z</time>
				<cmt>speed=1.11803</cmt>
				<hdop>16</hdop>
			</trkpt>
			<trkpt lat="42.00948804" lon="-118.65815128">
				<ele>1445.199951171875</ele>
				<time>2013-05-28T09:58:41Z</time>
				<cmt>speed=5.15388</cmt>
				<hdop>9</hdop>
			</trkpt>
			<trkpt lat="42.0094176" lon="-118.65711865">
				<ele>1424.4000244140625</ele>
				<time>2013-05-28T09:59:53Z</time>
				<cmt>speed=1.5</cmt>
				<hdop>15</hdop>
			</trkpt>
			<trkpt lat="42.00957983" lon="-118.65613647">
				<ele>1398.4000244140625</ele>
				<time>2013-05-28T10:00:44Z</time>
				<cmt>speed=1</cmt>
				<hdop>14</hdop>
			</trkpt>
			<trkpt lat="42.00906176" lon="-118.65582253">
				<ele>1399.5</ele>
				<time>2013-05-28T10:01:46Z</time>
				<cmt>speed=2.54951</cmt>
				<hdop>17</hdop>
			</trkpt>
			<trkpt lat="42.00911902" lon="-118.65498227">
				<ele>1407.5</ele>
				<time>2013-05-28T10:02:46Z</time>
				<cmt>speed=1.25</cmt>
				<hdop>16</hdop>
			</trkpt>
			<trkpt lat="42.00914099" lon="-118.65394952">
				<ele>1399.300048828125</ele>
				<time>2013-05-28T10:03:50Z</time>
				<cmt>speed=1.5</cmt>
				<hdop>18</hdop>
			</trkpt>
			<trkpt lat="42.00942099" lon="-118.65304639">
				<ele>1406.5999755859375</ele>
				<time>2013-05-28T10:04:52Z</time>
				<cmt>speed=1.25</cmt>
				<hdop>19</hdop>
			</trkpt>
			<trkpt lat="42.00942516" lon="-118.65221575">
				<ele>1393.5</ele>
				<time>2013-05-28T10:06:02Z</time>
				<cmt>speed=0</cmt>
				<hdop>18</hdop>
			</trkpt>
			<trkpt lat="42.0095768" lon="-118.65184661">
				<ele>1394.9000244140625</ele>
				<time>2013-05-28T10:06:53Z</time>
				<cmt>speed=0.5</cmt>
				<hdop>18</hdop>
			</trkpt>
			<trkpt lat="42.00939476" lon="-118.65111074">
				<ele>1412.800048828125</ele>
				<time>2013-05-28T10:07:51Z</time>
				<cmt>speed=5.65685</cmt>
				<hdop>18</hdop>
			</trkpt>
			<trkpt lat="42.00923389" lon="-118.65040491">
				<ele>1398.4000244140625</ele>
				<time>2013-05-28T10:08:58Z</time>
				<cmt>speed=0.5</cmt>
				<hdop>18</hdop>
			</trkpt>
			<trkpt lat="42.00886693" lon="-118.65015143">
				<ele>1414.800048828125</ele>
				<time>2013-05-28T10:09:49Z</time>
				<cmt>speed=0.75</cmt>
				<hdop>19</hdop>
			</trkpt>
			<trkpt lat="42.0083901" lon="-118.64957739">
				<ele>1339.199951171875</ele>
				<time>2013-05-28T10:10:50Z</time>
				<cmt>speed=0.75</cmt>
				<hdop>19</hdop>
			</trkpt>
			<trkpt lat="42.00852772" lon="-118.64879718">
				<ele>1280.0999755859375</ele>
				<time>2013-05-28T10:11:51Z</time>
				<cmt>speed=1.11803</cmt>
				<hdop>14</hdop>
			</trkpt>
			<trkpt lat="42.00836204" lon="-118.64858444">
				<ele>1231.5</ele>
				<time>2013-05-28T10:12:50Z</time>
				<cmt>speed=1.25</cmt>
				<hdop>14</hdop>
			</trkpt>
			<trkpt lat="42.00830205" lon="-118.64819986">
				<ele>1318.0999755859375</ele>
				<time>2013-05-28T10:13:50Z</time>
				<cmt>speed=1.60078</cmt>
				<hdop>19</hdop>
			</trkpt>
			<trkpt lat="42.00825403" lon="-118.64723983">
				<ele>1412.5999755859375</ele>
				<time>2013-05-28T10:14:58Z</time>
				<cmt>speed=0</cmt>
				<hdop>17</hdop>
			</trkpt>
			<trkpt lat="42.00843875" lon="-118.6473763">
				<ele>1266.699951171875</ele>
				<time>2013-05-28T10:15:51Z</time>
				<cmt>speed=2.54951</cmt>
				<hdop>18</hdop>
			</trkpt>
			<trkpt lat="42.00804388" lon="-118.64697031">
				<ele>1377.5</ele>
				<time>2013-05-28T10:17:21Z</time>
				<cmt>speed=0.5</cmt>
				<hdop>19</hdop>
			</trkpt>
			<trkpt lat="42.00795679" lon="-118.64682041">
				<ele>1373.5999755859375</ele>
				<time>2013-05-28T10:17:51Z</time>
				<cmt>speed=0.5</cmt>
				<hdop>18</hdop>
			</trkpt>
			<trkpt lat="42.00789709" lon="-118.64653666">
				<ele>1381.199951171875</ele>
				<time>2013-05-28T10:18:50Z</time>
				<cmt>speed=2.06155</cmt>
				<hdop>10</hdop>
			</trkpt>
			<trkpt lat="42.0079585" lon="-118.64630702">
				<ele>1329.800048828125</ele>
				<time>2013-05-28T10:19:52Z</time>
				<cmt>speed=1.41421</cmt>
				<hdop>18</hdop>
			</trkpt>
			<trkpt lat="42.00808962" lon="-118.64618391">
				<ele>1345.0</ele>
				<time>2013-05-28T10:20:53Z</time>
				<cmt>speed=2.06155</cmt>
				<hdop>16</hdop>
			</trkpt>
			<trkpt lat="42.00761632" lon="-118.64603355">
				<ele>1331.300048828125</ele>
				<time>2013-05-28T10:22:01Z</time>
				<cmt>speed=1</cmt>
				<hdop>19</hdop>
			</trkpt>
			<trkpt lat="42.00763775" lon="-118.64575291">
				<ele>1342.199951171875</ele>
				<time>2013-05-28T10:22:55Z</time>
				<cmt>speed=0</cmt>
				<hdop>19</hdop>
			</trkpt>
			<trkpt lat="42.00738257" lon="-118.64561863">
				<ele>1315.0</ele>
				<time>2013-05-28T10:23:56Z</time>
				<cmt>speed=0.5</cmt>
				<hdop>19</hdop>
			</trkpt>
			<trkpt lat="42.00705247" lon="-118.64519705">
				<ele>1281.9000244140625</ele>
				<time>2013-05-28T10:24:55Z</time>
				<cmt>speed=1.11803</cmt>
				<hdop>14</hdop>
			</trkpt>
			<trkpt lat="42.00727348" lon="-118.64471991">
				<ele>1285.0</ele>
				<time>2013-05-28T10:25:56Z</time>
				<cmt>speed=1.58114</cmt>
				<hdop>19</hdop>
			</trkpt>
			<trkpt lat="42.0077674" lon="-118.64503212">
				<ele>1279.800048828125</ele>
				<time>2013-05-28T10:27:01Z</time>
				<cmt>speed=0</cmt>
				<hdop>19</hdop>
			</trkpt>
			<trkpt lat="42.00771463" lon="-118.64412378">
				<ele>1305.800048828125</ele>
				<time>2013-05-28T10:27:55Z</time>
				<cmt>speed=1</cmt>
				<hdop>8</hdop>
			</trkpt>
			<trkpt lat="42.00756364" lon="-118.64391998">
				<ele>1321.5</ele>
				<time>2013-05-28T10:28:56Z</time>
				<cmt>speed=1.11803</cmt>
				<hdop>13</hdop>
			</trkpt>
			<trkpt lat="42.00744946" lon="-118.64311449">
				<ele>1312.5</ele>
				<time>2013-05-28T10:29:56Z</time>
				<cmt>speed=1.5</cmt>
				<hdop>13</hdop>
			</trkpt>
			<trkpt lat="42.0067922" lon="-118.64236258">
				<ele>1313.4000244140625</ele>
				<time>2013-05-28T10:30:56Z</time>
				<cmt>speed=1.34629</cmt>
				<hdop>18</hdop>
			</trkpt>
			<trkpt lat="42.00624942" lon="-118.64188423">
				<ele>1345.300048828125</ele>
				<time>2013-05-28T10:31:56Z</time>
				<cmt>speed=1.34629</cmt>
				<hdop>18</hdop>
			</trkpt>
			<trkpt lat="42.00578653" lon="-118.64139543">
				<ele>1326.5999755859375</ele>
				<time>2013-05-28T10:32:59Z</time>
				<cmt>speed=1.25</cmt>
				<hdop>7</hdop>
			</trkpt>
			<trkpt lat="42.00523301" lon="-118.64119772">
				<ele>1316.4000244140625</ele>
				<time>2013-05-28T10:33:52Z</time>
				<cmt>speed=3.75</cmt>
				<hdop>9</hdop>
			</trkpt>
			<trkpt lat="42.00441629" lon="-118.64119135">
				<ele>1304.5999755859375</ele>
				<time>2013-05-28T10:34:54Z</time>
				<cmt>speed=1.82003</cmt>
				<hdop>14</hdop>
			</trkpt>
			<trkpt lat="42.00358182" lon="-118.64090842">
				<ele>1291.5</ele>
				<time>2013-05-28T10:35:54Z</time>
				<cmt>speed=2.30489</cmt>
				<hdop>15</hdop>
			</trkpt>
			<trkpt lat="42.00273183" lon="-118.64021066">
				<ele>1309.4000244140625</ele>
				<time>2013-05-28T10:36:55Z</time>
				<cmt>speed=1.58114</cmt>
				<hdop>17</hdop>
			</trkpt>
			<trkpt lat="42.00217156" lon="-118.63976747">
				<ele>1274.800048828125</ele>
				<time>2013-05-28T10:37:54Z</time>
				<cmt>speed=1.25</cmt>
				<hdop>16</hdop>
			</trkpt>
			<trkpt lat="42.00163862" lon="-118.63910344">
				<ele>1280.199951171875</ele>
				<time>2013-05-28T10:38:54Z</time>
				<cmt>speed=1.5</cmt>
				<hdop>12</hdop>
			</trkpt>
			<trkpt lat="42.00098685" lon="-118.63828415">
				<ele>1278.9000244140625</ele>
				<time>2013-05-28T10:39:55Z</time>
				<cmt>speed=1.25</cmt>
				<hdop>10</hdop>
			</trkpt>
			<trkpt lat="42.00055024" lon="-118.63757621">
				<ele>1247.4000244140625</ele>
				<time>2013-05-28T10:40:55Z</time>
				<cmt>speed=0</cmt>
				<hdop>18</hdop>
			</trkpt>
			<trkpt lat="42.00059044" lon="-118.6374174">
				<ele>1257.0</ele>
				<time>2013-05-28T10:41:56Z</time>
				<cmt>speed=0</cmt>
				<hdop>16</hdop>
			</trkpt>
			<trkpt lat="42.00056211" lon="-118.6374958">
				<ele>1274.800048828125</ele>
				<time>2013-05-28T10:42:57Z</time>
				<cmt>speed=1.5</cmt>
				<hdop>16</hdop>
			</trkpt>
			<trkpt lat="42.00020685" lon="-118.63738179">
				<ele>1281.0</ele>
				<time>2013-05-28T10:43:56Z</time>
				<cmt>speed=1.58114</cmt>
				<hdop>11</hdop>
			</trkpt>
			<trkpt lat="41.99949513" lon="-118.63639265">
				<ele>1265.5999755859375</ele>
				<time>2013-05-28T10:44:58Z</time>
				<cmt>speed=1.58114</cmt>
				<hdop>13</hdop>
			</trkpt>
			<trkpt lat="41.99896059" lon="-118.63550518">
				<ele>1268.199951171875</ele>
				<time>2013-05-28T10:45:57Z</time>
				<cmt>speed=1.25</cmt>
				<hdop>12</hdop>
			</trkpt>
			<trkpt lat="41.99876803" lon="-118.6358469">
				<ele>1276.4000244140625</ele>
				<time>2013-05-28T10:46:54Z</time>
				<cmt>speed=1</cmt>
				<hdop>14</hdop>
			</trkpt>
			<trkpt lat="41.99780827" lon="-118.63619823">
				<ele>1266.199951171875</ele>
				<time>2013-05-28T10:47:56Z</time>
				<cmt>speed=1.5</cmt>
				<hdop>17</hdop>
			</trkpt>
			<trkpt lat="41.99707356" lon="-118.63605989">
				<ele>1277.5</ele>
				<time>2013-05-28T10:48:58Z</time>
				<cmt>speed=1.25</cmt>
				<hdop>9</hdop>
			</trkpt>
			<trkpt lat="41.99631767" lon="-118.63567107">
				<ele>1271.199951171875</ele>
				<time>2013-05-28T10:49:59Z</time>
				<cmt>speed=1.5</cmt>
				<hdop>8</hdop>
			</trkpt>
			<trkpt lat="41.99561709" lon="-118.63553026">
				<ele>1256.699951171875</ele>
				<time>2013-05-28T10:50:59Z</time>
				<cmt>speed=1.25</cmt>
				<hdop>10</hdop>
			</trkpt>
			<trkpt lat="41.99478516" lon="-118.63530948">
				<ele>1278.199951171875</ele>
				<time>2013-05-28T10:51:59Z</time>
				<cmt>speed=1.82003</cmt>
				<hdop>9</hdop>
			</trkpt>
			<trkpt lat="41.99424503" lon="-118.63504656">
				<ele>1259.5</ele>
				<time>2013-05-28T10:52:59Z</time>
				<cmt>speed=0.75</cmt>
				<hdop>13</hdop>
			</trkpt>
			<trkpt lat="41.99373119" lon="-118.63462544">
				<ele>1251.199951171875</ele>
				<time>2013-05-28T10:54:01Z</time>
				<cmt>speed=1.58114</cmt>
				<hdop>19</hdop>
			</trkpt>
			<trkpt lat="41.99317192" lon="-118.63501335">
				<ele>1257.9000244140625</ele>
				<time>2013-05-28T10:55:00Z</time>
				<cmt>speed=0.75</cmt>
				<hdop>13</hdop>
			</trkpt>
			<trkpt lat="41.99321062" lon="-118.63487896">
				<ele>1259.0999755859375</ele>
				<time>2013-05-28T10:56:01Z</time>
				<cmt>speed=0</cmt>
				<hdop>16</hdop>
			</trkpt>
			<trkpt lat="41.99297135" lon="-118.63495102">
				<ele>1250.699951171875</ele>
				<time>2013-05-28T10:56:59Z</time>
				<cmt>speed=1.5</cmt>
				<hdop>10</hdop>
			</trkpt>
			<trkpt lat="41.99224218" lon="-118.63522682">
				<ele>1261.5999755859375</ele>
				<time>2013-05-28T10:58:01Z</time>
				<cmt>speed=1.5</cmt>
				<hdop>14</hdop>
			</trkpt>
			<trkpt lat="41.99159886" lon="-118.63521073">
				<ele>1276.9000244140625</ele>
				<time>2013-05-28T10:59:01Z</time>
				<cmt>speed=1.82003</cmt>
				<hdop>15</hdop>
			</trkpt>
			<trkpt lat="41.99074616" lon="-118.63555753">
				<ele>1257.300048828125</ele>
				<time>2013-05-28T11:00:02Z</time>
				<cmt>speed=1.5</cmt>
				<hdop>15</hdop>
			</trkpt>
			<trkpt lat="41.99008673" lon="-118.63550036">
				<ele>1246.9000244140625</ele>
				<time>2013-05-28T11:01:01Z</time>
				<cmt>speed=0.5</cmt>
				<hdop>14</hdop>
			</trkpt>
			<trkpt lat="41.99030574" lon="-118.63566714">
				<ele>1278.199951171875</ele>
				<time>2013-05-28T11:02:02Z</time>
				<cmt>speed=2.5</cmt>
				<hdop>11</hdop>
			</trkpt>
			<trkpt lat="41.990237" lon="-118.63560719">
				<ele>1269.0999755859375</ele>
				<time>2013-05-28T11:03:02Z</time>
				<cmt>speed=0</cmt>
				<hdop>10</hdop>
			</trkpt>
			<trkpt lat="41.99023251" lon="-118.63565713">
				<ele>1266.300048828125</ele>
				<time>2013-05-28T11:04:03Z</time>
				<cmt>speed=0</cmt>
				<hdop>11</hdop>
			</trkpt>
			<trkpt lat="41.99014604" lon="-118.63567104">
				<ele>1261.9000244140625</ele>
				<time>2013-05-28T11:05:05Z</time>
				<cmt>speed=0</cmt>
				<hdop>11</hdop>
			</trkpt>
		</trkseg>
	</trk>
	<wpt lat="42.25141014" lon="-118.70935907">
		<ele>1323.199951171875</ele>
		<time>2013-05-26T09:34:03Z</time>
		<name>Gate</name>
		<cmt>speed=0</cmt>
		<hdop>14</hdop>
	</wpt>
	<wpt lat="42.21832105" lon="-118.72623861">
		<ele>1500.800048828125</ele>
		<time>2013-05-26T11:03:00Z</time>
		<name>Starr Homestead</name>
		<cmt>speed=0</cmt>
		<hdop>3</hdop>
	</wpt>
	<wpt lat="42.16954954" lon="-118.73516326">
		<ele>1847.800048828125</ele>
		<time>2013-05-26T13:47:58Z</time>
		<name>Cairn 2</name>
		<cmt>speed=0</cmt>
		<hdop>3</hdop>
	</wpt>
	<wpt lat="42.17090235" lon="-118.73702901">
		<ele>1832.199951171875</ele>
		<time>2013-05-26T14:04:12Z</time>
		<name>Camp</name>
		<cmt>speed=0</cmt>
		<hdop>3</hdop>
	</wpt>
	<wpt lat="42.16671949" lon="-118.7362171">
		<ele>1800.4000244140625</ele>
		<time>2013-05-27T06:37:09Z</time>
		<name>Cairn 3</name>
		<cmt>speed=0</cmt>
		<hdop>19</hdop>
	</wpt>
	<wpt lat="42.16190614" lon="-118.73505318">
		<ele>2072.89990234375</ele>
		<time>2013-05-27T07:06:45Z</time>
		<name>Cairn 5</name>
		<cmt>speed=0.75</cmt>
		<hdop>13</hdop>
	</wpt>
	<wpt lat="42.15922797" lon="-118.73557856">
		<ele>2131.89990234375</ele>
		<time>2013-05-27T07:23:48Z</time>
		<name>Cairn 6</name>
		<cmt>speed=0.5</cmt>
		<hdop>17</hdop>
	</wpt>
	<wpt lat="42.1559542" lon="-118.73922116">
		<ele>2206.199951171875</ele>
		<time>2013-05-27T07:38:00Z</time>
		<name>Cairn 7</name>
		<cmt>speed=0.25</cmt>
		<hdop>9</hdop>
	</wpt>
	<wpt lat="42.15363153" lon="-118.73967458">
		<ele>2276.300048828125</ele>
		<time>2013-05-27T07:44:16Z</time>
		<name>Cairn 8</name>
		<cmt>speed=1.95256</cmt>
		<hdop>12</hdop>
	</wpt>
	<wpt lat="42.15002329" lon="-118.74165779">
		<ele>2259.800048828125</ele>
		<time>2013-05-27T07:53:25Z</time>
		<name>Cairn 9</name>
		<cmt>speed=0</cmt>
		<hdop>14</hdop>
	</wpt>
	<wpt lat="42.14928974" lon="-118.741583">
		<ele>2237.199951171875</ele>
		<time>2013-05-27T07:54:57Z</time>
		<name>Cairn 10</name>
		<cmt>speed=1.34629</cmt>
		<hdop>11</hdop>
	</wpt>
	<wpt lat="42.14530966" lon="-118.73887616">
		<ele>2205.800048828125</ele>
		<time>2013-05-27T08:06:28Z</time>
		<name>Cairn 11</name>
		<cmt>speed=1.11803</cmt>
		<hdop>16</hdop>
	</wpt>
	<wpt lat="42.14291345" lon="-118.73773859">
		<ele>2295.800048828125</ele>
		<time>2013-05-27T08:17:23Z</time>
		<name>Cairn 12</name>
		<cmt>speed=1.82003</cmt>
		<hdop>12</hdop>
	</wpt>	
	<wpt lat="42.13822252" lon="-118.73759629">
		<ele>2338.5</ele>
		<time>2013-05-27T08:32:01Z</time>
		<name>Cairn 15</name>
		<cmt>speed=1.34629</cmt>
		<hdop>17</hdop>
	</wpt>
	<wpt lat="42.131650038063526" lon="-118.734615985304117">
		<ele>2289.25</ele>
		<time>2012-08-20T00:29:56Z</time>
		<name>Cairn 16</name>
		<cmt>15-JUN-11 9:26:23AM</cmt>	
		<hdop>17</hdop>
	</wpt>		
	<wpt lat="42.128746965900064" lon="-118.731233971193433">
		<ele>2271.2199999999998</ele>
		<time>2012-08-20T00:29:56Z</time>
		<name>Cairn 18</name>
		<cmt>15-JUN-11 9:40:51AM</cmt>
		<hdop>17</hdop>
	</wpt>	
	<wpt lat="42.12154074" lon="-118.72574677">
		<ele>2289.5</ele>
		<time>2013-05-27T09:42:54Z</time>
		<name>Cairn 20</name>
		<cmt>speed=0</cmt>
		<hdop>10</hdop>
	</wpt>
	<wpt lat="42.1199774" lon="-118.72011061">
		<ele>2274.89990234375</ele>
		<time>2013-05-27T09:58:12Z</time>
		<name>Cairn 21</name>
		<cmt>speed=3.25</cmt>
		<hdop>13</hdop>
	</wpt>
	<wpt lat="42.116302018985152" lon="-118.712353985756636">
		<ele>2180.619999999999891</ele>
		<time>2012-08-20T00:29:56Z</time>
		<name>Cairn 23</name>
		<cmt>15-JUN-11 12:06:11PM</cmt>
		<hdop>10</hdop>
	</wpt>
	<wpt lat="42.109717028215528" lon="-118.704275004565716">
		<ele>2178.460000000000036</ele>
		<time>2012-08-20T00:29:56Z</time>
		<name>Cairn 26</name>
		<cmt>15-JUN-11 1:38:46PM</cmt>
		<hdop>10</hdop>
	</wpt>
	<wpt lat="42.108991993591189" lon="-118.702650004997849">
		<ele>2176.289999999999964</ele>
		<time>2012-08-20T00:29:56Z</time>
		<name>Cairn 27</name>
		<cmt>15-JUN-11 1:52:49PM</cmt>
		<hdop>10</hdop>	
	</wpt>
	<wpt lat="42.106932979077101" lon="-118.699808036908507">
		<ele>2166.199999999999818</ele>
		<time>2012-08-20T00:29:56Z</time>
		<name>Cairn 29</name>
		<cmt>15-JUN-11 2:09:30PM</cmt>	
		<hdop>10</hdop>
	</wpt>
	<wpt lat="42.097568968310952" lon="-118.691726960241795">
		<ele>2143.130000000000109</ele>
		<time>2012-08-20T00:29:56Z</time>
		<name>Cairn 31</name>
		<cmt>15-JUN-11 3:14:27PM</cmt>
		<hdop>10</hdop>
	</wpt>	
	<wpt lat="42.074670027941465" lon="-118.690839987248182">
		<ele>2085.690000000000055</ele>
		<time>2012-08-20T00:29:56Z</time>
		<name>Cairn 34</name>
		<cmt>16-JUN-11 10:59:00AM</cmt>
		<hdop>13</hdop>
	</wpt>
	<wpt lat="42.066842000931501" lon="-118.693728977814317">
		<ele>2093.139999999999873</ele>
		<time>2012-08-20T00:29:56Z</time>
		<name>Cairn 36</name>
		<cmt>16-JUN-11 12:24:22PM</cmt>	
		<hdop>13</hdop>
	</wpt>	
	<wpt lat="42.0646040327847" lon="-118.691475000232458">
		<ele>2155.389999999999873</ele>
		<time>2012-08-20T00:29:56Z</time>
		<name>Cairn 38</name>
		<cmt>16-JUN-11 12:36:24PM</cmt>
		<hdop>13</hdop>
	</wpt>
	<wpt lat="42.054787985980511" lon="-118.694432973861694">
		<ele>2036.420000000000073</ele>
		<time>2012-08-20T00:29:56Z</time>
		<name>Cairn 41</name>
		<cmt>16-JUN-11 2:14:15PM</cmt>	
		<hdop>16</hdop>
	</wpt>
	<wpt lat="42.051494987681508" lon="-118.695692019537091">
		<ele>1964.079999999999927</ele>
		<time>2012-08-20T00:29:56Z</time>
		<name>Cairn 42</name>
		<cmt>16-JUN-11 2:35:52PM</cmt>
		<hdop>18</hdop>
	</wpt>	
	<wpt lat="42.057761" lon="-118.69348693">
		<ele>2061.60009765625</ele>
		<time>2013-05-27T15:05:41Z</time>
		<name>Camp night 2</name>
		<cmt>speed=0</cmt>
		<hdop>16</hdop>
	</wpt>
	<wpt lat="42.044874960556626" lon="-118.697376027703285">
		<ele>1878.529999999999973</ele>
		<time>2012-08-20T00:29:56Z</time>
		<name>Cairn 44</name>
		<cmt>16-JUN-11 3:17:24PM</cmt>
		<hdop>16</hdop>
	</wpt>
	<wpt lat="42.01953878" lon="-118.67810579">
		<ele>1618.4000244140625</ele>
		<time>2013-05-28T08:49:54Z</time>
		<name>Cairn 45</name>
		<cmt>speed=1.25</cmt>
		<hdop>18</hdop>
	</wpt>
	<wpt lat="42.01491741" lon="-118.67367341">
		<ele>1609.300048828125</ele>
		<time>2013-05-28T09:02:07Z</time>
		<name>Cairn 46</name>
		<cmt>speed=0</cmt>
		<hdop>14</hdop>
	</wpt>
	<wpt lat="42.01111897" lon="-118.66781969">
		<ele>1523.0</ele>
		<time>2013-05-28T09:27:28Z</time>
		<name>Cairn 48</name>
		<cmt>speed=0</cmt>
		<hdop>17</hdop>
	</wpt>
	<wpt lat="42.00523301" lon="-118.64119772">
		<ele>1316.4000244140625</ele>
		<time>2013-05-28T10:33:52Z</time>
		<name>End of route</name>
		<cmt>speed=3.75</cmt>
		<hdop>9</hdop>
	</wpt>
</gpx>